Time,TemperatureF,DewpointF,PressureIn,WindDirection,WindDirectionDegrees,WindSpeedMPH,WindSpeedGustMPH,Humidity,HourlyPrecipIn,Conditions,Clouds,dailyrainin,SoftwareType,DateUTC
2013-05-12 00:00:00,59.4,31.0,29.94,NNW,338,3.5,3.6,34,0.00,,---,0.00,VWS V14.00,2013-05-12 05:00:00,
2013-05-12 00:01:00,59.4,31.0,29.94,North,0,4.6,4.6,34,0.00,,---,0.00,VWS V14.00,2013-05-12 05:01:00,
2013-05-12 00:02:00,59.4,31.0,29.91,North,0,4.1,4.1,34,0.00,,---,0.00,VWS V14.00,2013-05-12 05:02:00,
2013-05-12 00:03:00,59.2,30.9,29.91,North,0,4.1,4.1,34,0.00,,---,0.00,VWS V14.00,2013-05-12 05:03:00,
2013-05-12 00:04:00,59.2,30.9,29.91,NNE,22,3.5,3.5,34,0.00,,---,0.00,VWS V14.00,2013-05-12 05:04:00,
2013-05-12 00:05:00,59.2,30.9,29.91,NNW,338,1.0,1.6,34,0.00,,---,0.00,VWS V14.00,2013-05-12 05:05:00,
2013-05-12 00:06:00,59.2,30.9,29.91,NNW,338,1.0,1.6,34,0.00,,---,0.00,VWS V14.00,2013-05-12 05:06:00,
2013-05-12 00:07:00,59.0,30.7,29.91,NNW,338,2.7,2.7,34,0.00,,---,0.00,VWS V14.00,2013-05-12 05:07:00,
2013-05-12 00:08:00,59.0,30.7,29.91,North,0,2.4,3.1,34,0.00,,---,0.00,VWS V14.00,2013-05-12 05:08:00,
2013-05-12 00:09:00,59.0,30.7,29.91,NNE,22,4.6,4.6,34,0.00,,---,0.00,VWS V14.00,2013-05-12 05:09:00,
2013-05-12 00:10:00,58.8,31.2,29.91,NNW,338,3.5,3.5,35,0.00,,---,0.00,VWS V14.00,2013-05-12 05:10:00,
2013-05-12 00:11:00,58.8,31.2,29.91,NNW,338,3.5,3.5,35,0.00,,---,0.00,VWS V14.00,2013-05-12 05:11:00,
2013-05-12 00:12:00,58.8,31.2,29.91,NNE,22,4.6,4.6,35,0.00,,---,0.00,VWS V14.00,2013-05-12 05:12:00,
2013-05-12 00:13:00,58.8,31.2,29.91,North,0,4.4,4.4,35,0.00,,---,0.00,VWS V14.00,2013-05-12 05:13:00,
2013-05-12 00:14:00,58.6,31.1,29.91,NNW,338,4.4,4.4,35,0.00,,---,0.00,VWS V14.00,2013-05-12 05:14:00,
2013-05-12 00:15:00,58.6,31.1,29.91,North,0,4.1,4.1,35,0.00,,---,0.00,VWS V14.00,2013-05-12 05:15:00,
2013-05-12 00:16:00,58.6,31.1,29.91,North,0,4.1,4.1,35,0.00,,---,0.00,VWS V14.00,2013-05-12 05:16:00,
2013-05-12 00:17:00,58.5,30.9,29.91,North,0,4.1,4.1,35,0.00,,---,0.00,VWS V14.00,2013-05-12 05:17:00,
2013-05-12 00:18:00,58.5,30.9,29.91,NNE,22,4.1,4.1,35,0.00,,---,0.00,VWS V14.00,2013-05-12 05:18:00,
2013-05-12 00:19:00,58.5,30.9,29.91,North,0,4.6,4.6,35,0.00,,---,0.00,VWS V14.00,2013-05-12 05:19:00,
2013-05-12 00:20:00,58.3,30.8,29.91,North,0,4.9,4.9,35,0.00,,---,0.00,VWS V14.00,2013-05-12 05:20:00,
2013-05-12 00:21:00,58.3,30.8,29.91,North,0,4.9,4.9,35,0.00,,---,0.00,VWS V14.00,2013-05-12 05:21:00,
2013-05-12 00:22:00,58.3,30.8,29.91,North,0,6.3,6.3,35,0.00,,---,0.00,VWS V14.00,2013-05-12 05:22:00,
2013-05-12 00:23:00,58.3,31.5,29.91,NNW,338,4.9,4.9,36,0.00,,---,0.00,VWS V14.00,2013-05-12 05:23:00,
2013-05-12 00:24:00,58.1,31.3,29.91,North,0,4.6,4.6,36,0.00,,---,0.00,VWS V14.00,2013-05-12 05:24:00,
2013-05-12 00:25:00,58.1,31.3,29.91,North,0,4.9,4.9,36,0.00,,---,0.00,VWS V14.00,2013-05-12 05:25:00,
2013-05-12 00:26:00,58.1,31.3,29.91,North,0,4.9,4.9,36,0.00,,---,0.00,VWS V14.00,2013-05-12 05:26:00,
2013-05-12 00:27:00,58.1,31.3,29.91,North,0,4.9,4.9,36,0.00,,---,0.00,VWS V14.00,2013-05-12 05:27:00,
2013-05-12 00:28:00,57.9,31.1,29.91,NE,45,4.4,4.4,36,0.00,,---,0.00,VWS V14.00,2013-05-12 05:28:00,
2013-05-12 00:29:00,57.9,31.1,29.91,North,0,4.4,4.4,36,0.00,,---,0.00,VWS V14.00,2013-05-12 05:29:00,
2013-05-12 00:30:00,57.9,31.1,29.91,North,0,6.3,6.3,36,0.00,,---,0.00,VWS V14.00,2013-05-12 05:30:00,
2013-05-12 00:31:00,57.9,31.1,29.91,North,0,6.3,6.3,36,0.00,,---,0.00,VWS V14.00,2013-05-12 05:31:00,
2013-05-12 00:32:00,57.9,31.1,29.91,NNW,338,4.1,4.3,36,0.00,,---,0.00,VWS V14.00,2013-05-12 05:32:00,
2013-05-12 00:33:00,57.9,31.1,29.91,North,0,4.4,4.4,36,0.00,,---,0.00,VWS V14.00,2013-05-12 05:33:00,
2013-05-12 00:34:00,57.9,31.8,29.91,North,0,2.4,3.1,37,0.00,,---,0.00,VWS V14.00,2013-05-12 05:34:00,
2013-05-12 00:35:00,57.7,31.7,29.91,North,0,2.4,2.4,37,0.00,,---,0.00,VWS V14.00,2013-05-12 05:35:00,
2013-05-12 00:36:00,57.7,31.7,29.91,NNE,22,4.6,4.6,37,0.00,,---,0.00,VWS V14.00,2013-05-12 05:36:00,
2013-05-12 00:37:00,57.7,31.7,29.91,North,0,1.0,2.9,37,0.00,,---,0.00,VWS V14.00,2013-05-12 05:37:00,
2013-05-12 00:38:00,57.6,31.5,29.91,North,0,4.4,4.4,37,0.00,,---,0.00,VWS V14.00,2013-05-12 05:38:00,
2013-05-12 00:39:00,57.6,31.5,29.91,NNE,22,2.7,2.7,37,0.00,,---,0.00,VWS V14.00,2013-05-12 05:39:00,
2013-05-12 00:40:00,57.6,31.5,29.91,NNE,22,2.7,2.7,37,0.00,,---,0.00,VWS V14.00,2013-05-12 05:40:00,
2013-05-12 00:41:00,57.4,31.3,29.91,NNE,22,2.7,2.7,37,0.00,,---,0.00,VWS V14.00,2013-05-12 05:41:00,
2013-05-12 00:42:00,57.4,31.3,29.91,NNE,22,2.7,2.7,37,0.00,,---,0.00,VWS V14.00,2013-05-12 05:42:00,
2013-05-12 00:43:00,57.2,31.2,29.91,NNE,22,2.1,2.1,37,0.00,,---,0.00,VWS V14.00,2013-05-12 05:43:00,
2013-05-12 00:44:00,57.2,31.2,29.91,NNE,22,1.0,2.0,37,0.00,,---,0.00,VWS V14.00,2013-05-12 05:44:00,
2013-05-12 00:45:00,57.0,31.7,29.91,North,0,4.9,4.9,38,0.00,,---,0.00,VWS V14.00,2013-05-12 05:45:00,
2013-05-12 00:46:00,57.0,31.7,29.94,NNE,22,4.1,4.1,38,0.00,,---,0.00,VWS V14.00,2013-05-12 05:46:00,
2013-05-12 00:47:00,57.0,31.7,29.94,NNE,22,4.1,4.1,38,0.00,,---,0.00,VWS V14.00,2013-05-12 05:47:00,
2013-05-12 00:48:00,56.8,31.5,29.94,NNW,338,3.0,3.0,38,0.00,,---,0.00,VWS V14.00,2013-05-12 05:48:00,
2013-05-12 00:50:00,56.8,31.5,29.94,NNE,22,5.2,5.2,38,0.00,,---,0.00,VWS V14.00,2013-05-12 05:50:00,
2013-05-12 00:51:00,56.8,31.5,29.94,NE,45,4.1,4.1,38,0.00,,---,0.00,VWS V14.00,2013-05-12 05:51:00,
2013-05-12 00:52:00,56.8,31.5,29.94,NE,45,4.1,4.1,38,0.00,,---,0.00,VWS V14.00,2013-05-12 05:52:00,
2013-05-12 00:53:00,56.8,31.5,29.94,North,0,2.1,2.5,38,0.00,,---,0.00,VWS V14.00,2013-05-12 05:53:00,
2013-05-12 00:54:00,56.8,31.5,29.94,NNW,338,4.4,4.4,38,0.00,,---,0.00,VWS V14.00,2013-05-12 05:54:00,
2013-05-12 00:55:00,56.8,31.5,29.94,NNE,22,3.5,3.5,38,0.00,,---,0.00,VWS V14.00,2013-05-12 05:55:00,
2013-05-12 00:56:00,56.8,32.2,29.94,North,0,5.5,5.5,39,0.00,,---,0.00,VWS V14.00,2013-05-12 05:56:00,
2013-05-12 00:57:00,56.8,32.2,29.94,North,0,4.9,4.9,39,0.00,,---,0.00,VWS V14.00,2013-05-12 05:57:00,
2013-05-12 00:59:00,56.8,32.2,29.94,NNW,338,2.1,3.1,39,0.00,,---,0.00,VWS V14.00,2013-05-12 05:59:00,
2013-05-12 01:00:00,56.7,32.0,29.94,North,0,4.1,4.1,39,0.00,,---,0.00,VWS V14.00,2013-05-12 06:00:00,
2013-05-12 01:01:00,56.7,32.0,29.94,North,0,3.5,3.5,39,0.00,,---,0.00,VWS V14.00,2013-05-12 06:01:00,
2013-05-12 01:02:00,56.7,32.0,29.94,North,0,3.0,3.0,39,0.00,,---,0.00,VWS V14.00,2013-05-12 06:02:00,
2013-05-12 01:03:00,56.5,31.8,29.94,North,0,5.8,5.8,39,0.00,,---,0.00,VWS V14.00,2013-05-12 06:03:00,
2013-05-12 01:04:00,56.5,31.8,29.94,North,0,3.5,3.8,39,0.00,,---,0.00,VWS V14.00,2013-05-12 06:04:00,
2013-05-12 01:05:00,56.5,31.8,29.94,North,0,3.5,3.5,39,0.00,,---,0.00,VWS V14.00,2013-05-12 06:05:00,
2013-05-12 01:06:00,56.5,31.8,29.94,North,0,3.0,3.0,39,0.00,,---,0.00,VWS V14.00,2013-05-12 06:06:00,
2013-05-12 01:07:00,56.3,31.7,29.94,North,0,3.8,3.8,39,0.00,,---,0.00,VWS V14.00,2013-05-12 06:07:00,
2013-05-12 01:08:00,56.3,31.7,29.94,NNE,22,3.0,3.0,39,0.00,,---,0.00,VWS V14.00,2013-05-12 06:08:00,
2013-05-12 01:09:00,56.3,31.7,29.94,NNE,22,3.0,3.0,39,0.00,,---,0.00,VWS V14.00,2013-05-12 06:09:00,
2013-05-12 01:10:00,56.1,32.2,29.94,NNW,338,4.6,4.6,40,0.00,,---,0.00,VWS V14.00,2013-05-12 06:10:00,
2013-05-12 01:11:00,56.1,31.5,29.94,North,0,4.4,4.4,39,0.00,,---,0.00,VWS V14.00,2013-05-12 06:11:00,
2013-05-12 01:12:00,56.1,31.5,29.94,North,0,4.9,4.9,39,0.00,,---,0.00,VWS V14.00,2013-05-12 06:12:00,
2013-05-12 01:13:00,56.1,31.5,29.94,North,0,4.6,4.6,39,0.00,,---,0.00,VWS V14.00,2013-05-12 06:13:00,
2013-05-12 01:14:00,56.1,31.5,29.94,North,0,4.6,4.6,39,0.00,,---,0.00,VWS V14.00,2013-05-12 06:14:00,
2013-05-12 01:15:00,56.1,31.5,29.94,NNE,22,4.4,4.4,39,0.00,,---,0.00,VWS V14.00,2013-05-12 06:15:00,
2013-05-12 01:16:00,55.9,32.0,29.94,North,0,3.0,3.0,40,0.00,,---,0.00,VWS V14.00,2013-05-12 06:16:00,
2013-05-12 01:17:00,55.9,32.0,29.94,North,0,4.6,4.6,40,0.00,,---,0.00,VWS V14.00,2013-05-12 06:17:00,
2013-05-12 01:18:00,55.9,32.0,29.94,North,0,2.1,2.9,40,0.00,,---,0.00,VWS V14.00,2013-05-12 06:18:00,
2013-05-12 01:19:00,55.9,32.0,29.94,North,0,2.1,2.9,40,0.00,,---,0.00,VWS V14.00,2013-05-12 06:19:00,
2013-05-12 01:20:00,55.9,32.0,29.94,North,0,4.6,4.6,40,0.00,,---,0.00,VWS V14.00,2013-05-12 06:20:00,
2013-05-12 01:21:00,55.9,32.0,29.94,North,0,4.9,4.9,40,0.00,,---,0.00,VWS V14.00,2013-05-12 06:21:00,
2013-05-12 01:22:00,55.9,32.0,29.94,North,0,3.8,3.8,40,0.00,,---,0.00,VWS V14.00,2013-05-12 06:22:00,
2013-05-12 01:23:00,55.8,31.8,29.94,NE,45,3.0,3.0,40,0.00,,---,0.00,VWS V14.00,2013-05-12 06:23:00,
2013-05-12 01:24:00,55.8,31.8,29.94,NE,45,3.0,3.0,40,0.00,,---,0.00,VWS V14.00,2013-05-12 06:24:00,
2013-05-12 01:25:00,55.8,31.8,29.94,North,0,2.7,2.7,40,0.00,,---,0.00,VWS V14.00,2013-05-12 06:25:00,
2013-05-12 01:26:00,55.6,31.7,29.94,North,0,4.1,4.1,40,0.00,,---,0.00,VWS V14.00,2013-05-12 06:26:00,
2013-05-12 01:27:00,55.6,31.7,29.94,NNW,338,2.7,2.7,40,0.00,,---,0.00,VWS V14.00,2013-05-12 06:27:00,
2013-05-12 01:28:00,55.4,31.5,29.94,NNE,22,3.5,3.5,40,0.00,,---,0.00,VWS V14.00,2013-05-12 06:28:00,
2013-05-12 01:29:00,55.4,31.5,29.94,NNE,22,3.5,3.5,40,0.00,,---,0.00,VWS V14.00,2013-05-12 06:29:00,
2013-05-12 01:30:00,55.4,31.5,29.94,North,0,3.0,3.0,40,0.00,,---,0.00,VWS V14.00,2013-05-12 06:30:00,
2013-05-12 01:31:00,55.4,31.5,29.94,North,0,2.7,2.7,40,0.00,,---,0.00,VWS V14.00,2013-05-12 06:31:00,
2013-05-12 01:32:00,55.4,31.5,29.94,North,0,4.4,4.4,40,0.00,,---,0.00,VWS V14.00,2013-05-12 06:32:00,
2013-05-12 01:33:00,55.2,32.0,29.94,North,0,3.5,3.5,41,0.00,,---,0.00,VWS V14.00,2013-05-12 06:33:00,
2013-05-12 01:34:00,55.2,32.0,29.94,North,0,3.5,3.5,41,0.00,,---,0.00,VWS V14.00,2013-05-12 06:34:00,
2013-05-12 01:35:00,55.2,31.3,29.94,North,0,4.4,4.4,40,0.00,,---,0.00,VWS V14.00,2013-05-12 06:35:00,
2013-05-12 01:36:00,55.2,32.0,29.94,NNW,338,4.9,4.9,41,0.00,,---,0.00,VWS V14.00,2013-05-12 06:36:00,
2013-05-12 01:37:00,55.2,32.0,29.94,North,0,4.1,4.1,41,0.00,,---,0.00,VWS V14.00,2013-05-12 06:37:00,
2013-05-12 01:38:00,55.2,32.0,29.94,North,0,2.7,2.7,41,0.00,,---,0.00,VWS V14.00,2013-05-12 06:38:00,
2013-05-12 01:39:00,55.0,31.8,29.94,North,0,4.4,4.4,41,0.00,,---,0.00,VWS V14.00,2013-05-12 06:39:00,
2013-05-12 01:40:00,55.0,31.8,29.94,North,0,4.9,4.9,41,0.00,,---,0.00,VWS V14.00,2013-05-12 06:40:00,
2013-05-12 01:41:00,55.0,31.8,29.94,North,0,5.8,5.8,41,0.00,,---,0.00,VWS V14.00,2013-05-12 06:41:00,
2013-05-12 01:42:00,55.0,31.8,29.94,North,0,5.2,5.2,41,0.00,,---,0.00,VWS V14.00,2013-05-12 06:42:00,
2013-05-12 01:43:00,55.0,31.8,29.94,NNE,22,3.5,3.5,41,0.00,,---,0.00,VWS V14.00,2013-05-12 06:43:00,
2013-05-12 01:44:00,55.0,31.8,29.94,North,0,2.7,3.1,41,0.00,,---,0.00,VWS V14.00,2013-05-12 06:44:00,
2013-05-12 01:45:00,55.0,31.8,29.94,North,0,2.7,3.1,41,0.00,,---,0.00,VWS V14.00,2013-05-12 06:45:00,
2013-05-12 01:46:00,54.9,31.6,29.94,North,0,4.9,4.9,41,0.00,,---,0.00,VWS V14.00,2013-05-12 06:46:00,
2013-05-12 01:47:00,54.9,31.6,29.94,NNW,338,3.0,3.1,41,0.00,,---,0.00,VWS V14.00,2013-05-12 06:47:00,
2013-05-12 01:48:00,54.9,31.6,29.94,North,0,6.0,6.0,41,0.00,,---,0.00,VWS V14.00,2013-05-12 06:48:00,
2013-05-12 01:49:00,54.7,32.1,29.94,North,0,5.2,5.2,42,0.00,,---,0.00,VWS V14.00,2013-05-12 06:49:00,
2013-05-12 01:50:00,54.7,32.1,29.94,North,0,5.2,5.2,42,0.00,,---,0.00,VWS V14.00,2013-05-12 06:50:00,
2013-05-12 01:51:00,54.7,32.1,29.94,NNE,22,5.2,5.2,42,0.00,,---,0.00,VWS V14.00,2013-05-12 06:51:00,
2013-05-12 01:52:00,54.7,32.1,29.94,North,0,4.6,4.6,42,0.00,,---,0.00,VWS V14.00,2013-05-12 06:52:00,
2013-05-12 01:53:00,54.7,32.1,29.94,North,0,4.1,4.1,42,0.00,,---,0.00,VWS V14.00,2013-05-12 06:53:00,
2013-05-12 01:54:00,54.5,31.9,29.94,North,0,4.4,4.4,42,0.00,,---,0.00,VWS V14.00,2013-05-12 06:54:00,
2013-05-12 01:55:00,54.5,31.9,29.94,North,0,4.4,4.4,42,0.00,,---,0.00,VWS V14.00,2013-05-12 06:55:00,
2013-05-12 01:56:00,54.5,31.9,29.94,NNW,338,4.9,4.9,42,0.00,,---,0.00,VWS V14.00,2013-05-12 06:56:00,
2013-05-12 01:57:00,54.5,31.9,29.94,NNW,338,4.9,4.9,42,0.00,,---,0.00,VWS V14.00,2013-05-12 06:57:00,
2013-05-12 01:58:00,54.5,32.5,29.94,NNE,22,4.9,4.9,43,0.00,,---,0.00,VWS V14.00,2013-05-12 06:58:00,
2013-05-12 01:59:00,54.5,32.5,29.94,NNW,338,4.4,4.4,43,0.00,,---,0.00,VWS V14.00,2013-05-12 06:59:00,
2013-05-12 02:00:00,54.3,32.3,29.94,North,0,5.5,5.5,43,0.00,,---,0.00,VWS V14.00,2013-05-12 07:00:00,
2013-05-12 02:01:00,54.3,32.3,29.94,NNW,338,3.0,3.6,43,0.00,,---,0.00,VWS V14.00,2013-05-12 07:01:00,
2013-05-12 02:02:00,54.3,32.3,29.94,North,0,4.6,4.6,43,0.00,,---,0.00,VWS V14.00,2013-05-12 07:02:00,
2013-05-12 02:03:00,54.1,32.2,29.94,North,0,4.1,4.1,43,0.00,,---,0.00,VWS V14.00,2013-05-12 07:03:00,
2013-05-12 02:04:00,54.1,32.2,29.94,NNE,22,3.5,3.5,43,0.00,,---,0.00,VWS V14.00,2013-05-12 07:04:00,
2013-05-12 02:05:00,54.0,32.0,29.94,North,0,5.5,5.5,43,0.00,,---,0.00,VWS V14.00,2013-05-12 07:05:00,
2013-05-12 02:06:00,54.0,32.0,29.94,North,0,5.5,5.5,43,0.00,,---,0.00,VWS V14.00,2013-05-12 07:06:00,
2013-05-12 02:07:00,54.0,32.0,29.94,North,0,5.2,5.2,43,0.00,,---,0.00,VWS V14.00,2013-05-12 07:07:00,
2013-05-12 02:08:00,54.0,32.0,29.94,North,0,4.6,4.6,43,0.00,,---,0.00,VWS V14.00,2013-05-12 07:08:00,
2013-05-12 02:09:00,54.0,32.0,29.94,NNE,22,4.6,4.6,43,0.00,,---,0.00,VWS V14.00,2013-05-12 07:09:00,
2013-05-12 02:10:00,54.0,32.0,29.94,North,0,7.7,7.7,43,0.00,,---,0.00,VWS V14.00,2013-05-12 07:10:00,
2013-05-12 02:11:00,54.0,32.6,29.94,North,0,4.6,5.4,44,0.00,,---,0.00,VWS V14.00,2013-05-12 07:11:00,
2013-05-12 02:12:00,54.0,32.6,29.94,North,0,4.6,4.6,44,0.00,,---,0.00,VWS V14.00,2013-05-12 07:12:00,
2013-05-12 02:13:00,54.0,32.6,29.94,North,0,4.4,4.4,44,0.00,,---,0.00,VWS V14.00,2013-05-12 07:13:00,
2013-05-12 02:14:00,54.0,32.6,29.94,North,0,4.9,4.9,44,0.00,,---,0.00,VWS V14.00,2013-05-12 07:14:00,
2013-05-12 02:15:00,54.0,32.6,29.94,NE,45,6.3,6.3,44,0.00,,---,0.00,VWS V14.00,2013-05-12 07:15:00,
2013-05-12 02:16:00,54.0,32.6,29.94,North,0,4.1,4.1,44,0.00,,---,0.00,VWS V14.00,2013-05-12 07:16:00,
2013-05-12 02:17:00,54.0,32.6,29.94,North,0,4.1,4.1,44,0.00,,---,0.00,VWS V14.00,2013-05-12 07:17:00,
2013-05-12 02:18:00,54.0,32.6,29.94,North,0,5.2,5.4,44,0.00,,---,0.00,VWS V14.00,2013-05-12 07:18:00,
2013-05-12 02:19:00,54.0,32.6,29.94,North,0,5.2,5.2,44,0.00,,---,0.00,VWS V14.00,2013-05-12 07:19:00,
2013-05-12 02:20:00,54.0,32.6,29.94,NNW,338,3.8,3.8,44,0.00,,---,0.00,VWS V14.00,2013-05-12 07:20:00,
2013-05-12 02:21:00,54.0,32.0,29.94,NNE,22,3.8,3.8,43,0.00,,---,0.00,VWS V14.00,2013-05-12 07:21:00,
2013-05-12 02:22:00,54.0,32.0,29.94,NNE,22,3.8,3.8,43,0.00,,---,0.00,VWS V14.00,2013-05-12 07:22:00,
2013-05-12 02:23:00,54.0,32.6,29.94,NNE,22,4.6,4.6,44,0.00,,---,0.00,VWS V14.00,2013-05-12 07:23:00,
2013-05-12 02:24:00,54.0,32.0,29.94,NNE,22,3.8,3.8,43,0.00,,---,0.00,VWS V14.00,2013-05-12 07:24:00,
2013-05-12 02:25:00,54.0,32.0,29.94,NNE,22,4.4,4.4,43,0.00,,---,0.00,VWS V14.00,2013-05-12 07:25:00,
2013-05-12 02:26:00,54.0,32.0,29.94,North,0,4.4,4.4,43,0.00,,---,0.00,VWS V14.00,2013-05-12 07:26:00,
2013-05-12 02:27:00,53.8,31.8,29.94,NNW,338,4.4,4.4,43,0.00,,---,0.00,VWS V14.00,2013-05-12 07:27:00,
2013-05-12 02:28:00,53.8,31.8,29.94,NNW,338,5.5,5.5,43,0.00,,---,0.00,VWS V14.00,2013-05-12 07:28:00,
2013-05-12 02:29:00,53.8,31.8,29.94,North,0,4.6,4.6,43,0.00,,---,0.00,VWS V14.00,2013-05-12 07:29:00,
2013-05-12 02:30:00,53.8,31.8,29.94,North,0,2.7,2.9,43,0.00,,---,0.00,VWS V14.00,2013-05-12 07:30:00,
2013-05-12 02:31:00,53.8,31.8,29.94,North,0,3.5,3.5,43,0.00,,---,0.00,VWS V14.00,2013-05-12 07:31:00,
2013-05-12 02:32:00,53.6,31.7,29.94,North,0,4.6,4.6,43,0.00,,---,0.00,VWS V14.00,2013-05-12 07:32:00,
2013-05-12 02:33:00,53.6,31.7,29.94,North,0,4.6,4.6,43,0.00,,---,0.00,VWS V14.00,2013-05-12 07:33:00,
2013-05-12 02:34:00,53.6,31.7,29.94,North,0,4.4,4.4,43,0.00,,---,0.00,VWS V14.00,2013-05-12 07:34:00,
2013-05-12 02:35:00,53.6,32.2,29.94,North,0,4.4,4.4,44,0.00,,---,0.00,VWS V14.00,2013-05-12 07:35:00,
2013-05-12 02:36:00,53.6,31.7,29.94,NNW,338,4.1,4.1,43,0.00,,---,0.00,VWS V14.00,2013-05-12 07:36:00,
2013-05-12 02:37:00,53.6,31.7,29.94,North,0,4.4,4.4,43,0.00,,---,0.00,VWS V14.00,2013-05-12 07:37:00,
2013-05-12 02:38:00,53.6,31.7,29.94,North,0,4.4,4.4,43,0.00,,---,0.00,VWS V14.00,2013-05-12 07:38:00,
2013-05-12 02:39:00,53.4,31.5,29.94,North,0,4.4,4.4,43,0.00,,---,0.00,VWS V14.00,2013-05-12 07:39:00,
2013-05-12 02:41:00,53.4,31.5,29.94,North,0,4.1,4.1,43,0.00,,---,0.00,VWS V14.00,2013-05-12 07:41:00,
2013-05-12 02:42:00,53.4,31.5,29.94,NE,45,4.4,4.4,43,0.00,,---,0.00,VWS V14.00,2013-05-12 07:42:00,
2013-05-12 02:43:00,53.4,31.5,29.94,NE,45,4.4,4.4,43,0.00,,---,0.00,VWS V14.00,2013-05-12 07:43:00,
2013-05-12 02:44:00,53.4,31.5,29.94,North,0,2.4,2.7,43,0.00,,---,0.00,VWS V14.00,2013-05-12 07:44:00,
2013-05-12 02:45:00,53.4,31.5,29.94,NNE,22,1.0,2.0,43,0.00,,---,0.00,VWS V14.00,2013-05-12 07:45:00,
2013-05-12 02:46:00,53.4,31.5,29.94,NW,315,2.1,2.1,43,0.00,,---,0.00,VWS V14.00,2013-05-12 07:46:00,
2013-05-12 02:47:00,53.2,31.3,29.94,NW,315,3.0,3.0,43,0.00,,---,0.00,VWS V14.00,2013-05-12 07:47:00,
2013-05-12 02:48:00,53.2,31.3,29.94,NW,315,3.0,3.0,43,0.00,,---,0.00,VWS V14.00,2013-05-12 07:48:00,
2013-05-12 02:49:00,53.1,31.7,29.94,North,0,4.1,4.1,44,0.00,,---,0.00,VWS V14.00,2013-05-12 07:49:00,
2013-05-12 02:50:00,53.1,31.7,29.94,North,0,3.5,3.5,44,0.00,,---,0.00,VWS V14.00,2013-05-12 07:50:00,
2013-05-12 02:51:00,53.1,31.7,29.94,NNE,22,2.1,2.1,44,0.00,,---,0.00,VWS V14.00,2013-05-12 07:51:00,
2013-05-12 02:52:00,52.9,31.6,29.94,North,0,3.0,3.0,44,0.00,,---,0.00,VWS V14.00,2013-05-12 07:52:00,
2013-05-12 02:53:00,52.9,31.6,29.94,North,0,3.0,3.0,44,0.00,,---,0.00,VWS V14.00,2013-05-12 07:53:00,
2013-05-12 02:54:00,52.9,32.1,29.94,NNW,338,1.0,2.5,45,0.00,,---,0.00,VWS V14.00,2013-05-12 07:54:00,
2013-05-12 02:55:00,52.9,32.1,29.94,NNW,338,3.0,3.0,45,0.00,,---,0.00,VWS V14.00,2013-05-12 07:55:00,
2013-05-12 02:56:00,52.9,31.6,29.94,NNW,338,3.0,3.0,44,0.00,,---,0.00,VWS V14.00,2013-05-12 07:56:00,
2013-05-12 02:57:00,52.7,32.0,29.94,NNW,338,1.0,1.1,45,0.00,,---,0.00,VWS V14.00,2013-05-12 07:57:00,
2013-05-12 02:58:00,52.7,32.0,29.94,NNW,338,1.0,1.1,45,0.00,,---,0.00,VWS V14.00,2013-05-12 07:58:00,
2013-05-12 02:59:00,52.7,32.5,29.94,NNW,338,2.4,2.4,46,0.00,,---,0.00,VWS V14.00,2013-05-12 07:59:00,
2013-05-12 03:00:00,52.5,31.8,29.94,NNW,338,1.0,1.1,45,0.00,,---,0.00,VWS V14.00,2013-05-12 08:00:00,
2013-05-12 03:01:00,52.5,31.8,29.94,NNW,338,1.0,0.0,45,0.00,,---,0.00,VWS V14.00,2013-05-12 08:01:00,
2013-05-12 03:02:00,52.5,31.8,29.94,NNW,338,1.0,0.0,45,0.00,,---,0.00,VWS V14.00,2013-05-12 08:02:00,
2013-05-12 03:03:00,52.5,31.8,29.94,NNW,338,2.1,2.1,45,0.00,,---,0.00,VWS V14.00,2013-05-12 08:03:00,
2013-05-12 03:04:00,52.3,32.2,29.94,NNW,338,2.7,2.9,46,0.00,,---,0.00,VWS V14.00,2013-05-12 08:04:00,
2013-05-12 03:05:00,52.3,32.2,29.94,NNW,338,3.5,3.5,46,0.00,,---,0.00,VWS V14.00,2013-05-12 08:05:00,
2013-05-12 03:06:00,52.2,32.0,29.94,North,0,2.4,2.4,46,0.00,,---,0.00,VWS V14.00,2013-05-12 08:06:00,
2013-05-12 03:07:00,52.2,32.0,29.94,NNW,338,2.7,2.7,46,0.00,,---,0.00,VWS V14.00,2013-05-12 08:07:00,
2013-05-12 03:08:00,52.2,32.0,29.94,NNW,338,2.1,2.2,46,0.00,,---,0.00,VWS V14.00,2013-05-12 08:08:00,
2013-05-12 03:09:00,52.2,32.0,29.94,NNW,338,2.1,2.2,46,0.00,,---,0.00,VWS V14.00,2013-05-12 08:09:00,
2013-05-12 03:10:00,52.0,31.9,29.94,NNE,22,4.4,4.4,46,0.00,,---,0.00,VWS V14.00,2013-05-12 08:10:00,
2013-05-12 03:11:00,52.0,31.9,29.94,NNW,338,1.0,2.7,46,0.00,,---,0.00,VWS V14.00,2013-05-12 08:11:00,
2013-05-12 03:12:00,52.0,31.9,29.94,NNW,338,1.0,0.0,46,0.00,,---,0.00,VWS V14.00,2013-05-12 08:12:00,
2013-05-12 03:13:00,51.8,32.2,29.94,North,0,2.7,2.7,47,0.00,,---,0.00,VWS V14.00,2013-05-12 08:13:00,
2013-05-12 03:14:00,51.8,32.2,29.94,North,0,2.7,2.7,47,0.00,,---,0.00,VWS V14.00,2013-05-12 08:14:00,
2013-05-12 03:15:00,51.8,32.2,29.94,North,0,2.7,2.7,47,0.00,,---,0.00,VWS V14.00,2013-05-12 08:15:00,
2013-05-12 03:16:00,51.6,32.1,29.94,North,0,1.0,1.3,47,0.00,,---,0.00,VWS V14.00,2013-05-12 08:16:00,
2013-05-12 03:17:00,51.6,32.1,29.94,North,0,1.0,1.0,47,0.00,,---,0.00,VWS V14.00,2013-05-12 08:17:00,
2013-05-12 03:18:00,51.6,32.1,29.94,NNW,338,2.1,2.1,47,0.00,,---,0.00,VWS V14.00,2013-05-12 08:18:00,
2013-05-12 03:19:00,51.6,32.1,29.94,NNW,338,2.1,2.1,47,0.00,,---,0.00,VWS V14.00,2013-05-12 08:19:00,
2013-05-12 03:20:00,51.4,32.4,29.94,NNW,338,2.1,2.1,48,0.00,,---,0.00,VWS V14.00,2013-05-12 08:20:00,
2013-05-12 03:21:00,51.4,32.4,29.94,NNW,338,2.4,2.4,48,0.00,,---,0.00,VWS V14.00,2013-05-12 08:21:00,
2013-05-12 03:22:00,51.4,32.4,29.94,NNW,338,1.0,1.3,48,0.00,,---,0.00,VWS V14.00,2013-05-12 08:22:00,
2013-05-12 03:23:00,51.4,32.4,29.94,NNW,338,2.7,2.7,48,0.00,,---,0.00,VWS V14.00,2013-05-12 08:23:00,
2013-05-12 03:24:00,51.3,32.3,29.94,North,0,2.4,2.4,48,0.00,,---,0.00,VWS V14.00,2013-05-12 08:24:00,
2013-05-12 03:25:00,51.3,32.3,29.94,NNW,338,3.8,3.8,48,0.00,,---,0.00,VWS V14.00,2013-05-12 08:25:00,
2013-05-12 03:26:00,51.3,32.3,29.94,NNW,338,2.1,2.2,48,0.00,,---,0.00,VWS V14.00,2013-05-12 08:26:00,
2013-05-12 03:27:00,51.1,32.1,29.94,NNW,338,2.1,2.1,48,0.00,,---,0.00,VWS V14.00,2013-05-12 08:27:00,
2013-05-12 03:28:00,51.1,32.6,29.94,NNW,338,2.7,2.7,49,0.00,,---,0.00,VWS V14.00,2013-05-12 08:28:00,
2013-05-12 03:29:00,51.1,32.6,29.94,NW,315,2.7,2.7,49,0.00,,---,0.00,VWS V14.00,2013-05-12 08:29:00,
2013-05-12 03:30:00,51.1,32.6,29.94,NW,315,2.7,2.7,49,0.00,,---,0.00,VWS V14.00,2013-05-12 08:30:00,
2013-05-12 03:31:00,50.9,31.9,29.94,North,0,4.4,4.4,48,0.00,,---,0.00,VWS V14.00,2013-05-12 08:31:00,
2013-05-12 03:32:00,50.9,32.4,29.94,North,0,3.0,3.0,49,0.00,,---,0.00,VWS V14.00,2013-05-12 08:32:00,
2013-05-12 03:33:00,50.9,32.4,29.94,North,0,2.7,2.7,49,0.00,,---,0.00,VWS V14.00,2013-05-12 08:33:00,
2013-05-12 03:34:00,50.9,32.4,29.94,NNW,338,2.4,2.4,49,0.00,,---,0.00,VWS V14.00,2013-05-12 08:34:00,
2013-05-12 03:35:00,50.9,32.4,29.94,NNW,338,2.4,2.4,49,0.00,,---,0.00,VWS V14.00,2013-05-12 08:35:00,
2013-05-12 03:36:00,50.7,32.3,29.94,North,0,3.5,3.5,49,0.00,,---,0.00,VWS V14.00,2013-05-12 08:36:00,
2013-05-12 03:37:00,50.7,32.3,29.94,NW,315,3.5,3.5,49,0.00,,---,0.00,VWS V14.00,2013-05-12 08:37:00,
2013-05-12 03:38:00,50.7,32.8,29.94,NNW,338,3.5,3.5,50,0.00,,---,0.00,VWS V14.00,2013-05-12 08:38:00,
2013-05-12 03:39:00,50.7,32.8,29.94,NNE,22,4.6,4.6,50,0.00,,---,0.00,VWS V14.00,2013-05-12 08:39:00,
2013-05-12 03:40:00,50.7,32.8,29.94,NNE,22,4.6,4.6,50,0.00,,---,0.00,VWS V14.00,2013-05-12 08:40:00,
2013-05-12 03:41:00,50.7,32.8,29.94,NW,315,3.5,3.5,50,0.00,,---,0.00,VWS V14.00,2013-05-12 08:41:00,
2013-05-12 03:42:00,50.5,32.6,29.94,NNW,338,4.4,4.4,50,0.00,,---,0.00,VWS V14.00,2013-05-12 08:42:00,
2013-05-12 03:43:00,50.5,32.6,29.94,North,0,3.8,3.8,50,0.00,,---,0.00,VWS V14.00,2013-05-12 08:43:00,
2013-05-12 03:44:00,50.5,32.6,29.94,NNE,22,3.5,3.5,50,0.00,,---,0.00,VWS V14.00,2013-05-12 08:44:00,
2013-05-12 03:45:00,50.5,32.6,29.94,North,0,3.5,3.5,50,0.00,,---,0.00,VWS V14.00,2013-05-12 08:45:00,
2013-05-12 03:46:00,50.5,32.6,29.94,North,0,3.5,3.5,50,0.00,,---,0.00,VWS V14.00,2013-05-12 08:46:00,
2013-05-12 03:47:00,50.5,32.6,29.94,NNE,22,3.8,3.8,50,0.00,,---,0.00,VWS V14.00,2013-05-12 08:47:00,
2013-05-12 03:48:00,50.5,33.1,29.94,NW,315,4.6,4.6,51,0.00,,---,0.00,VWS V14.00,2013-05-12 08:48:00,
2013-05-12 03:49:00,50.4,32.9,29.94,NNW,338,4.1,4.1,51,0.00,,---,0.00,VWS V14.00,2013-05-12 08:49:00,
2013-05-12 03:50:00,50.4,33.4,29.94,NNE,22,2.1,2.5,52,0.00,,---,0.00,VWS V14.00,2013-05-12 08:50:00,
2013-05-12 03:51:00,50.4,33.4,29.94,NNE,22,2.1,2.5,52,0.00,,---,0.00,VWS V14.00,2013-05-12 08:51:00,
2013-05-12 03:52:00,50.4,33.4,29.94,North,0,4.1,4.1,52,0.00,,---,0.00,VWS V14.00,2013-05-12 08:52:00,
2013-05-12 03:53:00,50.4,33.4,29.94,NW,315,5.5,5.5,52,0.00,,---,0.00,VWS V14.00,2013-05-12 08:53:00,
2013-05-12 03:54:00,50.4,33.4,29.94,North,0,8.0,8.0,52,0.00,,---,0.00,VWS V14.00,2013-05-12 08:54:00,
2013-05-12 03:55:00,50.4,33.4,29.94,North,0,5.5,5.5,52,0.00,,---,0.00,VWS V14.00,2013-05-12 08:55:00,
2013-05-12 03:56:00,50.4,33.4,29.94,North,0,5.5,5.5,52,0.00,,---,0.00,VWS V14.00,2013-05-12 08:56:00,
2013-05-12 03:57:00,50.4,33.4,29.94,NE,45,4.4,4.4,52,0.00,,---,0.00,VWS V14.00,2013-05-12 08:57:00,
2013-05-12 03:58:00,50.4,33.4,29.94,NNW,338,5.8,5.8,52,0.00,,---,0.00,VWS V14.00,2013-05-12 08:58:00,
2013-05-12 03:59:00,50.4,33.4,29.94,NNW,338,4.4,4.4,52,0.00,,---,0.00,VWS V14.00,2013-05-12 08:59:00,
2013-05-12 04:00:00,50.4,33.4,29.94,NNW,338,4.9,4.9,52,0.00,,---,0.00,VWS V14.00,2013-05-12 09:00:00,
2013-05-12 04:01:00,50.4,33.4,29.94,NNW,338,4.9,4.9,52,0.00,,---,0.00,VWS V14.00,2013-05-12 09:01:00,
2013-05-12 04:02:00,50.4,33.4,29.94,North,0,4.4,4.4,52,0.00,,---,0.00,VWS V14.00,2013-05-12 09:02:00,
2013-05-12 04:03:00,50.4,33.4,29.94,North,0,3.5,3.5,52,0.00,,---,0.00,VWS V14.00,2013-05-12 09:03:00,
2013-05-12 04:04:00,50.4,33.4,29.94,North,0,3.5,3.5,52,0.00,,---,0.00,VWS V14.00,2013-05-12 09:04:00,
2013-05-12 04:05:00,50.4,33.4,29.94,NNW,338,2.4,2.7,52,0.00,,---,0.00,VWS V14.00,2013-05-12 09:05:00,
2013-05-12 04:06:00,50.4,33.4,29.94,North,0,2.4,2.5,52,0.00,,---,0.00,VWS V14.00,2013-05-12 09:06:00,
2013-05-12 04:07:00,50.4,33.4,29.94,NNE,22,4.4,4.4,52,0.00,,---,0.00,VWS V14.00,2013-05-12 09:07:00,
2013-05-12 04:08:00,50.4,33.4,29.94,NNW,338,3.0,3.0,52,0.00,,---,0.00,VWS V14.00,2013-05-12 09:08:00,
2013-05-12 04:09:00,50.4,33.4,29.94,North,0,4.1,4.1,52,0.00,,---,0.00,VWS V14.00,2013-05-12 09:09:00,
2013-05-12 04:10:00,50.4,33.4,29.94,North,0,4.4,4.4,52,0.00,,---,0.00,VWS V14.00,2013-05-12 09:10:00,
2013-05-12 04:11:00,50.4,33.4,29.94,North,0,4.1,4.3,52,0.00,,---,0.00,VWS V14.00,2013-05-12 09:11:00,
2013-05-12 04:12:00,50.4,33.4,29.94,North,0,4.1,4.3,52,0.00,,---,0.00,VWS V14.00,2013-05-12 09:12:00,
2013-05-12 04:13:00,50.4,33.4,29.94,North,0,3.5,3.5,52,0.00,,---,0.00,VWS V14.00,2013-05-12 09:13:00,
2013-05-12 04:14:00,50.4,33.4,29.94,NNW,338,4.9,4.9,52,0.00,,---,0.00,VWS V14.00,2013-05-12 09:14:00,
2013-05-12 04:15:00,50.4,33.4,29.94,North,0,4.1,4.1,52,0.00,,---,0.00,VWS V14.00,2013-05-12 09:15:00,
2013-05-12 04:16:00,50.4,33.4,29.94,North,0,3.5,3.5,52,0.00,,---,0.00,VWS V14.00,2013-05-12 09:16:00,
2013-05-12 04:17:00,50.4,33.4,29.94,North,0,3.5,3.5,52,0.00,,---,0.00,VWS V14.00,2013-05-12 09:17:00,
2013-05-12 04:18:00,50.4,33.4,29.94,NNE,22,4.1,4.1,52,0.00,,---,0.00,VWS V14.00,2013-05-12 09:18:00,
2013-05-12 04:19:00,50.4,33.4,29.94,North,0,4.4,4.4,52,0.00,,---,0.00,VWS V14.00,2013-05-12 09:19:00,
2013-05-12 04:20:00,50.4,33.4,29.94,North,0,3.5,3.6,52,0.00,,---,0.00,VWS V14.00,2013-05-12 09:20:00,
2013-05-12 04:21:00,50.4,33.4,29.94,NE,45,2.7,2.7,52,0.00,,---,0.00,VWS V14.00,2013-05-12 09:21:00,
2013-05-12 04:22:00,50.4,33.4,29.94,NE,45,2.7,2.7,52,0.00,,---,0.00,VWS V14.00,2013-05-12 09:22:00,
2013-05-12 04:23:00,50.4,33.4,29.94,NE,45,1.0,1.3,52,0.00,,---,0.00,VWS V14.00,2013-05-12 09:23:00,
2013-05-12 04:24:00,50.4,33.4,29.94,North,0,1.0,0.0,52,0.00,,---,0.00,VWS V14.00,2013-05-12 09:24:00,
2013-05-12 04:25:00,50.4,33.4,29.94,North,0,1.0,0.0,52,0.00,,---,0.00,VWS V14.00,2013-05-12 09:25:00,
2013-05-12 04:26:00,50.4,33.4,29.94,North,0,1.0,0.0,52,0.00,,---,0.00,VWS V14.00,2013-05-12 09:26:00,
2013-05-12 04:27:00,50.4,33.4,29.94,North,0,1.0,2.5,52,0.00,,---,0.00,VWS V14.00,2013-05-12 09:27:00,
2013-05-12 04:29:00,50.4,33.4,29.94,North,0,4.1,4.1,52,0.00,,---,0.00,VWS V14.00,2013-05-12 09:29:00,
2013-05-12 04:30:00,50.4,33.4,29.94,North,0,2.7,2.7,52,0.00,,---,0.00,VWS V14.00,2013-05-12 09:30:00,
2013-05-12 04:31:00,50.4,33.4,29.94,North,0,3.5,3.5,52,0.00,,---,0.00,VWS V14.00,2013-05-12 09:31:00,
2013-05-12 04:32:00,50.4,33.4,29.94,North,0,4.1,4.1,52,0.00,,---,0.00,VWS V14.00,2013-05-12 09:32:00,
2013-05-12 04:33:00,50.4,33.4,29.94,North,0,1.0,2.5,52,0.00,,---,0.00,VWS V14.00,2013-05-12 09:33:00,
2013-05-12 04:34:00,50.4,33.4,29.94,North,0,2.7,2.7,52,0.00,,---,0.00,VWS V14.00,2013-05-12 09:34:00,
2013-05-12 04:35:00,50.4,33.4,29.94,North,0,2.4,2.4,52,0.00,,---,0.00,VWS V14.00,2013-05-12 09:35:00,
2013-05-12 04:36:00,50.4,33.4,29.94,NNE,22,2.7,2.7,52,0.00,,---,0.00,VWS V14.00,2013-05-12 09:36:00,
2013-05-12 04:37:00,50.4,33.4,29.94,North,0,5.2,5.2,52,0.00,,---,0.00,VWS V14.00,2013-05-12 09:37:00,
2013-05-12 04:38:00,50.4,33.4,29.94,NW,315,4.1,4.1,52,0.00,,---,0.00,VWS V14.00,2013-05-12 09:38:00,
2013-05-12 04:39:00,49.5,33.1,29.94,North,0,3.5,3.5,53,0.00,,---,0.00,VWS V14.00,2013-05-12 09:39:00,
2013-05-12 04:40:00,49.5,33.1,29.94,North,0,3.5,3.5,53,0.00,,---,0.00,VWS V14.00,2013-05-12 09:40:00,
2013-05-12 04:41:00,49.5,33.1,29.94,North,0,4.9,4.9,53,0.00,,---,0.00,VWS V14.00,2013-05-12 09:41:00,
2013-05-12 04:42:00,49.5,33.5,29.94,North,0,3.0,3.1,54,0.00,,---,0.00,VWS V14.00,2013-05-12 09:42:00,
2013-05-12 04:43:00,49.5,33.5,29.94,NNW,338,3.8,3.8,54,0.00,,---,0.00,VWS V14.00,2013-05-12 09:43:00,
2013-05-12 04:44:00,49.5,33.5,29.94,NNE,22,3.5,3.5,54,0.00,,---,0.00,VWS V14.00,2013-05-12 09:44:00,
2013-05-12 04:45:00,49.5,33.5,29.94,NNE,22,3.5,3.5,54,0.00,,---,0.00,VWS V14.00,2013-05-12 09:45:00,
2013-05-12 04:46:00,49.3,33.4,29.94,NW,315,4.9,4.9,54,0.00,,---,0.00,VWS V14.00,2013-05-12 09:46:00,
2013-05-12 04:47:00,49.3,33.4,29.97,North,0,4.4,4.4,54,0.00,,---,0.00,VWS V14.00,2013-05-12 09:47:00,
2013-05-12 04:48:00,49.3,33.4,29.97,NNW,338,2.7,2.7,54,0.00,,---,0.00,VWS V14.00,2013-05-12 09:48:00,
2013-05-12 04:49:00,49.3,33.4,29.97,North,0,5.2,5.2,54,0.00,,---,0.00,VWS V14.00,2013-05-12 09:49:00,
2013-05-12 04:50:00,49.3,33.4,29.97,North,0,5.2,5.2,54,0.00,,---,0.00,VWS V14.00,2013-05-12 09:50:00,
2013-05-12 04:51:00,49.3,33.4,29.97,North,0,4.1,4.1,54,0.00,,---,0.00,VWS V14.00,2013-05-12 09:51:00,
2013-05-12 04:52:00,49.3,33.4,29.97,NNW,338,3.8,3.8,54,0.00,,---,0.00,VWS V14.00,2013-05-12 09:52:00,
2013-05-12 04:53:00,49.3,33.4,29.97,NNW,338,3.8,3.8,54,0.00,,---,0.00,VWS V14.00,2013-05-12 09:53:00,
2013-05-12 04:54:00,49.1,33.2,29.97,North,0,5.5,5.5,54,0.00,,---,0.00,VWS V14.00,2013-05-12 09:54:00,
2013-05-12 04:55:00,49.1,33.2,29.97,NNW,338,4.6,4.6,54,0.00,,---,0.00,VWS V14.00,2013-05-12 09:55:00,
2013-05-12 04:56:00,49.1,33.2,29.97,NNE,22,4.9,4.9,54,0.00,,---,0.00,VWS V14.00,2013-05-12 09:56:00,
2013-05-12 04:57:00,49.1,33.2,29.97,North,0,4.9,4.9,54,0.00,,---,0.00,VWS V14.00,2013-05-12 09:57:00,
2013-05-12 04:58:00,49.1,33.2,29.97,North,0,4.4,4.4,54,0.00,,---,0.00,VWS V14.00,2013-05-12 09:58:00,
2013-05-12 04:59:00,49.1,33.7,29.97,North,0,5.8,5.8,55,0.00,,---,0.00,VWS V14.00,2013-05-12 09:59:00,
2013-05-12 05:00:00,49.1,33.7,29.97,North,0,5.2,5.2,55,0.00,,---,0.00,VWS V14.00,2013-05-12 10:00:00,
2013-05-12 05:01:00,49.1,33.7,29.97,North,0,5.2,5.2,55,0.00,,---,0.00,VWS V14.00,2013-05-12 10:01:00,
2013-05-12 05:02:00,49.1,33.7,29.97,North,0,4.9,4.9,55,0.00,,---,0.00,VWS V14.00,2013-05-12 10:02:00,
2013-05-12 05:03:00,49.1,33.7,29.97,North,0,6.0,6.0,55,0.00,,---,0.00,VWS V14.00,2013-05-12 10:03:00,
2013-05-12 05:04:00,49.1,33.7,29.97,North,0,4.6,4.6,55,0.00,,---,0.00,VWS V14.00,2013-05-12 10:04:00,
2013-05-12 05:05:00,49.1,33.7,29.97,NNW,338,6.0,6.0,55,0.00,,---,0.00,VWS V14.00,2013-05-12 10:05:00,
2013-05-12 05:06:00,48.9,33.5,29.97,North,0,4.4,4.4,55,0.00,,---,0.00,VWS V14.00,2013-05-12 10:06:00,
2013-05-12 05:07:00,48.9,33.5,29.97,North,0,4.4,4.4,55,0.00,,---,0.00,VWS V14.00,2013-05-12 10:07:00,
2013-05-12 05:08:00,48.9,33.9,29.97,NNW,338,5.2,5.2,56,0.00,,---,0.00,VWS V14.00,2013-05-12 10:08:00,
2013-05-12 05:09:00,48.9,33.9,29.97,NNE,22,3.0,3.4,56,0.00,,---,0.00,VWS V14.00,2013-05-12 10:09:00,
2013-05-12 05:10:00,48.7,33.3,29.97,North,0,3.5,3.5,55,0.00,,---,0.00,VWS V14.00,2013-05-12 10:10:00,
2013-05-12 05:11:00,48.7,33.8,29.97,North,0,2.4,2.4,56,0.00,,---,0.00,VWS V14.00,2013-05-12 10:11:00,
2013-05-12 05:12:00,48.7,33.8,29.97,North,0,2.4,2.4,56,0.00,,---,0.00,VWS V14.00,2013-05-12 10:12:00,
2013-05-12 05:13:00,48.7,33.8,29.97,North,0,2.7,2.7,56,0.00,,---,0.00,VWS V14.00,2013-05-12 10:13:00,
2013-05-12 05:14:00,48.7,33.8,29.97,NNW,338,3.0,3.0,56,0.00,,---,0.00,VWS V14.00,2013-05-12 10:14:00,
2013-05-12 05:15:00,48.6,33.6,29.97,North,0,4.1,4.1,56,0.00,,---,0.00,VWS V14.00,2013-05-12 10:15:00,
2013-05-12 05:16:00,48.6,33.6,29.97,NNW,338,3.0,3.0,56,0.00,,---,0.00,VWS V14.00,2013-05-12 10:16:00,
2013-05-12 05:17:00,48.6,33.6,29.97,NNW,338,3.0,3.0,56,0.00,,---,0.00,VWS V14.00,2013-05-12 10:17:00,
2013-05-12 05:18:00,48.6,33.6,29.97,North,0,4.4,4.4,56,0.00,,---,0.00,VWS V14.00,2013-05-12 10:18:00,
2013-05-12 05:20:00,48.4,33.4,29.97,North,0,3.0,3.0,56,0.00,,---,0.00,VWS V14.00,2013-05-12 10:20:00,
2013-05-12 05:21:00,48.2,33.3,29.97,NNW,338,3.5,3.5,56,0.00,,---,0.00,VWS V14.00,2013-05-12 10:21:00,
2013-05-12 05:22:00,48.2,33.3,29.97,NNW,338,3.5,3.5,56,0.00,,---,0.00,VWS V14.00,2013-05-12 10:22:00,
2013-05-12 05:23:00,48.2,33.3,29.97,North,0,2.4,2.5,56,0.00,,---,0.00,VWS V14.00,2013-05-12 10:23:00,
2013-05-12 05:24:00,48.2,33.3,29.97,NNW,338,2.7,2.7,56,0.00,,---,0.00,VWS V14.00,2013-05-12 10:24:00,
2013-05-12 05:25:00,48.2,33.3,29.97,North,0,3.5,3.5,56,0.00,,---,0.00,VWS V14.00,2013-05-12 10:25:00,
2013-05-12 05:26:00,48.2,33.3,29.97,North,0,3.5,3.5,56,0.00,,---,0.00,VWS V14.00,2013-05-12 10:26:00,
2013-05-12 05:27:00,48.2,33.3,29.97,North,0,2.4,2.4,56,0.00,,---,0.00,VWS V14.00,2013-05-12 10:27:00,
2013-05-12 05:28:00,48.0,33.5,29.97,North,0,2.1,2.1,57,0.00,,---,0.00,VWS V14.00,2013-05-12 10:28:00,
2013-05-12 05:29:00,48.0,33.5,29.97,North,0,1.0,1.3,57,0.00,,---,0.00,VWS V14.00,2013-05-12 10:29:00,
2013-05-12 05:30:00,48.0,33.5,29.97,NNW,338,2.7,2.7,57,0.00,,---,0.00,VWS V14.00,2013-05-12 10:30:00,
2013-05-12 05:31:00,48.0,33.5,29.97,NNW,338,3.0,3.0,57,0.00,,---,0.00,VWS V14.00,2013-05-12 10:31:00,
2013-05-12 05:32:00,48.0,33.5,29.97,NNW,338,2.4,2.4,57,0.00,,---,0.00,VWS V14.00,2013-05-12 10:32:00,
2013-05-12 05:33:00,48.0,33.5,29.97,NNW,338,2.4,2.4,57,0.00,,---,0.00,VWS V14.00,2013-05-12 10:33:00,
2013-05-12 05:34:00,48.0,33.5,29.97,NNW,338,1.0,1.6,57,0.00,,---,0.00,VWS V14.00,2013-05-12 10:34:00,
2013-05-12 05:35:00,47.8,33.4,29.97,WNW,292,2.4,2.4,57,0.00,,---,0.00,VWS V14.00,2013-05-12 10:35:00,
2013-05-12 05:36:00,47.8,33.8,29.97,WNW,292,2.4,2.4,58,0.00,,---,0.00,VWS V14.00,2013-05-12 10:36:00,
2013-05-12 05:37:00,47.8,33.8,29.97,NW,315,1.0,0.0,58,0.00,,---,0.00,VWS V14.00,2013-05-12 10:37:00,
2013-05-12 05:38:00,47.8,33.8,29.97,NW,315,1.0,0.0,58,0.00,,---,0.00,VWS V14.00,2013-05-12 10:38:00,
2013-05-12 05:39:00,47.8,33.8,29.97,NW,315,2.4,2.4,58,0.00,,---,0.00,VWS V14.00,2013-05-12 10:39:00,
2013-05-12 05:40:00,47.8,33.8,29.97,NW,315,2.1,2.1,58,0.00,,---,0.00,VWS V14.00,2013-05-12 10:40:00,
2013-05-12 05:41:00,47.7,33.6,29.97,NNW,338,3.0,3.0,58,0.00,,---,0.00,VWS V14.00,2013-05-12 10:41:00,
2013-05-12 05:42:00,47.7,33.6,29.97,NNW,338,1.0,1.6,58,0.00,,---,0.00,VWS V14.00,2013-05-12 10:42:00,
2013-05-12 05:43:00,47.7,33.6,29.97,NNW,338,1.0,1.6,58,0.00,,---,0.00,VWS V14.00,2013-05-12 10:43:00,
2013-05-12 05:44:00,47.7,33.6,29.97,NNW,338,1.0,0.0,58,0.00,,---,0.00,VWS V14.00,2013-05-12 10:44:00,
2013-05-12 05:45:00,47.7,33.6,29.97,NNW,338,1.0,0.0,58,0.00,,---,0.00,VWS V14.00,2013-05-12 10:45:00,
2013-05-12 05:46:00,47.7,33.6,29.97,NNW,338,1.0,0.0,58,0.00,,---,0.00,VWS V14.00,2013-05-12 10:46:00,
2013-05-12 05:47:00,47.7,33.6,29.97,NNW,338,1.0,0.0,58,0.00,,---,0.00,VWS V14.00,2013-05-12 10:47:00,
2013-05-12 05:48:00,47.7,33.6,29.97,NNW,338,1.0,0.0,58,0.00,,---,0.00,VWS V14.00,2013-05-12 10:48:00,
2013-05-12 05:50:00,47.5,33.5,29.97,NNW,338,1.0,0.0,58,0.00,,---,0.00,VWS V14.00,2013-05-12 10:50:00,
2013-05-12 05:51:00,47.5,33.5,29.97,NNW,338,1.0,0.0,58,0.00,,---,0.00,VWS V14.00,2013-05-12 10:51:00,
2013-05-12 05:52:00,47.3,33.7,29.97,NNW,338,1.0,0.0,59,0.00,,---,0.00,VWS V14.00,2013-05-12 10:52:00,
2013-05-12 05:53:00,47.3,33.7,29.97,NNW,338,1.0,0.0,59,0.00,,---,0.00,VWS V14.00,2013-05-12 10:53:00,
2013-05-12 05:54:00,47.3,33.3,29.97,NNW,338,1.0,0.0,58,0.00,,---,0.00,VWS V14.00,2013-05-12 10:54:00,
2013-05-12 05:55:00,47.3,33.3,29.97,NNW,338,1.0,0.0,58,0.00,,---,0.00,VWS V14.00,2013-05-12 10:55:00,
2013-05-12 05:56:00,47.3,33.7,29.97,NNW,338,1.0,0.0,59,0.00,,---,0.00,VWS V14.00,2013-05-12 10:56:00,
2013-05-12 05:57:00,47.3,33.7,29.97,NNW,338,1.0,0.0,59,0.00,,---,0.00,VWS V14.00,2013-05-12 10:57:00,
2013-05-12 05:58:00,47.3,33.7,29.97,NNW,338,1.0,0.0,59,0.00,,---,0.00,VWS V14.00,2013-05-12 10:58:00,
2013-05-12 05:59:00,47.1,34.0,29.97,NNW,338,1.0,0.0,60,0.00,,---,0.00,VWS V14.00,2013-05-12 10:59:00,
2013-05-12 06:00:00,47.1,34.0,29.97,NNW,338,1.0,0.0,60,0.00,,---,0.00,VWS V14.00,2013-05-12 11:00:00,
2013-05-12 06:01:00,47.1,33.5,29.97,NNW,338,1.0,0.0,59,0.00,,---,0.00,VWS V14.00,2013-05-12 11:01:00,
2013-05-12 06:02:00,46.9,33.4,29.97,NNW,338,2.1,2.1,59,0.00,,---,0.00,VWS V14.00,2013-05-12 11:02:00,
2013-05-12 06:03:00,46.9,33.8,29.97,NNW,338,2.1,2.1,60,0.00,,---,0.00,VWS V14.00,2013-05-12 11:03:00,
2013-05-12 06:04:00,46.9,33.8,29.97,NNW,338,2.1,2.1,60,0.00,,---,0.00,VWS V14.00,2013-05-12 11:04:00,
2013-05-12 06:05:00,46.9,33.8,29.97,NNW,338,2.7,2.7,60,0.00,,---,0.00,VWS V14.00,2013-05-12 11:05:00,
2013-05-12 06:06:00,46.9,33.4,29.97,NNW,338,3.5,3.5,59,0.00,,---,0.00,VWS V14.00,2013-05-12 11:06:00,
2013-05-12 06:07:00,46.9,33.8,29.97,NNW,338,3.0,3.0,60,0.00,,---,0.00,VWS V14.00,2013-05-12 11:07:00,
2013-05-12 06:08:00,46.8,33.6,29.97,NNW,338,2.4,2.4,60,0.00,,---,0.00,VWS V14.00,2013-05-12 11:08:00,
2013-05-12 06:09:00,46.8,33.6,29.97,NNW,338,2.4,2.4,60,0.00,,---,0.00,VWS V14.00,2013-05-12 11:09:00,
2013-05-12 06:10:00,46.8,33.6,29.97,NNW,338,2.7,2.7,60,0.00,,---,0.00,VWS V14.00,2013-05-12 11:10:00,
2013-05-12 06:11:00,46.8,33.6,29.97,NNW,338,2.1,2.1,60,0.00,,---,0.00,VWS V14.00,2013-05-12 11:11:00,
2013-05-12 06:12:00,46.8,33.6,29.97,NNW,338,2.7,2.7,60,0.00,,---,0.00,VWS V14.00,2013-05-12 11:12:00,
2013-05-12 06:13:00,46.8,33.6,29.97,NNW,338,1.0,1.0,60,0.00,,---,0.00,VWS V14.00,2013-05-12 11:13:00,
2013-05-12 06:14:00,46.8,33.6,29.97,NNW,338,1.0,1.0,60,0.00,,---,0.00,VWS V14.00,2013-05-12 11:14:00,
2013-05-12 06:15:00,46.8,33.6,29.97,NNW,338,1.0,0.0,60,0.00,,---,0.00,VWS V14.00,2013-05-12 11:15:00,
2013-05-12 06:16:00,46.8,33.6,29.97,NNW,338,1.0,0.0,60,0.00,,---,0.00,VWS V14.00,2013-05-12 11:16:00,
2013-05-12 06:17:00,46.8,33.6,29.97,NNW,338,1.0,1.0,60,0.00,,---,0.00,VWS V14.00,2013-05-12 11:17:00,
2013-05-12 06:18:00,46.8,33.6,29.97,NNW,338,1.0,0.0,60,0.00,,---,0.00,VWS V14.00,2013-05-12 11:18:00,
2013-05-12 06:19:00,46.8,33.6,29.97,NNW,338,1.0,1.0,60,0.00,,---,0.00,VWS V14.00,2013-05-12 11:19:00,
2013-05-12 06:20:00,46.8,33.6,29.97,WNW,292,3.5,3.5,60,0.00,,---,0.00,VWS V14.00,2013-05-12 11:20:00,
2013-05-12 06:21:00,46.9,33.8,29.97,NNW,338,2.7,2.7,60,0.00,,---,0.00,VWS V14.00,2013-05-12 11:21:00,
2013-05-12 06:22:00,46.9,33.8,29.97,NNW,338,2.1,2.1,60,0.00,,---,0.00,VWS V14.00,2013-05-12 11:22:00,
2013-05-12 06:23:00,46.9,33.8,29.97,NNW,338,2.1,2.1,60,0.00,,---,0.00,VWS V14.00,2013-05-12 11:23:00,
2013-05-12 06:24:00,47.1,34.0,29.97,NNW,338,4.1,4.1,60,0.00,,---,0.00,VWS V14.00,2013-05-12 11:24:00,
2013-05-12 06:25:00,47.1,34.0,29.97,NNW,338,4.1,4.1,60,0.00,,---,0.00,VWS V14.00,2013-05-12 11:25:00,
2013-05-12 06:26:00,47.1,34.0,29.97,NNW,338,2.7,2.7,60,0.00,,---,0.00,VWS V14.00,2013-05-12 11:26:00,
2013-05-12 06:27:00,47.1,34.4,29.97,North,0,3.5,3.5,61,0.00,,---,0.00,VWS V14.00,2013-05-12 11:27:00,
2013-05-12 06:28:00,47.3,34.5,29.97,North,0,4.4,4.4,61,0.00,,---,0.00,VWS V14.00,2013-05-12 11:28:00,
2013-05-12 06:29:00,47.3,34.5,29.97,NW,315,4.6,4.6,61,0.00,,---,0.00,VWS V14.00,2013-05-12 11:29:00,
2013-05-12 06:30:00,47.3,34.5,29.97,NW,315,4.6,4.6,61,0.00,,---,0.00,VWS V14.00,2013-05-12 11:30:00,
2013-05-12 06:31:00,47.3,34.5,29.97,NNE,22,4.6,4.6,61,0.00,,---,0.00,VWS V14.00,2013-05-12 11:31:00,
2013-05-12 06:32:00,47.5,34.7,30.00,North,0,5.5,5.5,61,0.00,,---,0.00,VWS V14.00,2013-05-12 11:32:00,
2013-05-12 06:33:00,47.5,34.7,30.00,North,0,4.4,4.4,61,0.00,,---,0.00,VWS V14.00,2013-05-12 11:33:00,
2013-05-12 06:34:00,47.5,34.7,30.00,North,0,4.1,4.1,61,0.00,,---,0.00,VWS V14.00,2013-05-12 11:34:00,
2013-05-12 06:35:00,47.5,34.7,30.00,North,0,4.4,4.4,61,0.00,,---,0.00,VWS V14.00,2013-05-12 11:35:00,
2013-05-12 06:36:00,47.5,34.7,30.00,North,0,5.2,5.2,61,0.00,,---,0.00,VWS V14.00,2013-05-12 11:36:00,
2013-05-12 06:37:00,47.5,34.7,30.00,North,0,3.8,3.8,61,0.00,,---,0.00,VWS V14.00,2013-05-12 11:37:00,
2013-05-12 06:38:00,47.5,34.7,30.00,North,0,3.8,3.8,61,0.00,,---,0.00,VWS V14.00,2013-05-12 11:38:00,
2013-05-12 06:39:00,47.5,34.7,30.00,WNW,292,2.4,2.4,61,0.00,,---,0.00,VWS V14.00,2013-05-12 11:39:00,
2013-05-12 06:40:00,47.5,34.7,30.00,NNW,338,3.5,3.5,61,0.00,,---,0.00,VWS V14.00,2013-05-12 11:40:00,
2013-05-12 06:41:00,47.5,34.7,30.00,NNW,338,3.5,3.5,61,0.00,,---,0.00,VWS V14.00,2013-05-12 11:41:00,
2013-05-12 06:42:00,47.7,34.9,30.00,North,0,2.4,2.4,61,0.00,,---,0.00,VWS V14.00,2013-05-12 11:42:00,
2013-05-12 06:43:00,47.7,34.9,30.00,North,0,1.0,1.1,61,0.00,,---,0.00,VWS V14.00,2013-05-12 11:43:00,
2013-05-12 06:44:00,47.7,34.9,30.00,North,0,4.1,4.1,61,0.00,,---,0.00,VWS V14.00,2013-05-12 11:44:00,
2013-05-12 06:45:00,47.8,35.1,30.00,NNW,338,3.5,3.5,61,0.00,,---,0.00,VWS V14.00,2013-05-12 11:45:00,
2013-05-12 06:46:00,47.8,35.1,30.00,NNW,338,3.5,3.5,61,0.00,,---,0.00,VWS V14.00,2013-05-12 11:46:00,
2013-05-12 06:47:00,47.8,35.1,30.00,NNW,338,4.4,4.4,61,0.00,,---,0.00,VWS V14.00,2013-05-12 11:47:00,
2013-05-12 06:48:00,47.8,35.5,30.00,NW,315,3.8,3.8,62,0.00,,---,0.00,VWS V14.00,2013-05-12 11:48:00,
2013-05-12 06:49:00,48.0,35.6,30.00,NNW,338,3.5,3.5,62,0.00,,---,0.00,VWS V14.00,2013-05-12 11:49:00,
2013-05-12 06:50:00,48.0,35.6,30.00,NNW,338,4.6,4.6,62,0.00,,---,0.00,VWS V14.00,2013-05-12 11:50:00,
2013-05-12 06:51:00,48.0,35.6,30.00,NNW,338,4.6,4.6,62,0.00,,---,0.00,VWS V14.00,2013-05-12 11:51:00,
2013-05-12 06:52:00,48.2,35.4,30.00,NNW,338,4.9,4.9,61,0.00,,---,0.00,VWS V14.00,2013-05-12 11:52:00,
2013-05-12 06:53:00,48.2,35.4,30.00,NNE,22,4.6,4.6,61,0.00,,---,0.00,VWS V14.00,2013-05-12 11:53:00,
2013-05-12 06:54:00,48.2,35.4,30.00,North,0,3.0,3.4,61,0.00,,---,0.00,VWS V14.00,2013-05-12 11:54:00,
2013-05-12 06:55:00,48.4,35.6,30.00,NNW,338,3.0,3.0,61,0.00,,---,0.00,VWS V14.00,2013-05-12 11:55:00,
2013-05-12 06:56:00,48.4,35.6,30.00,NNW,338,3.0,3.0,61,0.00,,---,0.00,VWS V14.00,2013-05-12 11:56:00,
2013-05-12 06:57:00,48.4,35.6,30.00,NNW,338,4.1,4.1,61,0.00,,---,0.00,VWS V14.00,2013-05-12 11:57:00,
2013-05-12 06:58:00,48.6,35.7,30.00,NNW,338,3.0,3.0,61,0.00,,---,0.00,VWS V14.00,2013-05-12 11:58:00,
2013-05-12 06:59:00,48.6,35.7,30.00,North,0,3.0,3.0,61,0.00,,---,0.00,VWS V14.00,2013-05-12 11:59:00,
2013-05-12 07:00:00,48.6,35.3,30.00,NNW,338,2.4,2.7,60,0.00,,---,0.00,VWS V14.00,2013-05-12 12:00:00,
2013-05-12 07:01:00,48.7,35.9,30.00,North,0,5.5,5.5,61,0.00,,---,0.00,VWS V14.00,2013-05-12 12:01:00,
2013-05-12 07:02:00,48.7,35.9,30.00,North,0,4.4,4.4,61,0.00,,---,0.00,VWS V14.00,2013-05-12 12:02:00,
2013-05-12 07:03:00,48.7,35.5,30.00,NNW,338,4.6,4.6,60,0.00,,---,0.00,VWS V14.00,2013-05-12 12:03:00,
2013-05-12 07:04:00,48.7,35.5,30.00,North,0,5.8,5.8,60,0.00,,---,0.00,VWS V14.00,2013-05-12 12:04:00,
2013-05-12 07:05:00,48.9,35.7,30.00,NNW,338,4.9,4.9,60,0.00,,---,0.00,VWS V14.00,2013-05-12 12:05:00,
2013-05-12 07:06:00,49.1,35.8,30.00,North,0,4.4,4.7,60,0.00,,---,0.00,VWS V14.00,2013-05-12 12:06:00,
2013-05-12 07:07:00,49.1,35.8,30.00,North,0,4.4,4.7,60,0.00,,---,0.00,VWS V14.00,2013-05-12 12:07:00,
2013-05-12 07:08:00,49.1,35.8,30.00,North,0,4.6,4.6,60,0.00,,---,0.00,VWS V14.00,2013-05-12 12:08:00,
2013-05-12 07:09:00,49.1,35.4,30.00,North,0,5.5,5.5,59,0.00,,---,0.00,VWS V14.00,2013-05-12 12:09:00,
2013-05-12 07:10:00,49.3,35.6,30.00,WNW,292,5.2,5.2,59,0.00,,---,0.00,VWS V14.00,2013-05-12 12:10:00,
2013-05-12 07:11:00,49.3,35.6,30.00,North,0,4.9,4.9,59,0.00,,---,0.00,VWS V14.00,2013-05-12 12:11:00,
2013-05-12 07:12:00,49.3,35.6,30.00,North,0,4.9,4.9,59,0.00,,---,0.00,VWS V14.00,2013-05-12 12:12:00,
2013-05-12 07:13:00,49.5,35.7,30.00,North,0,4.4,4.4,59,0.00,,---,0.00,VWS V14.00,2013-05-12 12:13:00,
2013-05-12 07:14:00,49.6,35.9,30.00,North,0,5.5,5.5,59,0.00,,---,0.00,VWS V14.00,2013-05-12 12:14:00,
2013-05-12 07:15:00,49.6,35.9,30.00,North,0,1.0,3.6,59,0.00,,---,0.00,VWS V14.00,2013-05-12 12:15:00,
2013-05-12 07:16:00,49.6,35.9,30.00,NNW,338,3.0,3.0,59,0.00,,---,0.00,VWS V14.00,2013-05-12 12:16:00,
2013-05-12 07:17:00,49.6,35.9,30.00,NNW,338,3.0,3.0,59,0.00,,---,0.00,VWS V14.00,2013-05-12 12:17:00,
2013-05-12 07:18:00,49.8,36.1,30.00,North,0,3.0,3.0,59,0.00,,---,0.00,VWS V14.00,2013-05-12 12:18:00,
2013-05-12 07:19:00,50.0,35.8,30.00,North,0,3.0,3.0,58,0.00,,---,0.00,VWS V14.00,2013-05-12 12:19:00,
2013-05-12 07:20:00,50.0,35.8,30.00,North,0,4.6,4.6,58,0.00,,---,0.00,VWS V14.00,2013-05-12 12:20:00,
2013-05-12 07:21:00,50.0,35.8,30.00,North,0,5.2,5.2,58,0.00,,---,0.00,VWS V14.00,2013-05-12 12:21:00,
2013-05-12 07:22:00,50.2,36.0,30.00,NNW,338,5.5,5.5,58,0.00,,---,0.00,VWS V14.00,2013-05-12 12:22:00,
2013-05-12 07:23:00,50.2,36.0,30.00,NNW,338,3.0,3.6,58,0.00,,---,0.00,VWS V14.00,2013-05-12 12:23:00,
2013-05-12 07:24:00,50.4,35.7,30.00,North,0,4.9,4.9,57,0.00,,---,0.00,VWS V14.00,2013-05-12 12:24:00,
2013-05-12 07:25:00,50.4,35.7,30.00,NNW,338,4.6,4.6,57,0.00,,---,0.00,VWS V14.00,2013-05-12 12:25:00,
2013-05-12 07:26:00,50.5,35.9,30.00,North,0,4.6,4.6,57,0.00,,---,0.00,VWS V14.00,2013-05-12 12:26:00,
2013-05-12 07:27:00,50.7,35.6,30.00,North,0,4.6,4.6,56,0.00,,---,0.00,VWS V14.00,2013-05-12 12:27:00,
2013-05-12 07:28:00,50.7,35.6,30.00,North,0,4.6,4.6,56,0.00,,---,0.00,VWS V14.00,2013-05-12 12:28:00,
2013-05-12 07:29:00,50.7,35.6,30.00,North,0,5.5,5.5,56,0.00,,---,0.00,VWS V14.00,2013-05-12 12:29:00,
2013-05-12 07:30:00,50.9,35.3,30.00,North,0,5.8,5.8,55,0.00,,---,0.00,VWS V14.00,2013-05-12 12:30:00,
2013-05-12 07:31:00,50.9,35.3,30.00,North,0,4.6,4.6,55,0.00,,---,0.00,VWS V14.00,2013-05-12 12:31:00,
2013-05-12 07:32:00,51.1,35.5,30.00,NNW,338,4.9,4.9,55,0.00,,---,0.00,VWS V14.00,2013-05-12 12:32:00,
2013-05-12 07:33:00,51.1,35.5,30.00,NNW,338,4.9,4.9,55,0.00,,---,0.00,VWS V14.00,2013-05-12 12:33:00,
2013-05-12 07:34:00,51.3,35.7,30.00,North,0,6.0,6.0,55,0.00,,---,0.00,VWS V14.00,2013-05-12 12:34:00,
2013-05-12 07:35:00,51.3,35.2,30.00,North,0,6.0,6.0,54,0.00,,---,0.00,VWS V14.00,2013-05-12 12:35:00,
2013-05-12 07:36:00,51.3,35.2,30.00,NNE,22,6.3,6.3,54,0.00,,---,0.00,VWS V14.00,2013-05-12 12:36:00,
2013-05-12 07:37:00,51.6,35.1,30.00,NW,315,6.0,6.0,53,0.00,,---,0.00,VWS V14.00,2013-05-12 12:37:00,
2013-05-12 07:38:00,51.6,35.1,30.00,NW,315,6.0,6.0,53,0.00,,---,0.00,VWS V14.00,2013-05-12 12:38:00,
2013-05-12 07:39:00,51.6,35.1,30.00,NNW,338,4.6,4.6,53,0.00,,---,0.00,VWS V14.00,2013-05-12 12:39:00,
2013-05-12 07:40:00,51.6,35.1,30.00,North,0,5.8,5.8,53,0.00,,---,0.00,VWS V14.00,2013-05-12 12:40:00,
2013-05-12 07:41:00,51.6,35.1,30.00,North,0,4.4,4.4,53,0.00,,---,0.00,VWS V14.00,2013-05-12 12:41:00,
2013-05-12 07:42:00,51.6,35.1,30.00,North,0,4.1,4.1,53,0.00,,---,0.00,VWS V14.00,2013-05-12 12:42:00,
2013-05-12 07:43:00,52.0,34.9,30.00,NNW,338,4.1,4.1,52,0.00,,---,0.00,VWS V14.00,2013-05-12 12:43:00,
2013-05-12 07:44:00,52.0,34.9,30.00,North,0,5.5,5.5,52,0.00,,---,0.00,VWS V14.00,2013-05-12 12:44:00,
2013-05-12 07:45:00,52.2,35.1,30.00,NNE,22,4.1,4.9,52,0.00,,---,0.00,VWS V14.00,2013-05-12 12:45:00,
2013-05-12 07:46:00,52.2,35.1,30.00,NNE,22,4.9,4.9,52,0.00,,---,0.00,VWS V14.00,2013-05-12 12:46:00,
2013-05-12 07:47:00,52.3,35.2,30.00,NW,315,4.6,4.6,52,0.00,,---,0.00,VWS V14.00,2013-05-12 12:47:00,
2013-05-12 07:48:00,52.5,34.9,30.00,North,0,8.0,8.0,51,0.00,,---,0.00,VWS V14.00,2013-05-12 12:48:00,
2013-05-12 07:49:00,52.5,34.9,30.00,North,0,8.0,8.0,51,0.00,,---,0.00,VWS V14.00,2013-05-12 12:49:00,
2013-05-12 07:50:00,52.5,34.9,30.00,North,0,4.9,5.6,51,0.00,,---,0.00,VWS V14.00,2013-05-12 12:50:00,
2013-05-12 07:51:00,52.5,34.4,30.00,NNW,338,4.9,4.9,50,0.00,,---,0.00,VWS V14.00,2013-05-12 12:51:00,
2013-05-12 07:52:00,52.7,34.6,30.00,North,0,9.1,9.1,50,0.00,,---,0.00,VWS V14.00,2013-05-12 12:52:00,
2013-05-12 07:53:00,52.9,34.3,30.00,North,0,5.5,6.3,49,0.00,,---,0.00,VWS V14.00,2013-05-12 12:53:00,
2013-05-12 07:54:00,52.9,34.3,30.00,North,0,5.5,6.3,49,0.00,,---,0.00,VWS V14.00,2013-05-12 12:54:00,
2013-05-12 07:55:00,52.9,33.7,30.00,North,0,5.5,6.3,48,0.00,,---,0.00,VWS V14.00,2013-05-12 12:55:00,
2013-05-12 07:56:00,52.9,33.7,30.00,North,0,4.9,4.9,48,0.00,,---,0.00,VWS V14.00,2013-05-12 12:56:00,
2013-05-12 07:57:00,52.9,33.7,30.00,NNE,22,7.7,7.7,48,0.00,,---,0.00,VWS V14.00,2013-05-12 12:57:00,
2013-05-12 07:58:00,53.1,33.9,30.00,North,0,6.0,6.0,48,0.00,,---,0.00,VWS V14.00,2013-05-12 12:58:00,
2013-05-12 07:59:00,53.1,33.9,30.00,North,0,6.0,6.0,48,0.00,,---,0.00,VWS V14.00,2013-05-12 12:59:00,
2013-05-12 08:00:00,53.2,34.1,30.00,North,0,7.2,7.2,48,0.00,,---,0.00,VWS V14.00,2013-05-12 13:00:00,
2013-05-12 08:01:00,53.2,34.1,30.00,North,0,7.2,7.2,48,0.00,,---,0.00,VWS V14.00,2013-05-12 13:01:00,
2013-05-12 08:02:00,53.2,34.1,30.03,NNE,22,4.9,4.9,48,0.00,,---,0.00,VWS V14.00,2013-05-12 13:02:00,
2013-05-12 08:03:00,53.2,33.5,30.03,NNW,338,8.3,8.3,47,0.00,,---,0.00,VWS V14.00,2013-05-12 13:03:00,
2013-05-12 08:04:00,53.2,33.5,30.03,NNW,338,8.3,8.3,47,0.00,,---,0.00,VWS V14.00,2013-05-12 13:04:00,
2013-05-12 08:06:00,53.4,33.7,30.03,North,0,8.0,8.0,47,0.00,,---,0.00,VWS V14.00,2013-05-12 13:06:00,
2013-05-12 08:07:00,53.6,33.9,30.03,North,0,3.0,5.6,47,0.00,,---,0.00,VWS V14.00,2013-05-12 13:07:00,
2013-05-12 08:08:00,53.8,33.5,30.03,North,0,4.6,4.6,46,0.00,,---,0.00,VWS V14.00,2013-05-12 13:08:00,
2013-05-12 08:09:00,53.8,34.0,30.03,NNW,338,5.8,5.8,47,0.00,,---,0.00,VWS V14.00,2013-05-12 13:09:00,
2013-05-12 08:10:00,53.8,34.0,30.03,NNW,338,5.8,5.8,47,0.00,,---,0.00,VWS V14.00,2013-05-12 13:10:00,
2013-05-12 08:11:00,54.0,33.7,30.03,North,0,7.7,7.7,46,0.00,,---,0.00,VWS V14.00,2013-05-12 13:11:00,
2013-05-12 08:12:00,54.1,33.8,30.03,North,0,5.5,5.5,46,0.00,,---,0.00,VWS V14.00,2013-05-12 13:12:00,
2013-05-12 08:13:00,54.1,33.8,30.03,North,0,6.3,6.3,46,0.00,,---,0.00,VWS V14.00,2013-05-12 13:13:00,
2013-05-12 08:14:00,54.3,33.5,30.03,NNE,22,5.8,5.8,45,0.00,,---,0.00,VWS V14.00,2013-05-12 13:14:00,
2013-05-12 08:15:00,54.3,33.5,30.03,NNE,22,5.8,5.8,45,0.00,,---,0.00,VWS V14.00,2013-05-12 13:15:00,
2013-05-12 08:16:00,54.5,33.0,30.03,NNE,22,5.5,6.3,44,0.00,,---,0.00,VWS V14.00,2013-05-12 13:16:00,
2013-05-12 08:17:00,54.5,33.0,30.03,North,0,6.3,6.3,44,0.00,,---,0.00,VWS V14.00,2013-05-12 13:17:00,
2013-05-12 08:18:00,54.5,32.5,30.03,NNW,338,4.4,5.4,43,0.00,,---,0.00,VWS V14.00,2013-05-12 13:18:00,
2013-05-12 08:19:00,54.5,31.9,30.03,North,0,5.2,5.2,42,0.00,,---,0.00,VWS V14.00,2013-05-12 13:19:00,
2013-05-12 08:20:00,54.5,31.9,30.03,North,0,5.2,5.2,42,0.00,,---,0.00,VWS V14.00,2013-05-12 13:20:00,
2013-05-12 08:21:00,54.7,32.1,30.03,NNW,338,8.0,8.0,42,0.00,,---,0.00,VWS V14.00,2013-05-12 13:21:00,
2013-05-12 08:22:00,54.7,32.1,30.03,NNE,22,7.7,7.7,42,0.00,,---,0.00,VWS V14.00,2013-05-12 13:22:00,
2013-05-12 08:23:00,54.9,32.2,30.03,North,0,4.6,5.4,42,0.00,,---,0.00,VWS V14.00,2013-05-12 13:23:00,
2013-05-12 08:24:00,54.9,32.8,30.03,NW,315,5.5,5.5,43,0.00,,---,0.00,VWS V14.00,2013-05-12 13:24:00,
2013-05-12 08:25:00,55.0,33.0,30.03,NNE,22,6.0,6.0,43,0.00,,---,0.00,VWS V14.00,2013-05-12 13:25:00,
2013-05-12 08:26:00,55.0,32.4,30.03,NNW,338,3.5,4.7,42,0.00,,---,0.00,VWS V14.00,2013-05-12 13:26:00,
2013-05-12 08:27:00,55.2,32.5,30.03,NNE,22,7.2,7.2,42,0.00,,---,0.00,VWS V14.00,2013-05-12 13:27:00,
2013-05-12 08:28:00,55.2,32.5,30.03,North,0,5.5,5.8,42,0.00,,---,0.00,VWS V14.00,2013-05-12 13:28:00,
2013-05-12 08:29:00,55.2,32.0,30.03,NNW,338,4.4,4.4,41,0.00,,---,0.00,VWS V14.00,2013-05-12 13:29:00,
2013-05-12 08:30:00,55.4,31.5,30.03,NNW,338,5.2,5.2,40,0.00,,---,0.00,VWS V14.00,2013-05-12 13:30:00,
2013-05-12 08:31:00,55.4,31.5,30.03,NNW,338,5.2,5.2,40,0.00,,---,0.00,VWS V14.00,2013-05-12 13:31:00,
2013-05-12 08:32:00,55.6,31.0,30.03,NNW,338,6.3,6.3,39,0.00,,---,0.00,VWS V14.00,2013-05-12 13:32:00,
2013-05-12 08:33:00,55.6,31.0,30.03,North,0,6.0,6.0,39,0.00,,---,0.00,VWS V14.00,2013-05-12 13:33:00,
2013-05-12 08:34:00,55.6,31.7,30.03,North,0,8.0,8.0,40,0.00,,---,0.00,VWS V14.00,2013-05-12 13:34:00,
2013-05-12 08:35:00,55.8,30.6,30.03,North,0,4.1,6.5,38,0.00,,---,0.00,VWS V14.00,2013-05-12 13:35:00,
2013-05-12 08:36:00,55.8,31.2,30.03,North,0,4.9,4.9,39,0.00,,---,0.00,VWS V14.00,2013-05-12 13:36:00,
2013-05-12 08:37:00,55.8,31.2,30.03,NNW,338,3.0,3.1,39,0.00,,---,0.00,VWS V14.00,2013-05-12 13:37:00,
2013-05-12 08:38:00,55.9,30.7,30.03,NNW,338,5.5,5.5,38,0.00,,---,0.00,VWS V14.00,2013-05-12 13:38:00,
2013-05-12 08:39:00,56.1,30.9,30.03,NW,315,7.2,7.2,38,0.00,,---,0.00,VWS V14.00,2013-05-12 13:39:00,
2013-05-12 08:40:00,56.1,30.9,30.03,NW,315,7.2,7.2,38,0.00,,---,0.00,VWS V14.00,2013-05-12 13:40:00,
2013-05-12 08:41:00,56.3,29.7,30.03,NNW,338,5.2,7.8,36,0.00,,---,0.00,VWS V14.00,2013-05-12 13:41:00,
2013-05-12 08:42:00,56.3,29.7,30.03,NNW,338,5.2,7.8,36,0.00,,---,0.00,VWS V14.00,2013-05-12 13:42:00,
2013-05-12 08:43:00,56.3,29.7,30.03,NE,45,7.7,7.7,36,0.00,,---,0.00,VWS V14.00,2013-05-12 13:43:00,
2013-05-12 08:44:00,56.3,29.7,30.03,NNW,338,5.5,5.5,36,0.00,,---,0.00,VWS V14.00,2013-05-12 13:44:00,
2013-05-12 08:45:00,56.3,29.7,30.03,NNW,338,3.8,3.8,36,0.00,,---,0.00,VWS V14.00,2013-05-12 13:45:00,
2013-05-12 08:46:00,56.5,29.9,30.03,NNW,338,2.4,3.6,36,0.00,,---,0.00,VWS V14.00,2013-05-12 13:46:00,
2013-05-12 08:47:00,56.5,29.9,30.03,NNW,338,2.4,3.6,36,0.00,,---,0.00,VWS V14.00,2013-05-12 13:47:00,
2013-05-12 08:48:00,56.5,29.9,30.03,NNW,338,6.0,6.0,36,0.00,,---,0.00,VWS V14.00,2013-05-12 13:48:00,
2013-05-12 08:49:00,56.5,29.9,30.03,North,0,5.8,5.8,36,0.00,,---,0.00,VWS V14.00,2013-05-12 13:49:00,
2013-05-12 08:50:00,56.7,30.0,30.03,North,0,10.5,10.5,36,0.00,,---,0.00,VWS V14.00,2013-05-12 13:50:00,
2013-05-12 08:51:00,56.7,30.0,30.03,NNW,338,5.8,5.8,36,0.00,,---,0.00,VWS V14.00,2013-05-12 13:51:00,
2013-05-12 08:52:00,56.7,30.0,30.03,NNW,338,5.8,5.8,36,0.00,,---,0.00,VWS V14.00,2013-05-12 13:52:00,
2013-05-12 08:53:00,56.8,30.2,30.03,NNW,338,6.0,6.0,36,0.00,,---,0.00,VWS V14.00,2013-05-12 13:53:00,
2013-05-12 08:54:00,56.8,29.5,30.03,North,0,7.2,7.2,35,0.00,,---,0.00,VWS V14.00,2013-05-12 13:54:00,
2013-05-12 08:55:00,57.0,30.4,30.03,North,0,7.2,7.2,36,0.00,,---,0.00,VWS V14.00,2013-05-12 13:55:00,
2013-05-12 08:56:00,57.2,29.1,30.03,NNW,338,4.9,7.4,34,0.00,,---,0.00,VWS V14.00,2013-05-12 13:56:00,
2013-05-12 08:57:00,57.2,29.1,30.03,NNW,338,4.9,7.4,34,0.00,,---,0.00,VWS V14.00,2013-05-12 13:57:00,
2013-05-12 08:58:00,57.2,29.1,30.03,NNW,338,4.9,4.9,34,0.00,,---,0.00,VWS V14.00,2013-05-12 13:58:00,
2013-05-12 08:59:00,57.2,29.1,30.03,North,0,7.2,7.2,34,0.00,,---,0.00,VWS V14.00,2013-05-12 13:59:00,
2013-05-12 09:00:00,57.2,29.1,30.03,North,0,7.7,7.7,34,0.00,,---,0.00,VWS V14.00,2013-05-12 14:00:00,
2013-05-12 09:01:00,57.4,28.5,30.03,North,0,8.6,8.6,33,0.00,,---,0.00,VWS V14.00,2013-05-12 14:01:00,
2013-05-12 09:02:00,57.4,28.5,30.03,North,0,8.6,8.6,33,0.00,,---,0.00,VWS V14.00,2013-05-12 14:02:00,
2013-05-12 09:03:00,57.4,28.5,30.03,North,0,4.6,6.7,33,0.00,,---,0.00,VWS V14.00,2013-05-12 14:03:00,
2013-05-12 09:04:00,57.4,28.5,30.03,North,0,10.2,10.2,33,0.00,,---,0.00,VWS V14.00,2013-05-12 14:04:00,
2013-05-12 09:05:00,57.4,27.0,30.03,North,0,8.8,8.8,31,0.00,,---,0.00,VWS V14.00,2013-05-12 14:05:00,
2013-05-12 09:06:00,57.4,27.0,30.03,North,0,5.2,6.3,31,0.00,,---,0.00,VWS V14.00,2013-05-12 14:06:00,
2013-05-12 09:07:00,57.4,27.0,30.03,North,0,8.6,8.6,31,0.00,,---,0.00,VWS V14.00,2013-05-12 14:07:00,
2013-05-12 09:08:00,57.6,27.2,30.03,North,0,5.5,6.0,31,0.00,,---,0.00,VWS V14.00,2013-05-12 14:08:00,
2013-05-12 09:09:00,57.6,27.9,30.03,North,0,5.5,5.5,32,0.00,,---,0.00,VWS V14.00,2013-05-12 14:09:00,
2013-05-12 09:10:00,57.6,26.4,30.03,North,0,6.3,6.3,30,0.00,,---,0.00,VWS V14.00,2013-05-12 14:10:00,
2013-05-12 09:11:00,57.6,26.4,30.03,NNE,22,6.3,6.3,30,0.00,,---,0.00,VWS V14.00,2013-05-12 14:11:00,
2013-05-12 09:12:00,57.9,27.5,30.03,NNW,338,8.0,8.0,31,0.00,,---,0.00,VWS V14.00,2013-05-12 14:12:00,
2013-05-12 09:13:00,57.9,27.5,30.03,NNW,338,8.0,8.0,31,0.00,,---,0.00,VWS V14.00,2013-05-12 14:13:00,
2013-05-12 09:14:00,57.9,27.5,30.03,North,0,8.0,8.0,31,0.00,,---,0.00,VWS V14.00,2013-05-12 14:14:00,
2013-05-12 09:15:00,57.9,27.5,30.03,North,0,5.5,5.6,31,0.00,,---,0.00,VWS V14.00,2013-05-12 14:15:00,
2013-05-12 09:16:00,57.9,27.5,30.03,NNW,338,5.2,6.0,31,0.00,,---,0.00,VWS V14.00,2013-05-12 14:16:00,
2013-05-12 09:17:00,57.9,27.5,30.03,North,0,4.4,5.6,31,0.00,,---,0.00,VWS V14.00,2013-05-12 14:17:00,
2013-05-12 09:18:00,57.9,27.5,30.03,North,0,4.4,5.6,31,0.00,,---,0.00,VWS V14.00,2013-05-12 14:18:00,
2013-05-12 09:19:00,57.9,27.5,30.03,NW,315,7.7,7.7,31,0.00,,---,0.00,VWS V14.00,2013-05-12 14:19:00,
2013-05-12 09:20:00,57.9,27.5,30.03,North,0,5.8,5.8,31,0.00,,---,0.00,VWS V14.00,2013-05-12 14:20:00,
2013-05-12 09:21:00,58.1,26.9,30.03,North,0,4.9,6.0,30,0.00,,---,0.00,VWS V14.00,2013-05-12 14:21:00,
2013-05-12 09:22:00,58.3,26.2,30.03,NE,45,4.4,4.9,29,0.00,,---,0.00,VWS V14.00,2013-05-12 14:22:00,
2013-05-12 09:23:00,58.3,26.2,30.03,NE,45,4.4,4.9,29,0.00,,---,0.00,VWS V14.00,2013-05-12 14:23:00,
2013-05-12 09:24:00,58.3,27.0,30.03,NNE,22,4.4,4.4,30,0.00,,---,0.00,VWS V14.00,2013-05-12 14:24:00,
2013-05-12 09:25:00,58.3,24.5,30.03,North,0,8.0,8.0,27,0.00,,---,0.00,VWS V14.00,2013-05-12 14:25:00,
2013-05-12 09:26:00,58.3,24.5,30.03,North,0,7.2,7.2,27,0.00,,---,0.00,VWS V14.00,2013-05-12 14:26:00,
2013-05-12 09:27:00,58.3,24.5,30.03,WNW,292,4.6,4.9,27,0.00,,---,0.00,VWS V14.00,2013-05-12 14:27:00,
2013-05-12 09:28:00,58.3,24.5,30.03,WNW,292,4.4,4.4,27,0.00,,---,0.00,VWS V14.00,2013-05-12 14:28:00,
2013-05-12 09:29:00,58.5,24.6,30.03,North,0,8.6,8.6,27,0.00,,---,0.00,VWS V14.00,2013-05-12 14:29:00,
2013-05-12 09:30:00,58.5,24.6,30.03,North,0,8.0,8.7,27,0.00,,---,0.00,VWS V14.00,2013-05-12 14:30:00,
2013-05-12 09:31:00,58.5,23.7,30.03,NW,315,7.7,7.7,26,0.00,,---,0.00,VWS V14.00,2013-05-12 14:31:00,
2013-05-12 09:32:00,58.5,23.7,30.03,WNW,292,5.8,5.8,26,0.00,,---,0.00,VWS V14.00,2013-05-12 14:32:00,
2013-05-12 09:33:00,58.5,23.7,30.03,NNW,338,7.2,7.2,26,0.00,,---,0.00,VWS V14.00,2013-05-12 14:33:00,
2013-05-12 09:34:00,58.5,23.7,30.03,North,0,8.8,8.8,26,0.00,,---,0.00,VWS V14.00,2013-05-12 14:34:00,
2013-05-12 09:35:00,58.5,24.6,30.03,NNE,22,8.0,8.0,27,0.00,,---,0.00,VWS V14.00,2013-05-12 14:35:00,
2013-05-12 09:36:00,58.6,24.8,30.03,NNW,338,8.0,8.1,27,0.00,,---,0.00,VWS V14.00,2013-05-12 14:36:00,
2013-05-12 09:37:00,58.6,23.9,30.03,NW,315,4.6,7.8,26,0.00,,---,0.00,VWS V14.00,2013-05-12 14:37:00,
2013-05-12 09:38:00,58.6,23.9,30.03,North,0,9.1,9.1,26,0.00,,---,0.00,VWS V14.00,2013-05-12 14:38:00,
2013-05-12 09:39:00,58.6,23.9,30.03,North,0,8.8,8.8,26,0.00,,---,0.00,VWS V14.00,2013-05-12 14:39:00,
2013-05-12 09:40:00,58.6,22.9,30.03,NW,315,8.6,8.6,25,0.00,,---,0.00,VWS V14.00,2013-05-12 14:40:00,
2013-05-12 09:41:00,58.6,22.9,30.03,North,0,8.6,8.6,25,0.00,,---,0.00,VWS V14.00,2013-05-12 14:41:00,
2013-05-12 09:42:00,58.6,22.9,30.03,North,0,6.3,6.3,25,0.00,,---,0.00,VWS V14.00,2013-05-12 14:42:00,
2013-05-12 09:43:00,58.6,22.9,30.03,NW,315,9.1,9.1,25,0.00,,---,0.00,VWS V14.00,2013-05-12 14:43:00,
2013-05-12 09:44:00,58.6,22.9,30.03,North,0,11.1,11.1,25,0.00,,---,0.00,VWS V14.00,2013-05-12 14:44:00,
2013-05-12 09:45:00,58.6,22.9,30.03,North,0,11.1,11.1,25,0.00,,---,0.00,VWS V14.00,2013-05-12 14:45:00,
2013-05-12 09:46:00,58.8,23.1,30.03,NW,315,6.3,8.1,25,0.00,,---,0.00,VWS V14.00,2013-05-12 14:46:00,
2013-05-12 09:47:00,58.8,23.1,30.03,NNW,338,6.0,6.0,25,0.00,,---,0.00,VWS V14.00,2013-05-12 14:47:00,
2013-05-12 09:48:00,58.8,23.1,30.03,NNE,22,4.6,4.6,25,0.00,,---,0.00,VWS V14.00,2013-05-12 14:48:00,
2013-05-12 09:49:00,58.8,23.1,30.03,West,270,7.7,7.7,25,0.00,,---,0.00,VWS V14.00,2013-05-12 14:49:00,
2013-05-12 09:50:00,58.8,23.1,30.03,North,0,6.0,6.0,25,0.00,,---,0.00,VWS V14.00,2013-05-12 14:50:00,
2013-05-12 09:51:00,58.8,23.1,30.03,NW,315,5.8,8.1,25,0.00,,---,0.00,VWS V14.00,2013-05-12 14:51:00,
2013-05-12 09:52:00,58.8,23.1,30.03,North,0,10.2,10.2,25,0.00,,---,0.00,VWS V14.00,2013-05-12 14:52:00,
2013-05-12 09:53:00,58.8,23.1,30.03,NNW,338,5.5,7.4,25,0.00,,---,0.00,VWS V14.00,2013-05-12 14:53:00,
2013-05-12 09:54:00,58.8,23.1,30.03,NNW,338,4.4,4.4,25,0.00,,---,0.00,VWS V14.00,2013-05-12 14:54:00,
2013-05-12 09:55:00,58.8,23.1,30.03,North,0,7.2,7.2,25,0.00,,---,0.00,VWS V14.00,2013-05-12 14:55:00,
2013-05-12 09:56:00,58.8,23.1,30.03,NNW,338,6.0,6.0,25,0.00,,---,0.00,VWS V14.00,2013-05-12 14:56:00,
2013-05-12 09:57:00,59.0,23.2,30.03,North,0,11.1,11.1,25,0.00,,---,0.00,VWS V14.00,2013-05-12 14:57:00,
2013-05-12 09:58:00,59.0,23.2,30.03,NNW,338,9.1,9.1,25,0.00,,---,0.00,VWS V14.00,2013-05-12 14:58:00,
2013-05-12 09:59:00,59.0,22.3,30.03,NW,315,5.8,6.5,24,0.00,,---,0.00,VWS V14.00,2013-05-12 14:59:00,
2013-05-12 10:00:00,59.0,22.3,30.03,NNW,338,2.7,6.3,24,0.00,,---,0.00,VWS V14.00,2013-05-12 15:00:00,
2013-05-12 10:01:00,59.0,23.2,30.03,NW,315,5.8,5.8,25,0.00,,---,0.00,VWS V14.00,2013-05-12 15:01:00,
2013-05-12 10:02:00,59.0,22.3,30.03,North,0,4.4,5.6,24,0.00,,---,0.00,VWS V14.00,2013-05-12 15:02:00,
2013-05-12 10:03:00,59.0,23.2,30.03,WNW,292,9.1,9.1,25,0.00,,---,0.00,VWS V14.00,2013-05-12 15:03:00,
2013-05-12 10:04:00,59.2,23.4,30.03,NW,315,8.0,8.0,25,0.00,,---,0.00,VWS V14.00,2013-05-12 15:04:00,
2013-05-12 10:05:00,59.2,23.4,30.03,NNW,338,8.3,8.3,25,0.00,,---,0.00,VWS V14.00,2013-05-12 15:05:00,
2013-05-12 10:06:00,59.2,23.4,30.03,North,0,8.3,8.3,25,0.00,,---,0.00,VWS V14.00,2013-05-12 15:06:00,
2013-05-12 10:07:00,59.2,23.4,30.03,North,0,8.3,8.3,25,0.00,,---,0.00,VWS V14.00,2013-05-12 15:07:00,
2013-05-12 10:08:00,59.2,23.4,30.03,North,0,8.3,8.3,25,0.00,,---,0.00,VWS V14.00,2013-05-12 15:08:00,
2013-05-12 10:09:00,59.4,23.6,30.03,NNE,22,4.6,5.8,25,0.00,,---,0.00,VWS V14.00,2013-05-12 15:09:00,
2013-05-12 10:10:00,59.4,23.6,30.03,North,0,7.7,7.7,25,0.00,,---,0.00,VWS V14.00,2013-05-12 15:10:00,
2013-05-12 10:11:00,59.2,23.4,30.03,NNE,22,6.9,6.9,25,0.00,,---,0.00,VWS V14.00,2013-05-12 15:11:00,
2013-05-12 10:12:00,59.4,23.6,30.03,NNW,338,10.0,10.0,25,0.00,,---,0.00,VWS V14.00,2013-05-12 15:12:00,
2013-05-12 10:13:00,59.4,23.6,30.03,NNW,338,10.0,10.0,25,0.00,,---,0.00,VWS V14.00,2013-05-12 15:13:00,
2013-05-12 10:14:00,59.4,23.6,30.03,NNW,338,10.8,10.8,25,0.00,,---,0.00,VWS V14.00,2013-05-12 15:14:00,
2013-05-12 10:15:00,59.5,23.7,30.03,WSW,248,9.1,9.6,25,0.00,,---,0.00,VWS V14.00,2013-05-12 15:15:00,
2013-05-12 10:16:00,59.5,22.7,30.03,NNW,338,6.3,6.5,24,0.00,,---,0.00,VWS V14.00,2013-05-12 15:16:00,
2013-05-12 10:17:00,59.5,23.7,30.03,NNE,22,10.5,10.5,25,0.00,,---,0.00,VWS V14.00,2013-05-12 15:17:00,
2013-05-12 10:18:00,59.5,23.7,30.03,NNE,22,10.5,10.5,25,0.00,,---,0.00,VWS V14.00,2013-05-12 15:18:00,
2013-05-12 10:19:00,59.5,22.7,30.03,NNW,338,4.6,7.6,24,0.00,,---,0.00,VWS V14.00,2013-05-12 15:19:00,
2013-05-12 10:20:00,59.5,22.7,30.03,NNW,338,6.0,6.0,24,0.00,,---,0.00,VWS V14.00,2013-05-12 15:20:00,
2013-05-12 10:21:00,59.5,22.7,30.03,NNW,338,13.3,13.3,24,0.00,,---,0.00,VWS V14.00,2013-05-12 15:21:00,
2013-05-12 10:23:00,59.5,23.7,30.03,NNW,338,8.6,9.8,25,0.00,,---,0.00,VWS V14.00,2013-05-12 15:23:00,
2013-05-12 10:24:00,59.5,22.7,30.03,NW,315,7.7,8.1,24,0.00,,---,0.00,VWS V14.00,2013-05-12 15:24:00,
2013-05-12 10:25:00,59.5,22.7,30.03,NW,315,4.1,5.8,24,0.00,,---,0.00,VWS V14.00,2013-05-12 15:25:00,
2013-05-12 10:26:00,59.5,22.7,30.03,WNW,292,6.0,6.0,24,0.00,,---,0.00,VWS V14.00,2013-05-12 15:26:00,
2013-05-12 10:27:00,59.5,23.7,30.03,North,0,4.4,4.4,25,0.00,,---,0.00,VWS V14.00,2013-05-12 15:27:00,
2013-05-12 10:28:00,59.7,23.9,30.03,NNE,22,8.3,8.3,25,0.00,,---,0.00,VWS V14.00,2013-05-12 15:28:00,
2013-05-12 10:29:00,59.7,23.9,30.03,NNE,22,10.8,10.8,25,0.00,,---,0.00,VWS V14.00,2013-05-12 15:29:00,
2013-05-12 10:30:00,59.9,24.0,30.03,North,0,11.6,11.6,25,0.00,,---,0.00,VWS V14.00,2013-05-12 15:30:00,
2013-05-12 10:31:00,59.9,24.0,30.03,North,0,11.6,11.6,25,0.00,,---,0.00,VWS V14.00,2013-05-12 15:31:00,
2013-05-12 10:32:00,59.9,24.0,30.03,North,0,10.8,10.8,25,0.00,,---,0.00,VWS V14.00,2013-05-12 15:32:00,
2013-05-12 10:33:00,59.9,24.0,30.03,North,0,8.6,8.6,25,0.00,,---,0.00,VWS V14.00,2013-05-12 15:33:00,
2013-05-12 10:34:00,59.9,24.0,30.03,NNW,338,10.0,10.1,25,0.00,,---,0.00,VWS V14.00,2013-05-12 15:34:00,
2013-05-12 10:35:00,59.9,24.0,30.03,North,0,8.6,9.6,25,0.00,,---,0.00,VWS V14.00,2013-05-12 15:35:00,
2013-05-12 10:36:00,59.9,24.0,30.03,North,0,8.6,8.6,25,0.00,,---,0.00,VWS V14.00,2013-05-12 15:36:00,
2013-05-12 10:37:00,59.9,24.0,30.03,NNW,338,4.9,6.0,25,0.00,,---,0.00,VWS V14.00,2013-05-12 15:37:00,
2013-05-12 10:38:00,59.9,23.0,30.03,North,0,11.6,11.6,24,0.00,,---,0.00,VWS V14.00,2013-05-12 15:38:00,
2013-05-12 10:39:00,60.1,24.2,30.03,NW,315,4.9,8.5,25,0.00,,---,0.00,VWS V14.00,2013-05-12 15:39:00,
2013-05-12 10:40:00,60.1,24.2,30.03,WNW,292,5.8,6.3,25,0.00,,---,0.00,VWS V14.00,2013-05-12 15:40:00,
2013-05-12 10:41:00,60.1,24.2,30.03,NNW,338,10.2,10.2,25,0.00,,---,0.00,VWS V14.00,2013-05-12 15:41:00,
2013-05-12 10:42:00,60.1,24.2,30.03,NNW,338,10.2,10.2,25,0.00,,---,0.00,VWS V14.00,2013-05-12 15:42:00,
2013-05-12 10:43:00,60.1,24.2,30.03,North,0,7.7,9.6,25,0.00,,---,0.00,VWS V14.00,2013-05-12 15:43:00,
2013-05-12 10:44:00,60.1,24.2,30.03,North,0,5.8,5.8,25,0.00,,---,0.00,VWS V14.00,2013-05-12 15:44:00,
2013-05-12 10:45:00,60.3,24.3,30.03,North,0,8.0,8.0,25,0.00,,---,0.00,VWS V14.00,2013-05-12 15:45:00,
2013-05-12 10:46:00,60.3,24.3,30.03,NNE,22,6.0,6.0,25,0.00,,---,0.00,VWS V14.00,2013-05-12 15:46:00,
2013-05-12 10:47:00,60.3,24.3,30.03,NNE,22,6.0,6.0,25,0.00,,---,0.00,VWS V14.00,2013-05-12 15:47:00,
2013-05-12 10:48:00,60.4,24.5,30.03,North,0,8.3,8.3,25,0.00,,---,0.00,VWS V14.00,2013-05-12 15:48:00,
2013-05-12 10:49:00,60.3,24.3,30.03,North,0,7.7,7.7,25,0.00,,---,0.00,VWS V14.00,2013-05-12 15:49:00,
2013-05-12 10:50:00,60.3,24.3,30.03,North,0,4.9,5.4,25,0.00,,---,0.00,VWS V14.00,2013-05-12 15:50:00,
2013-05-12 10:51:00,60.3,24.3,30.03,NNE,22,5.8,5.8,25,0.00,,---,0.00,VWS V14.00,2013-05-12 15:51:00,
2013-05-12 10:52:00,60.3,24.3,30.03,NW,315,10.8,10.8,25,0.00,,---,0.00,VWS V14.00,2013-05-12 15:52:00,
2013-05-12 10:53:00,60.4,24.5,30.03,North,0,8.3,8.5,25,0.00,,---,0.00,VWS V14.00,2013-05-12 15:53:00,
2013-05-12 10:54:00,60.4,24.5,30.03,NNW,338,3.5,6.0,25,0.00,,---,0.00,VWS V14.00,2013-05-12 15:54:00,
2013-05-12 10:55:00,60.4,24.5,30.03,NE,45,3.0,3.1,25,0.00,,---,0.00,VWS V14.00,2013-05-12 15:55:00,
2013-05-12 10:56:00,60.3,24.3,30.03,NNW,338,6.9,6.9,25,0.00,,---,0.00,VWS V14.00,2013-05-12 15:56:00,
2013-05-12 10:57:00,60.4,24.5,30.03,North,0,8.0,8.0,25,0.00,,---,0.00,VWS V14.00,2013-05-12 15:57:00,
2013-05-12 10:58:00,60.4,24.5,30.03,North,0,8.0,8.0,25,0.00,,---,0.00,VWS V14.00,2013-05-12 15:58:00,
2013-05-12 10:59:00,60.6,24.6,30.03,NW,315,11.6,11.6,25,0.00,,---,0.00,VWS V14.00,2013-05-12 15:59:00,
2013-05-12 11:00:00,60.6,23.6,30.03,WNW,292,8.8,8.8,24,0.00,,---,0.00,VWS V14.00,2013-05-12 16:00:00,
2013-05-12 11:01:00,60.6,23.6,30.03,NNW,338,5.2,6.3,24,0.00,,---,0.00,VWS V14.00,2013-05-12 16:01:00,
2013-05-12 11:02:00,60.8,23.8,30.03,NNW,338,4.4,5.8,24,0.00,,---,0.00,VWS V14.00,2013-05-12 16:02:00,
2013-05-12 11:03:00,60.8,23.8,30.03,NNW,338,4.4,5.8,24,0.00,,---,0.00,VWS V14.00,2013-05-12 16:03:00,
2013-05-12 11:04:00,60.8,23.8,30.03,NE,45,5.5,9.4,24,0.00,,---,0.00,VWS V14.00,2013-05-12 16:04:00,
2013-05-12 11:05:00,60.8,23.8,30.03,NNW,338,7.7,7.7,24,0.00,,---,0.00,VWS V14.00,2013-05-12 16:05:00,
2013-05-12 11:06:00,60.8,23.8,30.03,NW,315,14.7,14.7,24,0.00,,---,0.00,VWS V14.00,2013-05-12 16:06:00,
2013-05-12 11:07:00,60.8,23.8,30.03,North,0,11.1,11.1,24,0.00,,---,0.00,VWS V14.00,2013-05-12 16:07:00,
2013-05-12 11:08:00,60.8,23.8,30.03,North,0,11.1,11.1,24,0.00,,---,0.00,VWS V14.00,2013-05-12 16:08:00,
2013-05-12 11:09:00,60.8,23.8,30.03,North,0,15.0,15.0,24,0.00,,---,0.00,VWS V14.00,2013-05-12 16:09:00,
2013-05-12 11:10:00,61.0,24.0,30.03,North,0,5.5,11.2,24,0.00,,---,0.00,VWS V14.00,2013-05-12 16:10:00,
2013-05-12 11:11:00,60.8,23.8,30.03,North,0,10.5,10.5,24,0.00,,---,0.00,VWS V14.00,2013-05-12 16:11:00,
2013-05-12 11:12:00,60.8,23.8,30.03,North,0,7.7,7.7,24,0.00,,---,0.00,VWS V14.00,2013-05-12 16:12:00,
2013-05-12 11:13:00,60.8,23.8,30.03,North,0,6.3,6.3,24,0.00,,---,0.00,VWS V14.00,2013-05-12 16:13:00,
2013-05-12 11:14:00,60.8,23.8,30.03,NNW,338,10.2,10.2,24,0.00,,---,0.00,VWS V14.00,2013-05-12 16:14:00,
2013-05-12 11:15:00,60.8,23.8,30.03,NE,45,8.3,8.3,24,0.00,,---,0.00,VWS V14.00,2013-05-12 16:15:00,
2013-05-12 11:16:00,60.8,23.8,30.03,North,0,6.3,6.3,24,0.00,,---,0.00,VWS V14.00,2013-05-12 16:16:00,
2013-05-12 11:17:00,60.8,23.8,30.03,NNW,338,7.7,7.7,24,0.00,,---,0.00,VWS V14.00,2013-05-12 16:17:00,
2013-05-12 11:18:00,60.8,23.8,30.03,NW,315,9.1,9.1,24,0.00,,---,0.00,VWS V14.00,2013-05-12 16:18:00,
2013-05-12 11:19:00,61.0,24.0,30.03,NW,315,2.4,6.5,24,0.00,,---,0.00,VWS V14.00,2013-05-12 16:19:00,
2013-05-12 11:20:00,61.0,24.0,30.03,NNW,338,6.9,6.9,24,0.00,,---,0.00,VWS V14.00,2013-05-12 16:20:00,
2013-05-12 11:21:00,61.0,24.0,30.03,NNW,338,6.9,6.9,24,0.00,,---,0.00,VWS V14.00,2013-05-12 16:21:00,
2013-05-12 11:22:00,61.2,24.1,30.03,ESE,112,2.4,4.7,24,0.00,,---,0.00,VWS V14.00,2013-05-12 16:22:00,
2013-05-12 11:23:00,61.2,24.1,30.03,South,180,4.1,6.5,24,0.00,,---,0.00,VWS V14.00,2013-05-12 16:23:00,
2013-05-12 11:24:00,61.2,24.1,30.03,South,180,4.1,6.5,24,0.00,,---,0.00,VWS V14.00,2013-05-12 16:24:00,
2013-05-12 11:25:00,61.3,24.3,30.03,South,180,4.1,4.1,24,0.00,,---,0.00,VWS V14.00,2013-05-12 16:25:00,
2013-05-12 11:27:00,61.3,24.3,30.03,SSE,158,6.0,6.0,24,0.00,,---,0.00,VWS V14.00,2013-05-12 16:27:00,
2013-05-12 11:28:00,61.3,24.3,30.03,NNW,338,6.9,6.9,24,0.00,,---,0.00,VWS V14.00,2013-05-12 16:28:00,
2013-05-12 11:29:00,61.3,24.3,30.03,NNW,338,6.9,6.9,24,0.00,,---,0.00,VWS V14.00,2013-05-12 16:29:00,
2013-05-12 11:30:00,61.3,24.3,30.03,North,0,5.5,5.5,24,0.00,,---,0.00,VWS V14.00,2013-05-12 16:30:00,
2013-05-12 11:31:00,61.3,24.3,30.03,North,0,5.2,6.5,24,0.00,,---,0.00,VWS V14.00,2013-05-12 16:31:00,
2013-05-12 11:32:00,61.3,24.3,30.00,NNW,338,8.0,8.0,24,0.00,,---,0.00,VWS V14.00,2013-05-12 16:32:00,
2013-05-12 11:33:00,61.5,24.4,30.00,North,0,7.7,7.8,24,0.00,,---,0.00,VWS V14.00,2013-05-12 16:33:00,
2013-05-12 11:34:00,61.5,24.4,30.00,NNE,22,13.3,13.3,24,0.00,,---,0.00,VWS V14.00,2013-05-12 16:34:00,
2013-05-12 11:35:00,61.5,24.4,30.00,NNW,338,4.6,9.8,24,0.00,,---,0.00,VWS V14.00,2013-05-12 16:35:00,
2013-05-12 11:36:00,61.5,24.4,30.00,NNE,22,9.1,9.1,24,0.00,,---,0.00,VWS V14.00,2013-05-12 16:36:00,
2013-05-12 11:38:00,61.5,24.4,30.00,North,0,5.8,9.4,24,0.00,,---,0.00,VWS V14.00,2013-05-12 16:38:00,
2013-05-12 11:39:00,61.3,24.3,30.00,North,0,11.9,11.9,24,0.00,,---,0.00,VWS V14.00,2013-05-12 16:39:00,
2013-05-12 11:40:00,61.3,24.3,30.00,North,0,11.9,11.9,24,0.00,,---,0.00,VWS V14.00,2013-05-12 16:40:00,
2013-05-12 11:41:00,61.3,24.3,30.00,NNE,22,6.9,8.7,24,0.00,,---,0.00,VWS V14.00,2013-05-12 16:41:00,
2013-05-12 11:42:00,61.3,24.3,30.00,North,0,7.7,7.7,24,0.00,,---,0.00,VWS V14.00,2013-05-12 16:42:00,
2013-05-12 11:43:00,61.3,24.3,30.00,NW,315,4.1,5.4,24,0.00,,---,0.00,VWS V14.00,2013-05-12 16:43:00,
2013-05-12 11:44:00,61.5,24.4,30.00,NNW,338,5.2,6.3,24,0.00,,---,0.00,VWS V14.00,2013-05-12 16:44:00,
2013-05-12 11:45:00,61.5,24.4,30.00,NNW,338,5.2,6.3,24,0.00,,---,0.00,VWS V14.00,2013-05-12 16:45:00,
2013-05-12 11:46:00,61.5,24.4,30.00,NNW,338,4.9,4.9,24,0.00,,---,0.00,VWS V14.00,2013-05-12 16:46:00,
2013-05-12 11:48:00,61.5,24.4,30.00,NNW,338,5.5,10.5,24,0.00,,---,0.00,VWS V14.00,2013-05-12 16:48:00,
2013-05-12 11:49:00,61.9,24.7,30.00,NW,315,5.2,5.2,24,0.00,,---,0.00,VWS V14.00,2013-05-12 16:49:00,
2013-05-12 11:50:00,61.9,24.7,30.00,NW,315,5.2,5.2,24,0.00,,---,0.00,VWS V14.00,2013-05-12 16:50:00,
2013-05-12 11:51:00,61.9,24.7,30.00,NNW,338,5.5,5.5,24,0.00,,---,0.00,VWS V14.00,2013-05-12 16:51:00,
2013-05-12 11:52:00,62.1,24.9,30.00,NW,315,6.3,6.3,24,0.00,,---,0.00,VWS V14.00,2013-05-12 16:52:00,
2013-05-12 11:53:00,61.9,24.7,30.00,NW,315,4.6,4.6,24,0.00,,---,0.00,VWS V14.00,2013-05-12 16:53:00,
2013-05-12 11:54:00,61.9,24.7,30.00,North,0,8.8,8.8,24,0.00,,---,0.00,VWS V14.00,2013-05-12 16:54:00,
2013-05-12 11:55:00,61.9,24.7,30.00,North,0,6.9,6.9,24,0.00,,---,0.00,VWS V14.00,2013-05-12 16:55:00,
2013-05-12 11:56:00,61.9,24.7,30.00,North,0,6.9,6.9,24,0.00,,---,0.00,VWS V14.00,2013-05-12 16:56:00,
2013-05-12 11:57:00,61.9,24.7,30.00,ENE,68,2.4,4.7,24,0.00,,---,0.00,VWS V14.00,2013-05-12 16:57:00,
2013-05-12 11:58:00,61.9,24.7,30.00,WNW,292,3.5,3.5,24,0.00,,---,0.00,VWS V14.00,2013-05-12 16:58:00,
2013-05-12 11:59:00,61.9,24.7,30.00,NNW,338,4.1,4.1,24,0.00,,---,0.00,VWS V14.00,2013-05-12 16:59:00,
2013-05-12 12:00:00,62.1,24.9,30.00,North,0,8.6,8.6,24,0.00,,---,0.00,VWS V14.00,2013-05-12 17:00:00,
2013-05-12 12:01:00,62.1,24.9,30.00,North,0,10.5,10.5,24,0.00,,---,0.00,VWS V14.00,2013-05-12 17:01:00,
2013-05-12 12:02:00,62.1,24.9,30.00,NE,45,10.2,10.2,24,0.00,,---,0.00,VWS V14.00,2013-05-12 17:02:00,
2013-05-12 12:03:00,62.2,25.0,30.00,NNW,338,5.8,7.8,24,0.00,,---,0.00,VWS V14.00,2013-05-12 17:03:00,
2013-05-12 12:04:00,62.2,25.0,30.00,NNW,338,7.2,7.4,24,0.00,,---,0.00,VWS V14.00,2013-05-12 17:04:00,
2013-05-12 12:05:00,62.4,25.2,30.00,WNW,292,7.7,7.7,24,0.00,,---,0.00,VWS V14.00,2013-05-12 17:05:00,
2013-05-12 12:06:00,62.4,25.2,30.00,WNW,292,7.7,7.7,24,0.00,,---,0.00,VWS V14.00,2013-05-12 17:06:00,
2013-05-12 12:07:00,62.4,25.2,30.00,NNE,22,8.0,10.5,24,0.00,,---,0.00,VWS V14.00,2013-05-12 17:07:00,
2013-05-12 12:08:00,62.4,25.2,30.00,NNE,22,7.7,7.7,24,0.00,,---,0.00,VWS V14.00,2013-05-12 17:08:00,
2013-05-12 12:09:00,62.2,25.0,30.00,North,0,5.2,7.4,24,0.00,,---,0.00,VWS V14.00,2013-05-12 17:09:00,
2013-05-12 12:10:00,62.4,25.2,30.00,NNW,338,11.6,11.6,24,0.00,,---,0.00,VWS V14.00,2013-05-12 17:10:00,
2013-05-12 12:11:00,62.4,25.2,30.00,NNW,338,11.6,11.6,24,0.00,,---,0.00,VWS V14.00,2013-05-12 17:11:00,
2013-05-12 12:12:00,62.6,25.3,30.00,North,0,6.9,8.5,24,0.00,,---,0.00,VWS V14.00,2013-05-12 17:12:00,
2013-05-12 12:13:00,62.6,25.3,30.00,NE,45,9.1,9.1,24,0.00,,---,0.00,VWS V14.00,2013-05-12 17:13:00,
2013-05-12 12:14:00,62.6,25.3,30.00,North,0,6.3,7.6,24,0.00,,---,0.00,VWS V14.00,2013-05-12 17:14:00,
2013-05-12 12:15:00,62.6,25.3,30.00,North,0,8.0,8.0,24,0.00,,---,0.00,VWS V14.00,2013-05-12 17:15:00,
2013-05-12 12:16:00,62.6,25.3,30.00,North,0,8.0,8.0,24,0.00,,---,0.00,VWS V14.00,2013-05-12 17:16:00,
2013-05-12 12:17:00,62.6,25.3,30.00,NW,315,1.0,5.6,24,0.00,,---,0.00,VWS V14.00,2013-05-12 17:17:00,
2013-05-12 12:18:00,62.6,25.3,30.00,WNW,292,5.5,5.5,24,0.00,,---,0.00,VWS V14.00,2013-05-12 17:18:00,
2013-05-12 12:19:00,62.8,25.5,30.00,North,0,4.9,4.9,24,0.00,,---,0.00,VWS V14.00,2013-05-12 17:19:00,
2013-05-12 12:20:00,62.8,25.5,30.00,NNW,338,5.8,7.4,24,0.00,,---,0.00,VWS V14.00,2013-05-12 17:20:00,
2013-05-12 12:21:00,62.8,25.5,30.00,NNW,338,5.8,7.4,24,0.00,,---,0.00,VWS V14.00,2013-05-12 17:21:00,
2013-05-12 12:22:00,62.8,25.5,30.00,NNW,338,4.6,4.6,24,0.00,,---,0.00,VWS V14.00,2013-05-12 17:22:00,
2013-05-12 12:23:00,63.0,25.6,30.00,NNW,338,4.1,4.1,24,0.00,,---,0.00,VWS V14.00,2013-05-12 17:23:00,
2013-05-12 12:24:00,63.0,25.6,30.00,North,0,2.7,2.9,24,0.00,,---,0.00,VWS V14.00,2013-05-12 17:24:00,
2013-05-12 12:25:00,63.0,25.6,30.00,West,270,4.1,4.1,24,0.00,,---,0.00,VWS V14.00,2013-05-12 17:25:00,
2013-05-12 12:26:00,63.0,25.6,30.00,West,270,4.1,4.1,24,0.00,,---,0.00,VWS V14.00,2013-05-12 17:26:00,
2013-05-12 12:27:00,63.0,25.6,30.00,NW,315,5.8,5.8,24,0.00,,---,0.00,VWS V14.00,2013-05-12 17:27:00,
2013-05-12 12:28:00,63.0,25.6,30.00,NNW,338,5.2,5.4,24,0.00,,---,0.00,VWS V14.00,2013-05-12 17:28:00,
2013-05-12 12:29:00,63.0,25.6,30.00,NNW,338,4.9,4.9,24,0.00,,---,0.00,VWS V14.00,2013-05-12 17:29:00,
2013-05-12 12:30:00,63.0,25.6,30.00,WNW,292,3.8,4.7,24,0.00,,---,0.00,VWS V14.00,2013-05-12 17:30:00,
2013-05-12 12:31:00,63.0,25.6,30.00,WNW,292,3.8,4.7,24,0.00,,---,0.00,VWS V14.00,2013-05-12 17:31:00,
2013-05-12 12:32:00,63.0,25.6,30.00,NNE,22,2.4,2.4,24,0.00,,---,0.00,VWS V14.00,2013-05-12 17:32:00,
2013-05-12 12:33:00,63.0,25.6,30.00,NNE,22,6.3,6.3,24,0.00,,---,0.00,VWS V14.00,2013-05-12 17:33:00,
2013-05-12 12:34:00,63.1,25.8,30.00,North,0,3.8,4.3,24,0.00,,---,0.00,VWS V14.00,2013-05-12 17:34:00,
2013-05-12 12:35:00,63.1,25.8,30.00,NNE,22,4.6,6.0,24,0.00,,---,0.00,VWS V14.00,2013-05-12 17:35:00,
2013-05-12 12:36:00,63.1,25.8,30.00,NNE,22,4.6,6.0,24,0.00,,---,0.00,VWS V14.00,2013-05-12 17:36:00,
2013-05-12 12:37:00,63.1,25.8,30.00,North,0,10.5,10.5,24,0.00,,---,0.00,VWS V14.00,2013-05-12 17:37:00,
2013-05-12 12:38:00,63.1,25.8,30.00,North,0,10.0,10.0,24,0.00,,---,0.00,VWS V14.00,2013-05-12 17:38:00,
2013-05-12 12:39:00,63.3,25.9,30.00,NE,45,4.4,7.2,24,0.00,,---,0.00,VWS V14.00,2013-05-12 17:39:00,
2013-05-12 12:40:00,63.3,25.9,30.00,NW,315,4.1,4.1,24,0.00,,---,0.00,VWS V14.00,2013-05-12 17:40:00,
2013-05-12 12:41:00,63.3,25.9,30.00,NW,315,6.3,6.3,24,0.00,,---,0.00,VWS V14.00,2013-05-12 17:41:00,
2013-05-12 12:43:00,63.3,25.9,30.00,NW,315,6.3,6.3,24,0.00,,---,0.00,VWS V14.00,2013-05-12 17:43:00,
2013-05-12 12:44:00,63.3,25.9,30.00,North,0,11.9,11.9,24,0.00,,---,0.00,VWS V14.00,2013-05-12 17:44:00,
2013-05-12 12:45:00,63.1,25.8,30.00,North,0,6.0,8.7,24,0.00,,---,0.00,VWS V14.00,2013-05-12 17:45:00,
2013-05-12 12:46:00,63.1,25.8,30.00,NW,315,3.0,3.0,24,0.00,,---,0.00,VWS V14.00,2013-05-12 17:46:00,
2013-05-12 12:47:00,63.1,25.8,30.00,NW,315,3.0,3.0,24,0.00,,---,0.00,VWS V14.00,2013-05-12 17:47:00,
2013-05-12 12:48:00,63.1,25.8,30.00,NNW,338,8.3,8.3,24,0.00,,---,0.00,VWS V14.00,2013-05-12 17:48:00,
2013-05-12 12:49:00,63.1,25.8,30.00,North,0,4.4,8.1,24,0.00,,---,0.00,VWS V14.00,2013-05-12 17:49:00,
2013-05-12 12:50:00,63.1,25.8,30.00,NNE,22,2.1,2.7,24,0.00,,---,0.00,VWS V14.00,2013-05-12 17:50:00,
2013-05-12 12:51:00,63.0,25.6,30.00,WNW,292,2.7,2.7,24,0.00,,---,0.00,VWS V14.00,2013-05-12 17:51:00,
2013-05-12 12:52:00,63.1,25.8,30.00,ESE,112,2.4,3.8,24,0.00,,---,0.00,VWS V14.00,2013-05-12 17:52:00,
2013-05-12 12:53:00,63.1,25.8,30.00,SW,225,3.0,3.0,24,0.00,,---,0.00,VWS V14.00,2013-05-12 17:53:00,
2013-05-12 12:54:00,63.1,25.8,30.00,NNW,338,2.1,2.1,24,0.00,,---,0.00,VWS V14.00,2013-05-12 17:54:00,
2013-05-12 12:55:00,63.3,25.9,30.00,NNE,22,10.2,10.2,24,0.00,,---,0.00,VWS V14.00,2013-05-12 17:55:00,
2013-05-12 12:56:00,63.3,25.9,30.00,SSW,202,4.4,7.6,24,0.00,,---,0.00,VWS V14.00,2013-05-12 17:56:00,
2013-05-12 12:58:00,63.5,26.1,30.00,NW,315,5.2,5.2,24,0.00,,---,0.00,VWS V14.00,2013-05-12 17:58:00,
2013-05-12 12:59:00,63.7,26.2,30.00,WSW,248,5.8,5.8,24,0.00,,---,0.00,VWS V14.00,2013-05-12 17:59:00,
2013-05-12 13:00:00,63.9,26.4,30.00,North,0,3.5,6.3,24,0.00,,---,0.00,VWS V14.00,2013-05-12 18:00:00,
2013-05-12 13:01:00,63.9,26.4,30.00,NNW,338,10.8,10.8,24,0.00,,---,0.00,VWS V14.00,2013-05-12 18:01:00,
2013-05-12 13:02:00,63.9,26.4,30.00,NNW,338,9.1,9.1,24,0.00,,---,0.00,VWS V14.00,2013-05-12 18:02:00,
2013-05-12 13:03:00,63.7,26.2,30.00,North,0,6.0,6.0,24,0.00,,---,0.00,VWS V14.00,2013-05-12 18:03:00,
2013-05-12 13:04:00,63.7,26.2,30.00,North,0,6.0,6.0,24,0.00,,---,0.00,VWS V14.00,2013-05-12 18:04:00,
2013-05-12 13:05:00,63.7,26.2,30.00,North,0,4.6,8.7,24,0.00,,---,0.00,VWS V14.00,2013-05-12 18:05:00,
2013-05-12 13:06:00,63.7,26.2,30.00,NE,45,7.7,7.7,24,0.00,,---,0.00,VWS V14.00,2013-05-12 18:06:00,
2013-05-12 13:07:00,63.7,26.2,30.00,North,0,8.0,8.0,24,0.00,,---,0.00,VWS V14.00,2013-05-12 18:07:00,
2013-05-12 13:08:00,63.7,26.2,30.00,WNW,292,5.2,5.4,24,0.00,,---,0.00,VWS V14.00,2013-05-12 18:08:00,
2013-05-12 13:09:00,63.7,26.2,30.00,WNW,292,5.2,5.4,24,0.00,,---,0.00,VWS V14.00,2013-05-12 18:09:00,
2013-05-12 13:10:00,63.5,26.1,30.00,North,0,4.9,4.9,24,0.00,,---,0.00,VWS V14.00,2013-05-12 18:10:00,
2013-05-12 13:11:00,63.7,26.2,30.00,NW,315,3.0,3.1,24,0.00,,---,0.00,VWS V14.00,2013-05-12 18:11:00,
2013-05-12 13:12:00,63.7,26.2,30.00,NNW,338,4.9,4.9,24,0.00,,---,0.00,VWS V14.00,2013-05-12 18:12:00,
2013-05-12 13:13:00,63.9,26.4,30.00,North,0,8.6,8.6,24,0.00,,---,0.00,VWS V14.00,2013-05-12 18:13:00,
2013-05-12 13:14:00,63.9,26.4,30.00,North,0,8.6,8.6,24,0.00,,---,0.00,VWS V14.00,2013-05-12 18:14:00,
2013-05-12 13:15:00,63.9,26.4,30.00,North,0,3.5,6.0,24,0.00,,---,0.00,VWS V14.00,2013-05-12 18:15:00,
2013-05-12 13:16:00,64.0,26.5,30.00,NNW,338,4.6,4.6,24,0.00,,---,0.00,VWS V14.00,2013-05-12 18:16:00,
2013-05-12 13:17:00,64.0,26.5,30.00,NNE,22,6.3,6.3,24,0.00,,---,0.00,VWS V14.00,2013-05-12 18:17:00,
2013-05-12 13:18:00,64.2,26.7,30.00,NW,315,8.0,8.0,24,0.00,,---,0.00,VWS V14.00,2013-05-12 18:18:00,
2013-05-12 13:19:00,64.2,26.7,30.00,NW,315,8.0,8.0,24,0.00,,---,0.00,VWS V14.00,2013-05-12 18:19:00,
2013-05-12 13:20:00,64.2,26.7,30.00,NNW,338,11.1,11.1,24,0.00,,---,0.00,VWS V14.00,2013-05-12 18:20:00,
2013-05-12 13:21:00,64.2,26.7,30.00,NNW,338,7.2,10.1,24,0.00,,---,0.00,VWS V14.00,2013-05-12 18:21:00,
2013-05-12 13:22:00,64.0,26.5,30.00,NNW,338,10.0,10.0,24,0.00,,---,0.00,VWS V14.00,2013-05-12 18:22:00,
2013-05-12 13:23:00,64.2,26.7,30.00,NNW,338,6.0,7.2,24,0.00,,---,0.00,VWS V14.00,2013-05-12 18:23:00,
2013-05-12 13:24:00,64.2,26.7,30.00,North,0,8.3,8.3,24,0.00,,---,0.00,VWS V14.00,2013-05-12 18:24:00,
2013-05-12 13:25:00,64.4,25.8,30.00,NNE,22,4.9,5.8,23,0.00,,---,0.00,VWS V14.00,2013-05-12 18:25:00,
2013-05-12 13:26:00,64.4,25.8,30.00,NNE,22,8.3,8.5,23,0.00,,---,0.00,VWS V14.00,2013-05-12 18:26:00,
2013-05-12 13:27:00,64.4,25.8,30.00,North,0,10.5,10.5,23,0.00,,---,0.00,VWS V14.00,2013-05-12 18:27:00,
2013-05-12 13:28:00,64.4,25.8,30.00,NNE,22,11.1,11.1,23,0.00,,---,0.00,VWS V14.00,2013-05-12 18:28:00,
2013-05-12 13:29:00,64.2,26.7,30.00,NNE,22,8.6,8.6,24,0.00,,---,0.00,VWS V14.00,2013-05-12 18:29:00,
2013-05-12 13:30:00,64.2,26.7,30.00,NNW,338,4.4,4.4,24,0.00,,---,0.00,VWS V14.00,2013-05-12 18:30:00,
2013-05-12 13:31:00,64.2,26.7,30.00,NNW,338,4.4,4.4,24,0.00,,---,0.00,VWS V14.00,2013-05-12 18:31:00,
2013-05-12 13:32:00,64.2,26.7,30.00,NW,315,5.5,5.6,24,0.00,,---,0.00,VWS V14.00,2013-05-12 18:32:00,
2013-05-12 13:33:00,64.2,26.7,30.00,North,0,5.8,5.8,24,0.00,,---,0.00,VWS V14.00,2013-05-12 18:33:00,
2013-05-12 13:34:00,64.4,26.9,30.00,NNW,338,5.2,5.4,24,0.00,,---,0.00,VWS V14.00,2013-05-12 18:34:00,
2013-05-12 13:35:00,64.4,25.8,30.00,West,270,2.4,2.5,23,0.00,,---,0.00,VWS V14.00,2013-05-12 18:35:00,
2013-05-12 13:36:00,64.4,25.8,30.00,West,270,2.4,2.5,23,0.00,,---,0.00,VWS V14.00,2013-05-12 18:36:00,
2013-05-12 13:37:00,64.4,25.8,30.00,NNW,338,3.0,3.0,23,0.00,,---,0.00,VWS V14.00,2013-05-12 18:37:00,
2013-05-12 13:38:00,64.4,25.8,30.00,NW,315,4.6,4.6,23,0.00,,---,0.00,VWS V14.00,2013-05-12 18:38:00,
2013-05-12 13:39:00,64.6,26.0,30.00,NW,315,4.1,4.1,23,0.00,,---,0.00,VWS V14.00,2013-05-12 18:39:00,
2013-05-12 13:40:00,64.6,26.0,30.00,North,0,3.5,3.5,23,0.00,,---,0.00,VWS V14.00,2013-05-12 18:40:00,
2013-05-12 13:41:00,64.4,25.8,30.00,North,0,3.5,3.5,23,0.00,,---,0.00,VWS V14.00,2013-05-12 18:41:00,
2013-05-12 13:42:00,64.6,26.0,30.00,NNW,338,5.8,5.8,23,0.00,,---,0.00,VWS V14.00,2013-05-12 18:42:00,
2013-05-12 13:43:00,64.6,26.0,30.00,North,0,8.6,8.6,23,0.00,,---,0.00,VWS V14.00,2013-05-12 18:43:00,
2013-05-12 13:44:00,64.6,26.0,30.00,WNW,292,6.3,6.3,23,0.00,,---,0.00,VWS V14.00,2013-05-12 18:44:00,
2013-05-12 13:45:00,64.8,26.1,30.00,NNW,338,5.2,7.4,23,0.00,,---,0.00,VWS V14.00,2013-05-12 18:45:00,
2013-05-12 13:46:00,64.8,26.1,30.00,NNE,22,7.2,7.2,23,0.00,,---,0.00,VWS V14.00,2013-05-12 18:46:00,
2013-05-12 13:47:00,64.8,26.1,29.97,NNW,338,7.7,7.7,23,0.00,,---,0.00,VWS V14.00,2013-05-12 18:47:00,
2013-05-12 13:48:00,64.8,26.1,29.97,North,0,8.3,8.3,23,0.00,,---,0.00,VWS V14.00,2013-05-12 18:48:00,
2013-05-12 13:49:00,64.8,26.1,29.97,North,0,5.2,5.8,23,0.00,,---,0.00,VWS V14.00,2013-05-12 18:49:00,
2013-05-12 13:50:00,64.8,26.1,29.97,NNW,338,5.5,5.8,23,0.00,,---,0.00,VWS V14.00,2013-05-12 18:50:00,
2013-05-12 13:51:00,64.9,26.3,29.97,North,0,5.5,5.5,23,0.00,,---,0.00,VWS V14.00,2013-05-12 18:51:00,
2013-05-12 13:52:00,64.9,26.3,29.97,West,270,3.5,3.6,23,0.00,,---,0.00,VWS V14.00,2013-05-12 18:52:00,
2013-05-12 13:53:00,64.9,26.3,29.97,North,0,5.2,5.2,23,0.00,,---,0.00,VWS V14.00,2013-05-12 18:53:00,
2013-05-12 13:54:00,64.9,26.3,29.97,North,0,3.0,4.3,23,0.00,,---,0.00,VWS V14.00,2013-05-12 18:54:00,
2013-05-12 13:55:00,64.9,26.3,29.97,West,270,6.0,6.0,23,0.00,,---,0.00,VWS V14.00,2013-05-12 18:55:00,
2013-05-12 13:56:00,64.9,26.3,29.97,NNW,338,6.9,6.9,23,0.00,,---,0.00,VWS V14.00,2013-05-12 18:56:00,
2013-05-12 13:57:00,65.1,26.4,29.97,North,0,3.5,4.7,23,0.00,,---,0.00,VWS V14.00,2013-05-12 18:57:00,
2013-05-12 13:58:00,65.1,27.5,29.97,NE,45,4.4,4.9,24,0.00,,---,0.00,VWS V14.00,2013-05-12 18:58:00,
2013-05-12 13:59:00,65.1,27.5,29.97,NE,45,4.4,4.9,24,0.00,,---,0.00,VWS V14.00,2013-05-12 18:59:00,
2013-05-12 14:00:00,65.3,26.6,29.97,NNE,22,11.1,11.1,23,0.00,,---,0.00,VWS V14.00,2013-05-12 19:00:00,
2013-05-12 14:01:00,65.3,26.6,29.97,North,0,13.6,13.6,23,0.00,,---,0.00,VWS V14.00,2013-05-12 19:01:00,
2013-05-12 14:02:00,65.1,26.4,29.97,NW,315,5.5,10.1,23,0.00,,---,0.00,VWS V14.00,2013-05-12 19:02:00,
2013-05-12 14:03:00,65.1,26.4,29.97,North,0,6.3,6.5,23,0.00,,---,0.00,VWS V14.00,2013-05-12 19:03:00,
2013-05-12 14:04:00,65.1,26.4,29.97,North,0,6.3,6.5,23,0.00,,---,0.00,VWS V14.00,2013-05-12 19:04:00,
2013-05-12 14:05:00,65.1,26.4,29.97,NNW,338,5.5,6.5,23,0.00,,---,0.00,VWS V14.00,2013-05-12 19:05:00,
2013-05-12 14:06:00,65.1,26.4,29.97,North,0,5.2,5.2,23,0.00,,---,0.00,VWS V14.00,2013-05-12 19:06:00,
2013-05-12 14:07:00,65.1,26.4,29.97,North,0,14.4,14.4,23,0.00,,---,0.00,VWS V14.00,2013-05-12 19:07:00,
2013-05-12 14:08:00,65.1,26.4,29.97,North,0,6.3,6.3,23,0.00,,---,0.00,VWS V14.00,2013-05-12 19:08:00,
2013-05-12 14:09:00,65.1,26.4,29.97,North,0,6.3,6.3,23,0.00,,---,0.00,VWS V14.00,2013-05-12 19:09:00,
2013-05-12 14:10:00,65.3,27.6,29.97,North,0,11.1,11.1,24,0.00,,---,0.00,VWS V14.00,2013-05-12 19:10:00,
2013-05-12 14:11:00,65.3,26.6,29.97,NNE,22,7.7,8.1,23,0.00,,---,0.00,VWS V14.00,2013-05-12 19:11:00,
2013-05-12 14:12:00,65.1,26.4,29.97,NW,315,4.1,5.4,23,0.00,,---,0.00,VWS V14.00,2013-05-12 19:12:00,
2013-05-12 14:13:00,65.1,26.4,29.97,North,0,8.6,8.6,23,0.00,,---,0.00,VWS V14.00,2013-05-12 19:13:00,
2013-05-12 14:14:00,65.1,26.4,29.97,North,0,8.6,8.6,23,0.00,,---,0.00,VWS V14.00,2013-05-12 19:14:00,
2013-05-12 14:15:00,65.1,26.4,29.97,North,0,8.8,8.8,23,0.00,,---,0.00,VWS V14.00,2013-05-12 19:15:00,
2013-05-12 14:16:00,65.1,26.4,29.97,NNW,338,10.2,10.2,23,0.00,,---,0.00,VWS V14.00,2013-05-12 19:16:00,
2013-05-12 14:17:00,65.3,26.6,29.97,NNW,338,6.9,7.4,23,0.00,,---,0.00,VWS V14.00,2013-05-12 19:17:00,
2013-05-12 14:18:00,65.3,26.6,29.97,NNW,338,6.3,6.3,23,0.00,,---,0.00,VWS V14.00,2013-05-12 19:18:00,
2013-05-12 14:19:00,65.3,26.6,29.97,NNW,338,6.3,6.3,23,0.00,,---,0.00,VWS V14.00,2013-05-12 19:19:00,
2013-05-12 14:20:00,65.3,26.6,29.97,North,0,10.2,10.2,23,0.00,,---,0.00,VWS V14.00,2013-05-12 19:20:00,
2013-05-12 14:21:00,65.3,26.6,29.97,NNW,338,7.7,7.7,23,0.00,,---,0.00,VWS V14.00,2013-05-12 19:21:00,
2013-05-12 14:22:00,65.3,26.6,29.97,NW,315,5.2,5.4,23,0.00,,---,0.00,VWS V14.00,2013-05-12 19:22:00,
2013-05-12 14:23:00,65.1,26.4,29.97,NNW,338,2.7,3.4,23,0.00,,---,0.00,VWS V14.00,2013-05-12 19:23:00,
2013-05-12 14:24:00,65.1,26.4,29.97,NNW,338,2.7,3.4,23,0.00,,---,0.00,VWS V14.00,2013-05-12 19:24:00,
2013-05-12 14:25:00,65.1,26.4,29.97,NW,315,3.0,3.1,23,0.00,,---,0.00,VWS V14.00,2013-05-12 19:25:00,
2013-05-12 14:26:00,65.1,26.4,29.97,West,270,4.9,4.9,23,0.00,,---,0.00,VWS V14.00,2013-05-12 19:26:00,
2013-05-12 14:27:00,65.3,26.6,29.97,NNW,338,6.3,6.3,23,0.00,,---,0.00,VWS V14.00,2013-05-12 19:27:00,
2013-05-12 14:28:00,65.5,26.7,29.97,North,0,4.4,4.4,23,0.00,,---,0.00,VWS V14.00,2013-05-12 19:28:00,
2013-05-12 14:29:00,65.5,26.7,29.97,North,0,4.6,4.6,23,0.00,,---,0.00,VWS V14.00,2013-05-12 19:29:00,
2013-05-12 14:30:00,65.5,26.7,29.97,NNW,338,5.5,5.5,23,0.00,,---,0.00,VWS V14.00,2013-05-12 19:30:00,
2013-05-12 14:31:00,65.5,26.7,29.97,North,0,7.2,7.2,23,0.00,,---,0.00,VWS V14.00,2013-05-12 19:31:00,
2013-05-12 14:32:00,65.5,26.7,29.97,North,0,7.7,7.7,23,0.00,,---,0.00,VWS V14.00,2013-05-12 19:32:00,
2013-05-12 14:33:00,65.7,26.9,29.97,NNW,338,5.8,6.5,23,0.00,,---,0.00,VWS V14.00,2013-05-12 19:33:00,
2013-05-12 14:34:00,65.5,26.7,29.97,North,0,7.7,7.7,23,0.00,,---,0.00,VWS V14.00,2013-05-12 19:34:00,
2013-05-12 14:35:00,65.5,26.7,29.97,North,0,7.7,7.7,23,0.00,,---,0.00,VWS V14.00,2013-05-12 19:35:00,
2013-05-12 14:36:00,65.5,26.7,29.97,NNE,22,4.6,5.4,23,0.00,,---,0.00,VWS V14.00,2013-05-12 19:36:00,
2013-05-12 14:37:00,65.5,26.7,29.97,NNW,338,5.2,5.2,23,0.00,,---,0.00,VWS V14.00,2013-05-12 19:37:00,
2013-05-12 14:38:00,65.8,27.0,29.97,WNW,292,4.1,4.1,23,0.00,,---,0.00,VWS V14.00,2013-05-12 19:38:00,
2013-05-12 14:39:00,65.8,27.0,29.97,West,270,5.2,6.0,23,0.00,,---,0.00,VWS V14.00,2013-05-12 19:39:00,
2013-05-12 14:40:00,65.8,27.0,29.97,West,270,5.2,6.0,23,0.00,,---,0.00,VWS V14.00,2013-05-12 19:40:00,
2013-05-12 14:41:00,65.8,27.0,29.97,West,270,6.0,6.0,23,0.00,,---,0.00,VWS V14.00,2013-05-12 19:41:00,
2013-05-12 14:42:00,65.8,27.0,29.97,WSW,248,4.9,4.9,23,0.00,,---,0.00,VWS V14.00,2013-05-12 19:42:00,
2013-05-12 14:43:00,66.0,28.2,29.97,South,180,6.0,6.0,24,0.00,,---,0.00,VWS V14.00,2013-05-12 19:43:00,
2013-05-12 14:44:00,66.0,27.2,29.97,NW,315,7.2,7.8,23,0.00,,---,0.00,VWS V14.00,2013-05-12 19:44:00,
2013-05-12 14:45:00,66.0,27.2,29.97,NW,315,7.2,7.8,23,0.00,,---,0.00,VWS V14.00,2013-05-12 19:45:00,
2013-05-12 14:46:00,66.0,27.2,29.97,West,270,4.9,4.9,23,0.00,,---,0.00,VWS V14.00,2013-05-12 19:46:00,
2013-05-12 14:47:00,66.0,27.2,29.97,NW,315,7.7,7.7,23,0.00,,---,0.00,VWS V14.00,2013-05-12 19:47:00,
2013-05-12 14:48:00,66.0,27.2,29.97,North,0,5.8,5.8,23,0.00,,---,0.00,VWS V14.00,2013-05-12 19:48:00,
2013-05-12 14:49:00,66.0,27.2,29.97,North,0,5.5,5.5,23,0.00,,---,0.00,VWS V14.00,2013-05-12 19:49:00,
2013-05-12 14:50:00,66.0,27.2,29.97,WNW,292,2.1,3.6,23,0.00,,---,0.00,VWS V14.00,2013-05-12 19:50:00,
2013-05-12 14:51:00,66.0,27.2,29.97,WSW,248,6.0,6.0,23,0.00,,---,0.00,VWS V14.00,2013-05-12 19:51:00,
2013-05-12 14:53:00,66.0,27.2,29.97,WSW,248,7.2,7.2,23,0.00,,---,0.00,VWS V14.00,2013-05-12 19:53:00,
2013-05-12 14:54:00,66.0,27.2,29.97,NE,45,7.2,10.7,23,0.00,,---,0.00,VWS V14.00,2013-05-12 19:54:00,
2013-05-12 14:55:00,66.0,27.2,29.97,North,0,7.7,7.7,23,0.00,,---,0.00,VWS V14.00,2013-05-12 19:55:00,
2013-05-12 14:56:00,65.8,27.0,29.97,WNW,292,6.3,6.3,23,0.00,,---,0.00,VWS V14.00,2013-05-12 19:56:00,
2013-05-12 14:57:00,65.8,27.0,29.97,WSW,248,5.2,5.2,23,0.00,,---,0.00,VWS V14.00,2013-05-12 19:57:00,
2013-05-12 14:58:00,65.8,27.0,29.97,NNE,22,5.8,5.8,23,0.00,,---,0.00,VWS V14.00,2013-05-12 19:58:00,
2013-05-12 15:00:00,66.2,27.3,29.97,ENE,68,8.8,8.8,23,0.00,,---,0.00,VWS V14.00,2013-05-12 20:00:00,
2013-05-12 15:01:00,66.2,27.3,29.97,ENE,68,8.8,8.8,23,0.00,,---,0.00,VWS V14.00,2013-05-12 20:01:00,
2013-05-12 15:02:00,66.2,27.3,29.97,WNW,292,3.8,6.3,23,0.00,,---,0.00,VWS V14.00,2013-05-12 20:02:00,
2013-05-12 15:03:00,66.2,27.3,29.97,NNW,338,3.5,3.5,23,0.00,,---,0.00,VWS V14.00,2013-05-12 20:03:00,
2013-05-12 15:04:00,66.2,27.3,29.97,SSW,202,7.2,7.2,23,0.00,,---,0.00,VWS V14.00,2013-05-12 20:04:00,
2013-05-12 15:05:00,66.2,27.3,29.97,NW,315,5.8,5.8,23,0.00,,---,0.00,VWS V14.00,2013-05-12 20:05:00,
2013-05-12 15:06:00,66.2,27.3,29.97,NW,315,5.8,5.8,23,0.00,,---,0.00,VWS V14.00,2013-05-12 20:06:00,
2013-05-12 15:07:00,66.4,27.5,29.97,West,270,3.0,6.0,23,0.00,,---,0.00,VWS V14.00,2013-05-12 20:07:00,
2013-05-12 15:08:00,66.4,27.5,29.97,NW,315,1.0,4.3,23,0.00,,---,0.00,VWS V14.00,2013-05-12 20:08:00,
2013-05-12 15:09:00,66.4,27.5,29.97,WSW,248,6.3,6.3,23,0.00,,---,0.00,VWS V14.00,2013-05-12 20:09:00,
2013-05-12 15:10:00,66.4,27.5,29.97,WSW,248,3.5,4.9,23,0.00,,---,0.00,VWS V14.00,2013-05-12 20:10:00,
2013-05-12 15:11:00,66.4,27.5,29.97,NW,315,5.2,5.2,23,0.00,,---,0.00,VWS V14.00,2013-05-12 20:11:00,
2013-05-12 15:12:00,66.6,28.7,29.97,West,270,2.7,3.4,24,0.00,,---,0.00,VWS V14.00,2013-05-12 20:12:00,
2013-05-12 15:13:00,66.6,28.7,29.97,WNW,292,3.0,3.0,24,0.00,,---,0.00,VWS V14.00,2013-05-12 20:13:00,
2013-05-12 15:14:00,66.6,28.7,29.97,WSW,248,5.5,5.5,24,0.00,,---,0.00,VWS V14.00,2013-05-12 20:14:00,
2013-05-12 15:15:00,66.7,28.8,29.97,NW,315,8.6,8.6,24,0.00,,---,0.00,VWS V14.00,2013-05-12 20:15:00,
2013-05-12 15:16:00,66.7,28.8,29.97,East,90,6.0,6.0,24,0.00,,---,0.00,VWS V14.00,2013-05-12 20:16:00,
2013-05-12 15:17:00,66.7,28.8,29.97,East,90,6.0,6.0,24,0.00,,---,0.00,VWS V14.00,2013-05-12 20:17:00,
2013-05-12 15:18:00,66.9,29.0,29.97,NNW,338,5.2,5.8,24,0.00,,---,0.00,VWS V14.00,2013-05-12 20:18:00,
2013-05-12 15:19:00,66.7,27.8,29.97,NNW,338,5.8,5.8,23,0.00,,---,0.00,VWS V14.00,2013-05-12 20:19:00,
2013-05-12 15:20:00,66.6,27.6,29.97,ENE,68,4.4,4.7,23,0.00,,---,0.00,VWS V14.00,2013-05-12 20:20:00,
2013-05-12 15:21:00,66.6,27.6,29.97,WSW,248,7.2,7.2,23,0.00,,---,0.00,VWS V14.00,2013-05-12 20:21:00,
2013-05-12 15:22:00,66.6,27.6,29.97,WSW,248,7.2,7.2,23,0.00,,---,0.00,VWS V14.00,2013-05-12 20:22:00,
2013-05-12 15:23:00,66.7,28.8,29.97,North,0,5.2,5.2,24,0.00,,---,0.00,VWS V14.00,2013-05-12 20:23:00,
2013-05-12 15:24:00,66.7,27.8,29.97,North,0,8.8,8.8,23,0.00,,---,0.00,VWS V14.00,2013-05-12 20:24:00,
2013-05-12 15:25:00,66.6,27.6,29.97,NNW,338,6.0,7.6,23,0.00,,---,0.00,VWS V14.00,2013-05-12 20:25:00,
2013-05-12 15:26:00,66.4,27.5,29.97,NW,315,5.5,6.3,23,0.00,,---,0.00,VWS V14.00,2013-05-12 20:26:00,
2013-05-12 15:27:00,66.4,27.5,29.97,NW,315,5.5,6.3,23,0.00,,---,0.00,VWS V14.00,2013-05-12 20:27:00,
2013-05-12 15:28:00,66.4,27.5,29.97,North,0,8.6,8.6,23,0.00,,---,0.00,VWS V14.00,2013-05-12 20:28:00,
2013-05-12 15:29:00,66.2,27.3,29.97,North,0,8.0,8.0,23,0.00,,---,0.00,VWS V14.00,2013-05-12 20:29:00,
2013-05-12 15:30:00,66.2,27.3,29.97,North,0,4.4,5.6,23,0.00,,---,0.00,VWS V14.00,2013-05-12 20:30:00,
2013-05-12 15:31:00,66.2,27.3,29.97,NW,315,2.1,2.7,23,0.00,,---,0.00,VWS V14.00,2013-05-12 20:31:00,
2013-05-12 15:32:00,66.0,27.2,29.94,NW,315,4.1,4.1,23,0.00,,---,0.00,VWS V14.00,2013-05-12 20:32:00,
2013-05-12 15:33:00,66.0,27.2,29.94,WSW,248,2.4,3.1,23,0.00,,---,0.00,VWS V14.00,2013-05-12 20:33:00,
2013-05-12 15:34:00,66.0,27.2,29.94,NW,315,5.5,5.5,23,0.00,,---,0.00,VWS V14.00,2013-05-12 20:34:00,
2013-05-12 15:35:00,66.0,27.2,29.94,NW,315,1.0,3.6,23,0.00,,---,0.00,VWS V14.00,2013-05-12 20:35:00,
2013-05-12 15:36:00,66.0,27.2,29.94,NW,315,6.3,6.3,23,0.00,,---,0.00,VWS V14.00,2013-05-12 20:36:00,
2013-05-12 15:37:00,66.0,27.2,29.94,South,180,2.7,6.3,23,0.00,,---,0.00,VWS V14.00,2013-05-12 20:37:00,
2013-05-12 15:38:00,66.0,27.2,29.94,South,180,2.7,6.3,23,0.00,,---,0.00,VWS V14.00,2013-05-12 20:38:00,
2013-05-12 15:39:00,66.0,28.2,29.94,WNW,292,1.0,3.4,24,0.00,,---,0.00,VWS V14.00,2013-05-12 20:39:00,
2013-05-12 15:40:00,66.0,28.2,29.94,SW,225,3.5,3.5,24,0.00,,---,0.00,VWS V14.00,2013-05-12 20:40:00,
2013-05-12 15:41:00,66.0,28.2,29.94,NNW,338,2.1,2.1,24,0.00,,---,0.00,VWS V14.00,2013-05-12 20:41:00,
2013-05-12 15:42:00,66.2,27.3,29.94,NW,315,4.6,4.6,23,0.00,,---,0.00,VWS V14.00,2013-05-12 20:42:00,
2013-05-12 15:43:00,66.2,27.3,29.94,NW,315,4.6,4.6,23,0.00,,---,0.00,VWS V14.00,2013-05-12 20:43:00,
2013-05-12 15:44:00,66.2,27.3,29.94,North,0,5.2,5.2,23,0.00,,---,0.00,VWS V14.00,2013-05-12 20:44:00,
2013-05-12 15:45:00,66.0,27.2,29.94,NNW,338,3.5,3.8,23,0.00,,---,0.00,VWS V14.00,2013-05-12 20:45:00,
2013-05-12 15:46:00,66.0,27.2,29.94,WSW,248,3.8,3.8,23,0.00,,---,0.00,VWS V14.00,2013-05-12 20:46:00,
2013-05-12 15:47:00,66.2,27.3,29.94,North,0,8.6,8.6,23,0.00,,---,0.00,VWS V14.00,2013-05-12 20:47:00,
2013-05-12 15:48:00,66.2,27.3,29.94,North,0,8.6,8.6,23,0.00,,---,0.00,VWS V14.00,2013-05-12 20:48:00,
2013-05-12 15:49:00,66.2,27.3,29.94,NNE,22,7.2,7.2,23,0.00,,---,0.00,VWS V14.00,2013-05-12 20:49:00,
2013-05-12 15:50:00,66.2,27.3,29.94,North,0,6.3,8.1,23,0.00,,---,0.00,VWS V14.00,2013-05-12 20:50:00,
2013-05-12 15:51:00,66.2,27.3,29.94,North,0,6.3,6.3,23,0.00,,---,0.00,VWS V14.00,2013-05-12 20:51:00,
2013-05-12 15:52:00,66.4,27.5,29.94,North,0,8.3,8.3,23,0.00,,---,0.00,VWS V14.00,2013-05-12 20:52:00,
2013-05-12 15:53:00,66.4,27.5,29.94,North,0,8.3,8.3,23,0.00,,---,0.00,VWS V14.00,2013-05-12 20:53:00,
2013-05-12 15:54:00,66.2,27.3,29.94,WNW,292,4.9,5.8,23,0.00,,---,0.00,VWS V14.00,2013-05-12 20:54:00,
2013-05-12 15:55:00,66.2,27.3,29.94,WNW,292,4.1,4.1,23,0.00,,---,0.00,VWS V14.00,2013-05-12 20:55:00,
2013-05-12 15:56:00,66.2,27.3,29.94,NW,315,2.1,2.5,23,0.00,,---,0.00,VWS V14.00,2013-05-12 20:56:00,
2013-05-12 15:57:00,66.2,27.3,29.94,NE,45,5.2,5.2,23,0.00,,---,0.00,VWS V14.00,2013-05-12 20:57:00,
2013-05-12 15:58:00,66.2,27.3,29.94,NE,45,5.2,5.2,23,0.00,,---,0.00,VWS V14.00,2013-05-12 20:58:00,
2013-05-12 15:59:00,66.2,27.3,29.94,NW,315,5.2,5.2,23,0.00,,---,0.00,VWS V14.00,2013-05-12 20:59:00,
2013-05-12 16:00:00,66.2,27.3,29.94,WSW,248,5.8,5.8,23,0.00,,---,0.00,VWS V14.00,2013-05-12 21:00:00,
2013-05-12 16:01:00,66.2,27.3,29.94,West,270,3.5,5.6,23,0.00,,---,0.00,VWS V14.00,2013-05-12 21:01:00,
2013-05-12 16:02:00,66.4,27.5,29.97,WSW,248,1.0,2.5,23,0.00,,---,0.00,VWS V14.00,2013-05-12 21:02:00,
2013-05-12 16:03:00,66.4,27.5,29.97,WSW,248,1.0,2.5,23,0.00,,---,0.00,VWS V14.00,2013-05-12 21:03:00,
2013-05-12 16:04:00,66.4,27.5,29.97,SSE,158,1.0,1.6,23,0.00,,---,0.00,VWS V14.00,2013-05-12 21:04:00,
2013-05-12 16:05:00,66.4,28.5,29.97,SW,225,3.0,3.0,24,0.00,,---,0.00,VWS V14.00,2013-05-12 21:05:00,
2013-05-12 16:06:00,66.4,28.5,29.97,NW,315,3.5,3.5,24,0.00,,---,0.00,VWS V14.00,2013-05-12 21:06:00,
2013-05-12 16:07:00,66.6,28.7,29.97,NW,315,9.1,9.1,24,0.00,,---,0.00,VWS V14.00,2013-05-12 21:07:00,
2013-05-12 16:08:00,66.6,28.7,29.97,NW,315,9.1,9.1,24,0.00,,---,0.00,VWS V14.00,2013-05-12 21:08:00,
2013-05-12 16:09:00,66.4,27.5,29.97,West,270,4.6,6.5,23,0.00,,---,0.00,VWS V14.00,2013-05-12 21:09:00,
2013-05-12 16:10:00,66.4,27.5,29.97,WSW,248,6.9,6.9,23,0.00,,---,0.00,VWS V14.00,2013-05-12 21:10:00,
2013-05-12 16:11:00,66.6,28.7,29.97,WSW,248,4.4,4.7,24,0.00,,---,0.00,VWS V14.00,2013-05-12 21:11:00,
2013-05-12 16:12:00,66.6,28.7,29.97,NNE,22,2.1,3.1,24,0.00,,---,0.00,VWS V14.00,2013-05-12 21:12:00,
2013-05-12 16:13:00,66.6,28.7,29.97,North,0,4.9,4.9,24,0.00,,---,0.00,VWS V14.00,2013-05-12 21:13:00,
2013-05-12 16:14:00,66.6,27.6,29.97,North,0,6.0,6.0,23,0.00,,---,0.00,VWS V14.00,2013-05-12 21:14:00,
2013-05-12 16:15:00,66.6,27.6,29.97,WNW,292,2.1,4.0,23,0.00,,---,0.00,VWS V14.00,2013-05-12 21:15:00,
2013-05-12 16:16:00,66.6,27.6,29.97,North,0,4.6,4.6,23,0.00,,---,0.00,VWS V14.00,2013-05-12 21:16:00,
2013-05-12 16:17:00,66.4,27.5,29.94,NNW,338,2.4,2.9,23,0.00,,---,0.00,VWS V14.00,2013-05-12 21:17:00,
2013-05-12 16:18:00,66.4,27.5,29.94,North,0,1.0,2.7,23,0.00,,---,0.00,VWS V14.00,2013-05-12 21:18:00,
2013-05-12 16:19:00,66.4,27.5,29.94,WNW,292,3.0,3.0,23,0.00,,---,0.00,VWS V14.00,2013-05-12 21:19:00,
2013-05-12 16:20:00,66.4,27.5,29.94,WNW,292,3.0,3.0,23,0.00,,---,0.00,VWS V14.00,2013-05-12 21:20:00,
2013-05-12 16:21:00,66.4,27.5,29.94,WNW,292,5.5,5.5,23,0.00,,---,0.00,VWS V14.00,2013-05-12 21:21:00,
2013-05-12 16:22:00,66.4,27.5,29.94,NW,315,3.5,4.7,23,0.00,,---,0.00,VWS V14.00,2013-05-12 21:22:00,
2013-05-12 16:23:00,66.6,27.6,29.94,NNE,22,4.9,5.6,23,0.00,,---,0.00,VWS V14.00,2013-05-12 21:23:00,
2013-05-12 16:24:00,66.6,27.6,29.94,NNW,338,7.2,7.2,23,0.00,,---,0.00,VWS V14.00,2013-05-12 21:24:00,
2013-05-12 16:25:00,66.6,27.6,29.94,NNW,338,7.2,7.2,23,0.00,,---,0.00,VWS V14.00,2013-05-12 21:25:00,
2013-05-12 16:26:00,66.6,27.6,29.94,NNW,338,8.8,8.8,23,0.00,,---,0.00,VWS V14.00,2013-05-12 21:26:00,
2013-05-12 16:27:00,66.6,27.6,29.94,NW,315,3.5,6.3,23,0.00,,---,0.00,VWS V14.00,2013-05-12 21:27:00,
2013-05-12 16:28:00,66.6,27.6,29.94,NW,315,3.5,3.5,23,0.00,,---,0.00,VWS V14.00,2013-05-12 21:28:00,
2013-05-12 16:29:00,66.6,27.6,29.94,North,0,7.7,7.7,23,0.00,,---,0.00,VWS V14.00,2013-05-12 21:29:00,
2013-05-12 16:30:00,66.6,27.6,29.94,North,0,7.7,7.7,23,0.00,,---,0.00,VWS V14.00,2013-05-12 21:30:00,
2013-05-12 16:31:00,66.6,27.6,29.94,North,0,5.5,5.5,23,0.00,,---,0.00,VWS V14.00,2013-05-12 21:31:00,
2013-05-12 16:32:00,66.6,27.6,29.97,NNW,338,3.0,4.0,23,0.00,,---,0.00,VWS V14.00,2013-05-12 21:32:00,
2013-05-12 16:33:00,66.4,27.5,29.97,SW,225,4.1,4.1,23,0.00,,---,0.00,VWS V14.00,2013-05-12 21:33:00,
2013-05-12 16:34:00,66.4,27.5,29.97,WSW,248,4.4,4.4,23,0.00,,---,0.00,VWS V14.00,2013-05-12 21:34:00,
2013-05-12 16:35:00,66.6,27.6,29.97,WNW,292,2.7,7.8,23,0.00,,---,0.00,VWS V14.00,2013-05-12 21:35:00,
2013-05-12 16:36:00,66.6,28.7,29.97,SW,225,4.4,4.4,24,0.00,,---,0.00,VWS V14.00,2013-05-12 21:36:00,
2013-05-12 16:37:00,66.7,28.8,29.97,North,0,4.4,4.4,24,0.00,,---,0.00,VWS V14.00,2013-05-12 21:37:00,
2013-05-12 16:38:00,66.7,28.8,29.97,NW,315,4.1,4.1,24,0.00,,---,0.00,VWS V14.00,2013-05-12 21:38:00,
2013-05-12 16:39:00,66.7,28.8,29.97,North,0,4.6,4.6,24,0.00,,---,0.00,VWS V14.00,2013-05-12 21:39:00,
2013-05-12 16:40:00,66.7,28.8,29.97,North,0,2.7,2.9,24,0.00,,---,0.00,VWS V14.00,2013-05-12 21:40:00,
2013-05-12 16:41:00,66.6,27.6,29.97,North,0,1.0,2.2,23,0.00,,---,0.00,VWS V14.00,2013-05-12 21:41:00,
2013-05-12 16:42:00,66.6,27.6,29.97,NW,315,2.7,2.7,23,0.00,,---,0.00,VWS V14.00,2013-05-12 21:42:00,
2013-05-12 16:43:00,66.4,27.5,29.97,NW,315,2.7,2.7,23,0.00,,---,0.00,VWS V14.00,2013-05-12 21:43:00,
2013-05-12 16:44:00,66.4,27.5,29.97,NNW,338,6.0,6.0,23,0.00,,---,0.00,VWS V14.00,2013-05-12 21:44:00,
2013-05-12 16:45:00,66.4,27.5,29.97,SSE,158,3.8,3.8,23,0.00,,---,0.00,VWS V14.00,2013-05-12 21:45:00,
2013-05-12 16:46:00,66.4,27.5,29.97,SSE,158,3.8,3.8,23,0.00,,---,0.00,VWS V14.00,2013-05-12 21:46:00,
2013-05-12 16:47:00,66.4,28.5,29.97,NW,315,3.0,3.0,24,0.00,,---,0.00,VWS V14.00,2013-05-12 21:47:00,
2013-05-12 16:48:00,66.4,28.5,29.97,North,0,4.9,4.9,24,0.00,,---,0.00,VWS V14.00,2013-05-12 21:48:00,
2013-05-12 16:49:00,66.4,28.5,29.97,NNW,338,5.5,5.5,24,0.00,,---,0.00,VWS V14.00,2013-05-12 21:49:00,
2013-05-12 16:50:00,66.4,27.5,29.97,NNW,338,5.5,5.5,23,0.00,,---,0.00,VWS V14.00,2013-05-12 21:50:00,
2013-05-12 16:51:00,66.4,27.5,29.97,NNW,338,1.0,3.6,23,0.00,,---,0.00,VWS V14.00,2013-05-12 21:51:00,
2013-05-12 16:52:00,66.4,27.5,29.97,NW,315,1.0,0.0,23,0.00,,---,0.00,VWS V14.00,2013-05-12 21:52:00,
2013-05-12 16:53:00,66.4,27.5,29.97,NNW,338,2.1,2.1,23,0.00,,---,0.00,VWS V14.00,2013-05-12 21:53:00,
2013-05-12 16:54:00,66.4,27.5,29.97,NW,315,5.8,5.8,23,0.00,,---,0.00,VWS V14.00,2013-05-12 21:54:00,
2013-05-12 16:55:00,66.4,27.5,29.97,NE,45,3.8,3.8,23,0.00,,---,0.00,VWS V14.00,2013-05-12 21:55:00,
2013-05-12 16:56:00,66.4,27.5,29.97,North,0,4.1,4.1,23,0.00,,---,0.00,VWS V14.00,2013-05-12 21:56:00,
2013-05-12 16:57:00,66.4,27.5,29.97,North,0,3.8,3.8,23,0.00,,---,0.00,VWS V14.00,2013-05-12 21:57:00,
2013-05-12 16:58:00,66.4,27.5,29.97,West,270,2.4,2.4,23,0.00,,---,0.00,VWS V14.00,2013-05-12 21:58:00,
2013-05-12 16:59:00,66.2,27.3,29.97,East,90,1.0,1.1,23,0.00,,---,0.00,VWS V14.00,2013-05-12 21:59:00,
2013-05-12 17:00:00,66.2,27.3,29.97,WSW,248,3.5,3.5,23,0.00,,---,0.00,VWS V14.00,2013-05-12 22:00:00,
2013-05-12 17:01:00,66.2,27.3,29.97,SW,225,3.8,3.8,23,0.00,,---,0.00,VWS V14.00,2013-05-12 22:01:00,
2013-05-12 17:02:00,66.2,27.3,29.94,SW,225,3.8,3.8,23,0.00,,---,0.00,VWS V14.00,2013-05-12 22:02:00,
2013-05-12 17:03:00,66.4,27.5,29.94,WNW,292,4.1,4.3,23,0.00,,---,0.00,VWS V14.00,2013-05-12 22:03:00,
2013-05-12 17:04:00,66.6,27.6,29.94,NNW,338,4.9,4.9,23,0.00,,---,0.00,VWS V14.00,2013-05-12 22:04:00,
2013-05-12 17:05:00,66.6,27.6,29.94,North,0,1.0,3.1,23,0.00,,---,0.00,VWS V14.00,2013-05-12 22:05:00,
2013-05-12 17:06:00,66.6,27.6,29.94,North,0,1.0,1.0,23,0.00,,---,0.00,VWS V14.00,2013-05-12 22:06:00,
2013-05-12 17:07:00,66.6,27.6,29.94,WSW,248,2.1,2.1,23,0.00,,---,0.00,VWS V14.00,2013-05-12 22:07:00,
2013-05-12 17:08:00,66.6,27.6,29.94,West,270,3.5,3.5,23,0.00,,---,0.00,VWS V14.00,2013-05-12 22:08:00,
2013-05-12 17:09:00,66.6,27.6,29.94,West,270,3.5,3.5,23,0.00,,---,0.00,VWS V14.00,2013-05-12 22:09:00,
2013-05-12 17:10:00,66.6,27.6,29.94,WSW,248,2.7,2.7,23,0.00,,---,0.00,VWS V14.00,2013-05-12 22:10:00,
2013-05-12 17:11:00,66.7,27.8,29.94,SW,225,6.3,6.3,23,0.00,,---,0.00,VWS V14.00,2013-05-12 22:11:00,
2013-05-12 17:12:00,66.7,28.8,29.94,South,180,5.8,5.8,24,0.00,,---,0.00,VWS V14.00,2013-05-12 22:12:00,
2013-05-12 17:13:00,66.9,29.0,29.94,NW,315,2.1,3.1,24,0.00,,---,0.00,VWS V14.00,2013-05-12 22:13:00,
2013-05-12 17:14:00,66.9,29.0,29.94,NW,315,2.1,3.1,24,0.00,,---,0.00,VWS V14.00,2013-05-12 22:14:00,
2013-05-12 17:15:00,66.9,29.0,29.94,NW,315,1.0,1.0,24,0.00,,---,0.00,VWS V14.00,2013-05-12 22:15:00,
2013-05-12 17:16:00,66.9,29.0,29.94,NNW,338,5.2,5.2,24,0.00,,---,0.00,VWS V14.00,2013-05-12 22:16:00,
2013-05-12 17:17:00,66.9,27.9,29.94,North,0,5.2,5.2,23,0.00,,---,0.00,VWS V14.00,2013-05-12 22:17:00,
2013-05-12 17:18:00,66.7,27.8,29.94,North,0,3.5,3.5,23,0.00,,---,0.00,VWS V14.00,2013-05-12 22:18:00,
2013-05-12 17:19:00,66.7,27.8,29.94,North,0,3.5,3.5,23,0.00,,---,0.00,VWS V14.00,2013-05-12 22:19:00,
2013-05-12 17:20:00,66.7,27.8,29.94,SE,135,3.8,3.8,23,0.00,,---,0.00,VWS V14.00,2013-05-12 22:20:00,
2013-05-12 17:21:00,66.7,27.8,29.94,SSE,158,5.2,5.2,23,0.00,,---,0.00,VWS V14.00,2013-05-12 22:21:00,
2013-05-12 17:22:00,66.7,27.8,29.94,SSE,158,5.5,5.6,23,0.00,,---,0.00,VWS V14.00,2013-05-12 22:22:00,
2013-05-12 17:23:00,66.9,27.9,29.94,South,180,4.9,4.9,23,0.00,,---,0.00,VWS V14.00,2013-05-12 22:23:00,
2013-05-12 17:24:00,66.9,29.0,29.94,ESE,112,5.8,5.8,24,0.00,,---,0.00,VWS V14.00,2013-05-12 22:24:00,
2013-05-12 17:25:00,67.1,29.1,29.94,ESE,112,6.0,6.0,24,0.00,,---,0.00,VWS V14.00,2013-05-12 22:25:00,
2013-05-12 17:26:00,67.3,29.3,29.94,SE,135,6.0,6.0,24,0.00,,---,0.00,VWS V14.00,2013-05-12 22:26:00,
2013-05-12 17:27:00,67.3,29.3,29.94,SE,135,6.0,6.0,24,0.00,,---,0.00,VWS V14.00,2013-05-12 22:27:00,
2013-05-12 17:28:00,67.3,29.3,29.94,SE,135,6.0,6.0,24,0.00,,---,0.00,VWS V14.00,2013-05-12 22:28:00,
2013-05-12 17:29:00,67.5,29.4,29.94,SSW,202,3.5,4.0,24,0.00,,---,0.00,VWS V14.00,2013-05-12 22:29:00,
2013-05-12 17:30:00,67.5,29.4,29.94,SSW,202,3.5,4.0,24,0.00,,---,0.00,VWS V14.00,2013-05-12 22:30:00,
2013-05-12 17:31:00,67.5,29.4,29.94,WNW,292,3.8,4.0,24,0.00,,---,0.00,VWS V14.00,2013-05-12 22:31:00,
2013-05-12 17:32:00,67.5,29.4,29.94,WNW,292,5.5,5.5,24,0.00,,---,0.00,VWS V14.00,2013-05-12 22:32:00,
2013-05-12 17:33:00,67.6,29.6,29.94,WNW,292,3.0,3.6,24,0.00,,---,0.00,VWS V14.00,2013-05-12 22:33:00,
2013-05-12 17:34:00,67.6,29.6,29.94,NW,315,3.5,3.5,24,0.00,,---,0.00,VWS V14.00,2013-05-12 22:34:00,
2013-05-12 17:35:00,67.6,29.6,29.94,NW,315,3.5,3.5,24,0.00,,---,0.00,VWS V14.00,2013-05-12 22:35:00,
2013-05-12 17:36:00,67.6,29.6,29.94,South,180,3.8,3.8,24,0.00,,---,0.00,VWS V14.00,2013-05-12 22:36:00,
2013-05-12 17:37:00,67.6,29.6,29.94,South,180,4.4,4.4,24,0.00,,---,0.00,VWS V14.00,2013-05-12 22:37:00,
2013-05-12 17:38:00,67.6,29.6,29.94,SSW,202,2.4,2.7,24,0.00,,---,0.00,VWS V14.00,2013-05-12 22:38:00,
2013-05-12 17:39:00,67.8,29.7,29.94,WNW,292,2.7,2.7,24,0.00,,---,0.00,VWS V14.00,2013-05-12 22:39:00,
2013-05-12 17:40:00,67.8,29.7,29.94,WNW,292,2.7,2.7,24,0.00,,---,0.00,VWS V14.00,2013-05-12 22:40:00,
2013-05-12 17:41:00,67.8,29.7,29.94,SE,135,1.0,1.3,24,0.00,,---,0.00,VWS V14.00,2013-05-12 22:41:00,
2013-05-12 17:42:00,67.8,29.7,29.94,SE,135,6.3,6.3,24,0.00,,---,0.00,VWS V14.00,2013-05-12 22:42:00,
2013-05-12 17:43:00,67.8,29.7,29.94,SW,225,5.8,5.8,24,0.00,,---,0.00,VWS V14.00,2013-05-12 22:43:00,
2013-05-12 17:44:00,67.8,29.7,29.94,SW,225,4.6,4.6,24,0.00,,---,0.00,VWS V14.00,2013-05-12 22:44:00,
2013-05-12 17:45:00,67.8,29.7,29.94,SW,225,4.6,4.6,24,0.00,,---,0.00,VWS V14.00,2013-05-12 22:45:00,
2013-05-12 17:46:00,67.8,29.7,29.94,NNE,22,4.9,4.9,24,0.00,,---,0.00,VWS V14.00,2013-05-12 22:46:00,
2013-05-12 17:47:00,67.8,29.7,29.94,NW,315,4.4,4.4,24,0.00,,---,0.00,VWS V14.00,2013-05-12 22:47:00,
2013-05-12 17:48:00,67.8,29.7,29.94,WSW,248,3.5,3.5,24,0.00,,---,0.00,VWS V14.00,2013-05-12 22:48:00,
2013-05-12 17:49:00,67.8,29.7,29.94,WSW,248,4.4,4.4,24,0.00,,---,0.00,VWS V14.00,2013-05-12 22:49:00,
2013-05-12 17:50:00,68.0,29.9,29.94,WNW,292,4.4,4.4,24,0.00,,---,0.00,VWS V14.00,2013-05-12 22:50:00,
2013-05-12 17:51:00,68.0,29.9,29.94,SSW,202,5.8,5.8,24,0.00,,---,0.00,VWS V14.00,2013-05-12 22:51:00,
2013-05-12 17:52:00,68.0,29.9,29.94,WNW,292,4.6,4.6,24,0.00,,---,0.00,VWS V14.00,2013-05-12 22:52:00,
2013-05-12 17:53:00,68.0,29.9,29.94,SW,225,4.1,4.1,24,0.00,,---,0.00,VWS V14.00,2013-05-12 22:53:00,
2013-05-12 17:54:00,68.0,29.9,29.94,SW,225,4.1,4.1,24,0.00,,---,0.00,VWS V14.00,2013-05-12 22:54:00,
2013-05-12 17:55:00,68.0,29.9,29.94,South,180,6.0,7.2,24,0.00,,---,0.00,VWS V14.00,2013-05-12 22:55:00,
2013-05-12 17:56:00,68.0,29.9,29.94,South,180,6.0,6.0,24,0.00,,---,0.00,VWS V14.00,2013-05-12 22:56:00,
2013-05-12 17:57:00,68.0,29.9,29.94,West,270,4.1,4.1,24,0.00,,---,0.00,VWS V14.00,2013-05-12 22:57:00,
2013-05-12 17:58:00,68.0,29.9,29.94,WSW,248,5.5,5.5,24,0.00,,---,0.00,VWS V14.00,2013-05-12 22:58:00,
2013-05-12 17:59:00,68.0,29.9,29.94,South,180,4.9,5.6,24,0.00,,---,0.00,VWS V14.00,2013-05-12 22:59:00,
2013-05-12 18:00:00,68.0,29.9,29.94,West,270,4.1,4.1,24,0.00,,---,0.00,VWS V14.00,2013-05-12 23:00:00,
2013-05-12 18:01:00,68.0,29.9,29.94,SW,225,4.4,4.4,24,0.00,,---,0.00,VWS V14.00,2013-05-12 23:01:00,
2013-05-12 18:02:00,68.0,29.9,29.94,WSW,248,2.7,4.7,24,0.00,,---,0.00,VWS V14.00,2013-05-12 23:02:00,
2013-05-12 18:03:00,68.0,29.9,29.94,WSW,248,4.1,4.1,24,0.00,,---,0.00,VWS V14.00,2013-05-12 23:03:00,
2013-05-12 18:04:00,68.0,29.9,29.94,SW,225,4.6,5.8,24,0.00,,---,0.00,VWS V14.00,2013-05-12 23:04:00,
2013-05-12 18:05:00,68.0,29.9,29.94,ESE,112,3.8,3.8,24,0.00,,---,0.00,VWS V14.00,2013-05-12 23:05:00,
2013-05-12 18:06:00,68.0,29.9,29.94,SE,135,6.0,6.0,24,0.00,,---,0.00,VWS V14.00,2013-05-12 23:06:00,
2013-05-12 18:07:00,68.0,29.9,29.94,NNW,338,5.2,5.2,24,0.00,,---,0.00,VWS V14.00,2013-05-12 23:07:00,
2013-05-12 18:08:00,68.0,29.9,29.94,NNW,338,5.2,5.2,24,0.00,,---,0.00,VWS V14.00,2013-05-12 23:08:00,
2013-05-12 18:09:00,68.0,29.9,29.94,West,270,4.4,4.4,24,0.00,,---,0.00,VWS V14.00,2013-05-12 23:09:00,
2013-05-12 18:10:00,68.0,29.9,29.94,WSW,248,7.2,7.2,24,0.00,,---,0.00,VWS V14.00,2013-05-12 23:10:00,
2013-05-12 18:11:00,68.0,29.9,29.94,SSW,202,3.5,4.9,24,0.00,,---,0.00,VWS V14.00,2013-05-12 23:11:00,
2013-05-12 18:12:00,68.0,29.9,29.94,SW,225,4.4,4.4,24,0.00,,---,0.00,VWS V14.00,2013-05-12 23:12:00,
2013-05-12 18:13:00,68.0,29.9,29.94,SW,225,4.1,4.1,24,0.00,,---,0.00,VWS V14.00,2013-05-12 23:13:00,
2013-05-12 18:15:00,68.0,29.9,29.94,West,270,4.4,4.4,24,0.00,,---,0.00,VWS V14.00,2013-05-12 23:15:00,
2013-05-12 18:16:00,68.0,29.9,29.94,WSW,248,3.5,3.8,24,0.00,,---,0.00,VWS V14.00,2013-05-12 23:16:00,
2013-05-12 18:17:00,68.0,29.9,29.94,SSW,202,5.2,5.2,24,0.00,,---,0.00,VWS V14.00,2013-05-12 23:17:00,
2013-05-12 18:18:00,67.8,29.7,29.94,WSW,248,5.5,5.5,24,0.00,,---,0.00,VWS V14.00,2013-05-12 23:18:00,
2013-05-12 18:19:00,67.8,29.7,29.94,WSW,248,5.5,5.5,24,0.00,,---,0.00,VWS V14.00,2013-05-12 23:19:00,
2013-05-12 18:20:00,67.8,29.7,29.94,SSW,202,4.6,4.6,24,0.00,,---,0.00,VWS V14.00,2013-05-12 23:20:00,
2013-05-12 18:21:00,67.8,29.7,29.94,West,270,4.1,4.1,24,0.00,,---,0.00,VWS V14.00,2013-05-12 23:21:00,
2013-05-12 18:22:00,67.8,29.7,29.94,NW,315,2.4,3.1,24,0.00,,---,0.00,VWS V14.00,2013-05-12 23:22:00,
2013-05-12 18:23:00,67.8,29.7,29.94,WSW,248,2.4,2.4,24,0.00,,---,0.00,VWS V14.00,2013-05-12 23:23:00,
2013-05-12 18:24:00,67.8,29.7,29.94,SW,225,4.6,4.6,24,0.00,,---,0.00,VWS V14.00,2013-05-12 23:24:00,
2013-05-12 18:25:00,67.6,29.6,29.94,SSE,158,4.1,4.1,24,0.00,,---,0.00,VWS V14.00,2013-05-12 23:25:00,
2013-05-12 18:26:00,67.6,29.6,29.94,WSW,248,4.6,4.6,24,0.00,,---,0.00,VWS V14.00,2013-05-12 23:26:00,
2013-05-12 18:27:00,67.6,29.6,29.94,South,180,1.0,2.9,24,0.00,,---,0.00,VWS V14.00,2013-05-12 23:27:00,
2013-05-12 18:28:00,67.6,30.6,29.94,WSW,248,3.0,3.0,25,0.00,,---,0.00,VWS V14.00,2013-05-12 23:28:00,
2013-05-12 18:29:00,67.5,30.4,29.94,WSW,248,4.1,4.1,25,0.00,,---,0.00,VWS V14.00,2013-05-12 23:29:00,
2013-05-12 18:30:00,67.5,30.4,29.94,WSW,248,4.1,4.1,25,0.00,,---,0.00,VWS V14.00,2013-05-12 23:30:00,
2013-05-12 18:31:00,67.5,30.4,29.94,WNW,292,4.1,4.1,25,0.00,,---,0.00,VWS V14.00,2013-05-12 23:31:00,
2013-05-12 18:32:00,67.5,29.4,29.94,South,180,3.0,3.0,24,0.00,,---,0.00,VWS V14.00,2013-05-12 23:32:00,
2013-05-12 18:33:00,67.5,29.4,29.94,South,180,6.0,6.0,24,0.00,,---,0.00,VWS V14.00,2013-05-12 23:33:00,
2013-05-12 18:34:00,67.5,30.4,29.94,SSW,202,3.8,3.8,25,0.00,,---,0.00,VWS V14.00,2013-05-12 23:34:00,
2013-05-12 18:35:00,67.5,30.4,29.94,SSW,202,3.8,3.8,25,0.00,,---,0.00,VWS V14.00,2013-05-12 23:35:00,
2013-05-12 18:36:00,67.3,30.3,29.94,South,180,4.1,4.1,25,0.00,,---,0.00,VWS V14.00,2013-05-12 23:36:00,
2013-05-12 18:37:00,67.3,30.3,29.94,SW,225,3.5,3.5,25,0.00,,---,0.00,VWS V14.00,2013-05-12 23:37:00,
2013-05-12 18:38:00,67.1,30.1,29.94,WSW,248,4.1,4.1,25,0.00,,---,0.00,VWS V14.00,2013-05-12 23:38:00,
2013-05-12 18:39:00,67.1,30.1,29.94,SSE,158,4.9,4.9,25,0.00,,---,0.00,VWS V14.00,2013-05-12 23:39:00,
2013-05-12 18:40:00,67.1,30.1,29.94,SSE,158,4.9,4.9,25,0.00,,---,0.00,VWS V14.00,2013-05-12 23:40:00,
2013-05-12 18:41:00,66.9,30.0,29.94,SSW,202,2.1,3.1,25,0.00,,---,0.00,VWS V14.00,2013-05-12 23:41:00,
2013-05-12 18:42:00,66.9,30.0,29.94,SSW,202,5.2,5.2,25,0.00,,---,0.00,VWS V14.00,2013-05-12 23:42:00,
2013-05-12 18:43:00,66.7,29.8,29.94,South,180,1.0,3.4,25,0.00,,---,0.00,VWS V14.00,2013-05-12 23:43:00,
2013-05-12 18:44:00,66.7,29.8,29.94,West,270,4.4,4.4,25,0.00,,---,0.00,VWS V14.00,2013-05-12 23:44:00,
2013-05-12 18:45:00,66.7,29.8,29.94,West,270,4.4,4.4,25,0.00,,---,0.00,VWS V14.00,2013-05-12 23:45:00,
2013-05-12 18:46:00,66.7,29.8,29.94,WSW,248,4.1,4.1,25,0.00,,---,0.00,VWS V14.00,2013-05-12 23:46:00,
2013-05-12 18:47:00,66.6,29.7,29.91,WSW,248,3.0,3.0,25,0.00,,---,0.00,VWS V14.00,2013-05-12 23:47:00,
2013-05-12 18:48:00,66.6,29.7,29.91,SSW,202,3.5,3.5,25,0.00,,---,0.00,VWS V14.00,2013-05-12 23:48:00,
2013-05-12 18:49:00,66.6,29.7,29.91,SSW,202,2.7,2.7,25,0.00,,---,0.00,VWS V14.00,2013-05-12 23:49:00,
2013-05-12 18:50:00,66.6,29.7,29.91,SSW,202,2.7,2.7,25,0.00,,---,0.00,VWS V14.00,2013-05-12 23:50:00,
2013-05-12 18:51:00,66.4,29.5,29.91,WSW,248,2.4,2.4,25,0.00,,---,0.00,VWS V14.00,2013-05-12 23:51:00,
2013-05-12 18:52:00,66.4,29.5,29.91,SW,225,3.5,3.5,25,0.00,,---,0.00,VWS V14.00,2013-05-12 23:52:00,
2013-05-12 18:53:00,66.2,30.3,29.91,WSW,248,4.6,4.6,26,0.00,,---,0.00,VWS V14.00,2013-05-12 23:53:00,
2013-05-12 18:54:00,66.2,30.3,29.91,SW,225,4.1,4.1,26,0.00,,---,0.00,VWS V14.00,2013-05-12 23:54:00,
2013-05-12 18:55:00,66.2,30.3,29.91,WSW,248,2.7,2.7,26,0.00,,---,0.00,VWS V14.00,2013-05-12 23:55:00,
2013-05-12 18:56:00,66.2,30.3,29.91,SW,225,4.1,4.1,26,0.00,,---,0.00,VWS V14.00,2013-05-12 23:56:00,
2013-05-12 18:57:00,66.0,31.1,29.91,South,180,3.5,4.7,27,0.00,,---,0.00,VWS V14.00,2013-05-12 23:57:00,
2013-05-12 18:58:00,66.0,31.1,29.91,SSW,202,3.0,3.0,27,0.00,,---,0.00,VWS V14.00,2013-05-12 23:58:00,
2013-05-12 18:59:00,66.0,31.1,29.91,SSW,202,3.0,3.0,27,0.00,,---,0.00,VWS V14.00,2013-05-12 23:59:00,
2013-05-12 19:00:00,65.8,31.0,29.91,SSW,202,3.0,3.0,27,0.00,,---,0.00,VWS V14.00,2013-05-13 00:00:00,
2013-05-12 19:01:00,65.8,31.0,29.91,SSW,202,3.0,3.0,27,0.00,,---,0.00,VWS V14.00,2013-05-13 00:01:00,
2013-05-12 19:02:00,65.8,31.0,29.91,SSW,202,2.1,2.1,27,0.00,,---,0.00,VWS V14.00,2013-05-13 00:02:00,
2013-05-12 19:03:00,65.7,30.8,29.91,South,180,1.0,1.0,27,0.00,,---,0.00,VWS V14.00,2013-05-13 00:03:00,
2013-05-12 19:04:00,65.7,30.8,29.91,SSE,158,4.4,4.4,27,0.00,,---,0.00,VWS V14.00,2013-05-13 00:04:00,
2013-05-12 19:05:00,65.7,30.8,29.91,SSW,202,3.0,3.0,27,0.00,,---,0.00,VWS V14.00,2013-05-13 00:05:00,
2013-05-12 19:06:00,65.7,30.8,29.91,SSW,202,3.0,3.0,27,0.00,,---,0.00,VWS V14.00,2013-05-13 00:06:00,
2013-05-12 19:07:00,65.5,31.5,29.91,WSW,248,3.5,3.5,28,0.00,,---,0.00,VWS V14.00,2013-05-13 00:07:00,
2013-05-12 19:08:00,65.5,31.5,29.91,SSW,202,4.4,4.4,28,0.00,,---,0.00,VWS V14.00,2013-05-13 00:08:00,
2013-05-12 19:09:00,65.5,31.5,29.91,SW,225,4.4,4.4,28,0.00,,---,0.00,VWS V14.00,2013-05-13 00:09:00,
2013-05-12 19:10:00,65.5,31.5,29.91,WSW,248,3.8,3.8,28,0.00,,---,0.00,VWS V14.00,2013-05-13 00:10:00,
2013-05-12 19:11:00,65.5,31.5,29.91,WSW,248,3.8,3.8,28,0.00,,---,0.00,VWS V14.00,2013-05-13 00:11:00,
2013-05-12 19:15:00,65.1,32.1,29.91,SSW,202,4.1,4.1,29,0.00,,---,0.00,VWS V14.00,2013-05-13 00:15:00,
2013-05-12 19:16:00,65.1,32.1,29.91,SW,225,2.4,2.5,29,0.00,,---,0.00,VWS V14.00,2013-05-13 00:16:00,
2013-05-12 19:17:00,64.9,31.9,29.91,SSW,202,3.8,3.8,29,0.00,,---,0.00,VWS V14.00,2013-05-13 00:17:00,
2013-05-12 19:18:00,64.9,31.1,29.91,South,180,2.7,2.7,28,0.00,,---,0.00,VWS V14.00,2013-05-13 00:18:00,
2013-05-12 19:19:00,64.8,32.6,29.91,WSW,248,2.4,2.9,30,0.00,,---,0.00,VWS V14.00,2013-05-13 00:19:00,
2013-05-12 19:20:00,64.8,32.6,29.91,WSW,248,2.4,2.9,30,0.00,,---,0.00,VWS V14.00,2013-05-13 00:20:00,
2013-05-12 19:21:00,64.6,32.5,29.91,SW,225,2.7,2.7,30,0.00,,---,0.00,VWS V14.00,2013-05-13 00:21:00,
2013-05-12 19:22:00,64.6,32.5,29.91,SSW,202,3.8,3.8,30,0.00,,---,0.00,VWS V14.00,2013-05-13 00:22:00,
2013-05-12 19:23:00,64.4,32.3,29.91,WSW,248,4.4,4.4,30,0.00,,---,0.00,VWS V14.00,2013-05-13 00:23:00,
2013-05-12 19:34:00,63.3,33.0,29.94,North,0,1.0,0.0,32,0.00,,---,0.00,VWS V14.00,2013-05-13 00:34:00,
2013-05-12 19:35:00,63.3,33.0,29.94,North,0,1.0,0.0,32,0.00,,---,0.00,VWS V14.00,2013-05-13 00:35:00,
2013-05-12 19:36:00,63.3,33.0,29.94,North,0,1.0,0.0,32,0.00,,---,0.00,VWS V14.00,2013-05-13 00:36:00,
2013-05-12 19:37:00,63.0,33.4,29.94,SSE,158,1.0,0.0,33,0.00,,---,0.00,VWS V14.00,2013-05-13 00:37:00,
2013-05-12 19:38:00,63.0,32.7,29.94,SSE,158,1.0,0.0,32,0.00,,---,0.00,VWS V14.00,2013-05-13 00:38:00,
2013-05-12 19:39:00,62.8,33.3,29.94,SSE,158,1.0,0.0,33,0.00,,---,0.00,VWS V14.00,2013-05-13 00:39:00,
2013-05-12 19:40:00,62.6,33.1,29.94,SSE,158,2.7,2.7,33,0.00,,---,0.00,VWS V14.00,2013-05-13 00:40:00,
2013-05-12 19:41:00,62.6,33.1,29.94,South,180,1.0,2.5,33,0.00,,---,0.00,VWS V14.00,2013-05-13 00:41:00,
2013-05-12 19:42:00,62.6,33.1,29.94,SSE,158,2.7,2.7,33,0.00,,---,0.00,VWS V14.00,2013-05-13 00:42:00,
2013-05-12 19:43:00,62.4,33.7,29.94,SSE,158,1.0,1.3,34,0.00,,---,0.00,VWS V14.00,2013-05-13 00:43:00,
2013-05-12 19:44:00,62.2,33.5,29.94,South,180,1.0,0.0,34,0.00,,---,0.00,VWS V14.00,2013-05-13 00:44:00,
2013-05-12 19:45:00,62.1,33.4,29.94,South,180,1.0,1.6,34,0.00,,---,0.00,VWS V14.00,2013-05-13 00:45:00,
2013-05-12 19:46:00,62.1,33.4,29.94,South,180,1.0,0.0,34,0.00,,---,0.00,VWS V14.00,2013-05-13 00:46:00,
2013-05-12 19:55:00,61.0,33.2,29.91,SW,225,1.0,0.0,35,0.00,,---,0.00,VWS V14.00,2013-05-13 00:55:00,
2013-05-12 20:00:00,60.4,32.7,29.91,SW,225,4.4,4.4,35,0.00,,---,0.00,VWS V14.00,2013-05-13 01:00:00,
2013-05-12 20:05:00,59.9,32.9,29.91,SW,225,1.0,1.0,36,0.00,,---,0.00,VWS V14.00,2013-05-13 01:05:00,
2013-05-12 20:10:00,59.4,32.4,29.91,SW,225,1.0,0.0,36,0.00,,---,0.00,VWS V14.00,2013-05-13 01:10:00,
2013-05-12 20:15:00,59.0,32.1,29.91,WSW,248,1.0,2.0,36,0.00,,---,0.00,VWS V14.00,2013-05-13 01:15:00,
2013-05-12 20:20:00,58.5,32.3,29.91,SSW,202,1.0,1.0,37,0.00,,---,0.00,VWS V14.00,2013-05-13 01:20:00,
2013-05-12 20:26:00,58.1,32.7,29.91,SSW,202,2.1,2.1,38,0.00,,---,0.00,VWS V14.00,2013-05-13 01:26:00,
2013-05-12 20:31:00,57.6,32.8,29.94,SW,225,2.4,2.4,39,0.00,,---,0.00,VWS V14.00,2013-05-13 01:31:00,
2013-05-12 20:36:00,57.2,33.1,29.94,WSW,248,2.4,2.4,40,0.00,,---,0.00,VWS V14.00,2013-05-13 01:36:00,
2013-05-12 20:41:00,56.8,32.8,29.94,SW,225,1.0,0.0,40,0.00,,---,0.00,VWS V14.00,2013-05-13 01:41:00,
2013-05-12 20:47:00,56.8,32.8,29.94,SW,225,1.0,0.0,40,0.00,,---,0.00,VWS V14.00,2013-05-13 01:47:00,
2013-05-12 20:52:00,56.5,32.5,29.94,WNW,292,1.0,0.0,40,0.00,,---,0.00,VWS V14.00,2013-05-13 01:52:00,
2013-05-12 20:57:00,56.3,32.3,29.94,WNW,292,1.0,0.0,40,0.00,,---,0.00,VWS V14.00,2013-05-13 01:57:00,
2013-05-12 21:02:00,56.1,32.8,29.94,WNW,292,1.0,0.0,41,0.00,,---,0.00,VWS V14.00,2013-05-13 02:02:00,
2013-05-12 21:08:00,55.8,32.4,29.94,WNW,292,1.0,0.0,41,0.00,,---,0.00,VWS V14.00,2013-05-13 02:08:00,
2013-05-12 21:13:00,55.4,32.1,29.94,WSW,248,1.0,0.0,41,0.00,,---,0.00,VWS V14.00,2013-05-13 02:13:00,
2013-05-12 21:18:00,55.2,32.5,29.94,West,270,2.1,2.1,42,0.00,,---,0.00,VWS V14.00,2013-05-13 02:18:00,
2013-05-12 21:23:00,55.0,33.0,29.94,SW,225,1.0,0.0,43,0.00,,---,0.00,VWS V14.00,2013-05-13 02:23:00,
2013-05-12 21:28:00,54.9,32.2,29.94,WSW,248,2.1,2.9,42,0.00,,---,0.00,VWS V14.00,2013-05-13 02:28:00,
2013-05-12 21:33:00,54.9,32.2,29.94,WSW,248,1.0,0.0,42,0.00,,---,0.00,VWS V14.00,2013-05-13 02:33:00,
2013-05-12 21:38:00,54.7,32.6,29.94,WSW,248,1.0,0.0,43,0.00,,---,0.00,VWS V14.00,2013-05-13 02:38:00,
2013-05-12 21:44:00,54.7,32.6,29.94,SW,225,1.0,0.0,43,0.00,,---,0.00,VWS V14.00,2013-05-13 02:44:00,
2013-05-12 21:49:00,54.5,31.9,29.94,WSW,248,1.0,0.0,42,0.00,,---,0.00,VWS V14.00,2013-05-13 02:49:00,
2013-05-12 21:54:00,54.5,31.9,29.94,WSW,248,1.0,1.0,42,0.00,,---,0.00,VWS V14.00,2013-05-13 02:54:00,
2013-05-12 22:00:00,54.3,31.7,29.94,WSW,248,1.0,1.0,42,0.00,,---,0.00,VWS V14.00,2013-05-13 03:00:00,
2013-05-12 22:05:00,54.3,32.3,29.94,SW,225,3.8,3.8,43,0.00,,---,0.00,VWS V14.00,2013-05-13 03:05:00,
2013-05-12 22:10:00,54.1,31.6,29.94,West,270,2.7,2.7,42,0.00,,---,0.00,VWS V14.00,2013-05-13 03:10:00,
2013-05-12 22:15:00,54.3,32.3,29.94,WSW,248,2.1,2.1,43,0.00,,---,0.00,VWS V14.00,2013-05-13 03:15:00,
2013-05-12 22:20:00,54.1,32.7,29.94,SW,225,2.4,3.4,44,0.00,,---,0.00,VWS V14.00,2013-05-13 03:20:00,
2013-05-12 22:25:00,54.1,32.2,29.94,WSW,248,1.0,0.0,43,0.00,,---,0.00,VWS V14.00,2013-05-13 03:25:00,
2013-05-12 22:30:00,54.0,32.0,29.94,WSW,248,1.0,0.0,43,0.00,,---,0.00,VWS V14.00,2013-05-13 03:30:00,
2013-05-12 22:35:00,53.8,32.4,29.94,WSW,248,3.5,3.5,44,0.00,,---,0.00,VWS V14.00,2013-05-13 03:35:00,
2013-05-12 22:40:00,53.6,32.8,29.94,WSW,248,1.0,1.3,45,0.00,,---,0.00,VWS V14.00,2013-05-13 03:40:00,
2013-05-12 22:45:00,53.4,32.6,29.94,SW,225,1.0,0.0,45,0.00,,---,0.00,VWS V14.00,2013-05-13 03:45:00,
2013-05-12 22:50:00,53.4,32.6,29.94,WSW,248,1.0,0.0,45,0.00,,---,0.00,VWS V14.00,2013-05-13 03:50:00,
2013-05-12 22:56:00,53.2,31.9,29.94,WSW,248,1.0,0.0,44,0.00,,---,0.00,VWS V14.00,2013-05-13 03:56:00,
2013-05-12 23:01:00,53.1,32.3,29.94,WSW,248,1.0,0.0,45,0.00,,---,0.00,VWS V14.00,2013-05-13 04:01:00,
2013-05-12 23:02:00,53.1,32.3,29.94,WSW,248,1.0,0.0,45,0.00,,---,0.00,VWS V14.00,2013-05-13 04:02:00,
2013-05-12 23:04:00,53.1,32.3,29.94,WSW,248,1.0,0.0,45,0.00,,---,0.00,VWS V14.00,2013-05-13 04:04:00,
2013-05-12 23:06:00,53.1,32.3,29.94,WSW,248,1.0,0.0,45,0.00,,---,0.00,VWS V14.00,2013-05-13 04:06:00,
2013-05-12 23:09:00,53.1,32.3,29.94,West,270,1.0,0.0,45,0.00,,---,0.00,VWS V14.00,2013-05-13 04:09:00,
2013-05-12 23:14:00,53.1,32.3,29.94,WSW,248,1.0,1.1,45,0.00,,---,0.00,VWS V14.00,2013-05-13 04:14:00,
2013-05-12 23:19:00,52.9,32.1,29.94,WSW,248,1.0,1.6,45,0.00,,---,0.00,VWS V14.00,2013-05-13 04:19:00,
2013-05-12 23:25:00,52.9,32.1,29.94,WSW,248,3.8,3.8,45,0.00,,---,0.00,VWS V14.00,2013-05-13 04:25:00,
2013-05-12 23:30:00,52.9,32.1,29.94,SW,225,1.0,0.0,45,0.00,,---,0.00,VWS V14.00,2013-05-13 04:30:00,
2013-05-12 23:35:00,52.9,32.1,29.94,WSW,248,1.0,0.0,45,0.00,,---,0.00,VWS V14.00,2013-05-13 04:35:00,
2013-05-12 23:40:00,52.9,32.1,29.94,WSW,248,1.0,0.0,45,0.00,,---,0.00,VWS V14.00,2013-05-13 04:40:00,
2013-05-12 23:45:00,52.9,32.1,29.94,WSW,248,1.0,0.0,45,0.00,,---,0.00,VWS V14.00,2013-05-13 04:45:00,
2013-05-12 23:51:00,52.9,31.6,29.94,WSW,248,1.0,0.0,44,0.00,,---,0.00,VWS V14.00,2013-05-13 04:51:00,
2013-05-12 23:56:00,52.9,31.6,29.94,WSW,248,1.0,0.0,44,0.00,,---,0.00,VWS V14.00,2013-05-13 04:56:00,